<?xml version="1.0" encoding="UTF-8" standalone="no" ?>
<gpx xmlns="http://www.topografix.com/GPX/1/1" xmlns:xsi="http://www.w3.org/2001/XMLSchema-instance" xsi:schemaLocation="http://www.topografix.com/GPX/1/1 http://www.topografix.com/GPX/1/1/gpx.xsd" version="1.1" creator="VisuGPX - https://www.visugpx.com">
  <metadata>
    <name>Pignans : Seignoret et crètes Maraval en VTT</name>
    <desc><![CDATA[On a bien le temps de chauffer avant que ça ne monte fort.]]></desc>
  </metadata>
  <trk>
    <name><![CDATA[Pignans : Seignoret et crètes Maraval en VTT_1]]></name>
    <trkseg>
      <trkpt lat="43.29534" lon="6.24413">
        <ele>230</ele>
        <time>2019-04-10T10:13:50.000Z</time>
      </trkpt>
      <trkpt lat="43.29414" lon="6.24806">
        <ele>219</ele>
        <time>2019-04-10T10:14:56.000Z</time>
      </trkpt>
      <trkpt lat="43.29399" lon="6.24827">
        <ele>229</ele>
        <time>2019-04-10T10:14:59.000Z</time>
      </trkpt>
      <trkpt lat="43.29388" lon="6.2484">
        <ele>235</ele>
        <time>2019-04-10T10:15:01.000Z</time>
      </trkpt>
      <trkpt lat="43.29377" lon="6.24851">
        <ele>240</ele>
        <time>2019-04-10T10:15:03.000Z</time>
      </trkpt>
      <trkpt lat="43.29368" lon="6.24862">
        <ele>245</ele>
        <time>2019-04-10T10:15:05.000Z</time>
      </trkpt>
      <trkpt lat="43.29359" lon="6.24872">
        <ele>247</ele>
        <time>2019-04-10T10:15:07.000Z</time>
      </trkpt>
      <trkpt lat="43.29359" lon="6.24872">
        <ele>247</ele>
        <time>2019-04-10T10:15:09.000Z</time>
      </trkpt>
      <trkpt lat="43.29359" lon="6.24872">
        <ele>247</ele>
        <time>2019-04-10T10:15:11.000Z</time>
      </trkpt>
      <trkpt lat="43.29359" lon="6.24872">
        <ele>247</ele>
        <time>2019-04-10T10:15:13.000Z</time>
      </trkpt>
      <trkpt lat="43.29257" lon="6.25028">
        <ele>243</ele>
        <time>2019-04-10T10:15:39.000Z</time>
      </trkpt>
      <trkpt lat="43.29244" lon="6.2504">
        <ele>245</ele>
        <time>2019-04-10T10:15:41.000Z</time>
      </trkpt>
      <trkpt lat="43.29244" lon="6.2504">
        <ele>245</ele>
        <time>2019-04-10T10:15:43.000Z</time>
      </trkpt>
      <trkpt lat="43.29244" lon="6.2504">
        <ele>245</ele>
        <time>2019-04-10T10:15:45.000Z</time>
      </trkpt>
      <trkpt lat="43.29244" lon="6.2504">
        <ele>245</ele>
        <time>2019-04-10T10:15:47.000Z</time>
      </trkpt>
      <trkpt lat="43.29201" lon="6.25075">
        <ele>245</ele>
        <time>2019-04-10T10:15:51.000Z</time>
      </trkpt>
      <trkpt lat="43.29192" lon="6.25083">
        <ele>245</ele>
        <time>2019-04-10T10:15:53.000Z</time>
      </trkpt>
      <trkpt lat="43.29184" lon="6.25092">
        <ele>246</ele>
        <time>2019-04-10T10:15:55.000Z</time>
      </trkpt>
      <trkpt lat="43.29184" lon="6.25092">
        <ele>246</ele>
        <time>2019-04-10T10:15:57.000Z</time>
      </trkpt>
      <trkpt lat="43.29169" lon="6.25107">
        <ele>244</ele>
        <time>2019-04-10T10:15:59.000Z</time>
      </trkpt>
      <trkpt lat="43.29161" lon="6.25115">
        <ele>242</ele>
        <time>2019-04-10T10:16:01.000Z</time>
      </trkpt>
      <trkpt lat="43.29153" lon="6.25128">
        <ele>243</ele>
        <time>2019-04-10T10:16:03.000Z</time>
      </trkpt>
      <trkpt lat="43.29146" lon="6.2514">
        <ele>245</ele>
        <time>2019-04-10T10:16:05.000Z</time>
      </trkpt>
      <trkpt lat="43.2914" lon="6.25152">
        <ele>247</ele>
        <time>2019-04-10T10:16:07.000Z</time>
      </trkpt>
      <trkpt lat="43.29135" lon="6.25164">
        <ele>245</ele>
        <time>2019-04-10T10:16:09.000Z</time>
      </trkpt>
      <trkpt lat="43.29135" lon="6.25164">
        <ele>245</ele>
        <time>2019-04-10T10:16:11.000Z</time>
      </trkpt>
      <trkpt lat="43.29135" lon="6.25164">
        <ele>245</ele>
        <time>2019-04-10T10:16:13.000Z</time>
      </trkpt>
      <trkpt lat="43.29135" lon="6.25164">
        <ele>245</ele>
        <time>2019-04-10T10:16:15.000Z</time>
      </trkpt>
      <trkpt lat="43.29135" lon="6.25164">
        <ele>245</ele>
        <time>2019-04-10T10:16:17.000Z</time>
      </trkpt>
      <trkpt lat="43.29135" lon="6.25164">
        <ele>245</ele>
        <time>2019-04-10T10:16:19.000Z</time>
      </trkpt>
      <trkpt lat="43.29135" lon="6.25164">
        <ele>245</ele>
        <time>2019-04-10T10:16:21.000Z</time>
      </trkpt>
      <trkpt lat="43.29135" lon="6.25164">
        <ele>245</ele>
        <time>2019-04-10T10:16:27.000Z</time>
      </trkpt>
      <trkpt lat="43.29135" lon="6.25164">
        <ele>245</ele>
        <time>2019-04-10T10:16:29.000Z</time>
      </trkpt>
      <trkpt lat="43.29093" lon="6.25303">
        <ele>242</ele>
        <time>2019-04-10T10:16:31.000Z</time>
      </trkpt>
      <trkpt lat="43.29087" lon="6.25316">
        <ele>243</ele>
        <time>2019-04-10T10:16:33.000Z</time>
      </trkpt>
      <trkpt lat="43.2908" lon="6.25325">
        <ele>243</ele>
        <time>2019-04-10T10:16:35.000Z</time>
      </trkpt>
      <trkpt lat="43.29073" lon="6.25333">
        <ele>243</ele>
        <time>2019-04-10T10:16:37.000Z</time>
      </trkpt>
      <trkpt lat="43.29073" lon="6.25333">
        <ele>243</ele>
        <time>2019-04-10T10:16:39.000Z</time>
      </trkpt>
      <trkpt lat="43.29055" lon="6.25372">
        <ele>244</ele>
        <time>2019-04-10T10:16:43.000Z</time>
      </trkpt>
      <trkpt lat="43.29048" lon="6.2538">
        <ele>242</ele>
        <time>2019-04-10T10:16:45.000Z</time>
      </trkpt>
      <trkpt lat="43.29048" lon="6.2538">
        <ele>242</ele>
        <time>2019-04-10T10:16:47.000Z</time>
      </trkpt>
      <trkpt lat="43.29048" lon="6.2538">
        <ele>242</ele>
        <time>2019-04-10T10:16:49.000Z</time>
      </trkpt>
      <trkpt lat="43.29008" lon="6.25418">
        <ele>243</ele>
        <time>2019-04-10T10:16:55.000Z</time>
      </trkpt>
      <trkpt lat="43.28999" lon="6.25427">
        <ele>244</ele>
        <time>2019-04-10T10:16:57.000Z</time>
      </trkpt>
      <trkpt lat="43.28991" lon="6.25435">
        <ele>244</ele>
        <time>2019-04-10T10:16:59.000Z</time>
      </trkpt>
      <trkpt lat="43.28982" lon="6.25442">
        <ele>246</ele>
        <time>2019-04-10T10:17:01.000Z</time>
      </trkpt>
      <trkpt lat="43.28971" lon="6.25447">
        <ele>246</ele>
        <time>2019-04-10T10:17:03.000Z</time>
      </trkpt>
      <trkpt lat="43.28962" lon="6.25455">
        <ele>247</ele>
        <time>2019-04-10T10:17:05.000Z</time>
      </trkpt>
      <trkpt lat="43.28954" lon="6.25463">
        <ele>249</ele>
        <time>2019-04-10T10:17:07.000Z</time>
      </trkpt>
      <trkpt lat="43.28945" lon="6.25474">
        <ele>249</ele>
        <time>2019-04-10T10:17:09.000Z</time>
      </trkpt>
      <trkpt lat="43.28935" lon="6.25481">
        <ele>248</ele>
        <time>2019-04-10T10:17:11.000Z</time>
      </trkpt>
      <trkpt lat="43.28926" lon="6.25489">
        <ele>250</ele>
        <time>2019-04-10T10:17:13.000Z</time>
      </trkpt>
      <trkpt lat="43.28916" lon="6.25495">
        <ele>248</ele>
        <time>2019-04-10T10:17:15.000Z</time>
      </trkpt>
      <trkpt lat="43.28916" lon="6.25495">
        <ele>248</ele>
        <time>2019-04-10T10:17:17.000Z</time>
      </trkpt>
      <trkpt lat="43.28916" lon="6.25495">
        <ele>248</ele>
        <time>2019-04-10T10:17:19.000Z</time>
      </trkpt>
      <trkpt lat="43.28916" lon="6.25495">
        <ele>248</ele>
        <time>2019-04-10T10:17:21.000Z</time>
      </trkpt>
      <trkpt lat="43.28916" lon="6.25495">
        <ele>248</ele>
        <time>2019-04-10T10:17:23.000Z</time>
      </trkpt>
      <trkpt lat="43.28916" lon="6.25495">
        <ele>248</ele>
        <time>2019-04-10T10:17:25.000Z</time>
      </trkpt>
      <trkpt lat="43.28916" lon="6.25495">
        <ele>248</ele>
        <time>2019-04-10T10:17:27.000Z</time>
      </trkpt>
      <trkpt lat="43.28916" lon="6.25495">
        <ele>248</ele>
        <time>2019-04-10T10:17:29.000Z</time>
      </trkpt>
      <trkpt lat="43.28916" lon="6.25495">
        <ele>248</ele>
        <time>2019-04-10T10:17:31.000Z</time>
      </trkpt>
      <trkpt lat="43.28916" lon="6.25495">
        <ele>248</ele>
        <time>2019-04-10T10:17:33.000Z</time>
      </trkpt>
      <trkpt lat="43.28916" lon="6.25495">
        <ele>248</ele>
        <time>2019-04-10T10:17:35.000Z</time>
      </trkpt>
      <trkpt lat="43.28916" lon="6.25495">
        <ele>248</ele>
        <time>2019-04-10T10:17:37.000Z</time>
      </trkpt>
      <trkpt lat="43.28916" lon="6.25495">
        <ele>248</ele>
        <time>2019-04-10T10:17:39.000Z</time>
      </trkpt>
      <trkpt lat="43.28916" lon="6.25495">
        <ele>248</ele>
        <time>2019-04-10T10:17:41.000Z</time>
      </trkpt>
      <trkpt lat="43.28916" lon="6.25495">
        <ele>248</ele>
        <time>2019-04-10T10:17:43.000Z</time>
      </trkpt>
      <trkpt lat="43.28916" lon="6.25495">
        <ele>248</ele>
        <time>2019-04-10T10:17:49.000Z</time>
      </trkpt>
      <trkpt lat="43.28916" lon="6.25495">
        <ele>248</ele>
        <time>2019-04-10T10:17:51.000Z</time>
      </trkpt>
      <trkpt lat="43.28843" lon="6.25546">
        <ele>252</ele>
        <time>2019-04-10T10:17:55.000Z</time>
      </trkpt>
      <trkpt lat="43.28804" lon="6.25574">
        <ele>254</ele>
        <time>2019-04-10T10:17:57.000Z</time>
      </trkpt>
      <trkpt lat="43.28781" lon="6.25591">
        <ele>254</ele>
        <time>2019-04-10T10:17:59.000Z</time>
      </trkpt>
      <trkpt lat="43.28767" lon="6.25603">
        <ele>254</ele>
        <time>2019-04-10T10:18:01.000Z</time>
      </trkpt>
      <trkpt lat="43.28767" lon="6.25603">
        <ele>254</ele>
        <time>2019-04-10T10:18:03.000Z</time>
      </trkpt>
      <trkpt lat="43.28749" lon="6.25617">
        <ele>257</ele>
        <time>2019-04-10T10:18:07.000Z</time>
      </trkpt>
      <trkpt lat="43.28736" lon="6.25628">
        <ele>257</ele>
        <time>2019-04-10T10:18:09.000Z</time>
      </trkpt>
      <trkpt lat="43.28727" lon="6.25635">
        <ele>257</ele>
        <time>2019-04-10T10:18:11.000Z</time>
      </trkpt>
      <trkpt lat="43.28727" lon="6.25635">
        <ele>257</ele>
        <time>2019-04-10T10:18:13.000Z</time>
      </trkpt>
      <trkpt lat="43.28727" lon="6.25635">
        <ele>257</ele>
        <time>2019-04-10T10:18:15.000Z</time>
      </trkpt>
      <trkpt lat="43.28708" lon="6.25648">
        <ele>256</ele>
        <time>2019-04-10T10:18:19.000Z</time>
      </trkpt>
      <trkpt lat="43.28695" lon="6.25657">
        <ele>257</ele>
        <time>2019-04-10T10:18:21.000Z</time>
      </trkpt>
      <trkpt lat="43.28695" lon="6.25657">
        <ele>257</ele>
        <time>2019-04-10T10:18:23.000Z</time>
      </trkpt>
      <trkpt lat="43.28695" lon="6.25657">
        <ele>257</ele>
        <time>2019-04-10T10:18:26.000Z</time>
      </trkpt>
      <trkpt lat="43.28695" lon="6.25657">
        <ele>257</ele>
        <time>2019-04-10T10:18:27.000Z</time>
      </trkpt>
      <trkpt lat="43.28695" lon="6.25657">
        <ele>257</ele>
        <time>2019-04-10T10:18:29.000Z</time>
      </trkpt>
      <trkpt lat="43.28671" lon="6.25678">
        <ele>256</ele>
        <time>2019-04-10T10:18:33.000Z</time>
      </trkpt>
      <trkpt lat="43.28656" lon="6.25692">
        <ele>256</ele>
        <time>2019-04-10T10:18:35.000Z</time>
      </trkpt>
      <trkpt lat="43.28646" lon="6.25703">
        <ele>258</ele>
        <time>2019-04-10T10:18:37.000Z</time>
      </trkpt>
      <trkpt lat="43.28638" lon="6.25711">
        <ele>259</ele>
        <time>2019-04-10T10:18:39.000Z</time>
      </trkpt>
      <trkpt lat="43.2863" lon="6.25718">
        <ele>259</ele>
        <time>2019-04-10T10:18:41.000Z</time>
      </trkpt>
      <trkpt lat="43.28616" lon="6.25734">
        <ele>261</ele>
        <time>2019-04-10T10:18:43.000Z</time>
      </trkpt>
      <trkpt lat="43.28616" lon="6.25734">
        <ele>261</ele>
        <time>2019-04-10T10:18:45.000Z</time>
      </trkpt>
      <trkpt lat="43.28598" lon="6.25753">
        <ele>261</ele>
        <time>2019-04-10T10:18:49.000Z</time>
      </trkpt>
      <trkpt lat="43.28598" lon="6.25753">
        <ele>261</ele>
        <time>2019-04-10T10:18:51.000Z</time>
      </trkpt>
      <trkpt lat="43.28598" lon="6.25753">
        <ele>261</ele>
        <time>2019-04-10T10:18:53.000Z</time>
      </trkpt>
      <trkpt lat="43.28598" lon="6.25753">
        <ele>261</ele>
        <time>2019-04-10T10:18:55.000Z</time>
      </trkpt>
      <trkpt lat="43.28567" lon="6.25788">
        <ele>265</ele>
        <time>2019-04-10T10:18:59.000Z</time>
      </trkpt>
      <trkpt lat="43.28555" lon="6.25804">
        <ele>262</ele>
        <time>2019-04-10T10:19:03.000Z</time>
      </trkpt>
      <trkpt lat="43.28555" lon="6.25804">
        <ele>262</ele>
        <time>2019-04-10T10:19:05.000Z</time>
      </trkpt>
      <trkpt lat="43.28543" lon="6.2582">
        <ele>263</ele>
        <time>2019-04-10T10:19:07.000Z</time>
      </trkpt>
      <trkpt lat="43.28543" lon="6.2582">
        <ele>263</ele>
        <time>2019-04-10T10:19:09.000Z</time>
      </trkpt>
      <trkpt lat="43.28543" lon="6.2582">
        <ele>263</ele>
        <time>2019-04-10T10:19:11.000Z</time>
      </trkpt>
      <trkpt lat="43.28543" lon="6.2582">
        <ele>263</ele>
        <time>2019-04-10T10:19:13.000Z</time>
      </trkpt>
      <trkpt lat="43.28543" lon="6.2582">
        <ele>263</ele>
        <time>2019-04-10T10:19:15.000Z</time>
      </trkpt>
      <trkpt lat="43.28543" lon="6.2582">
        <ele>263</ele>
        <time>2019-04-10T10:19:17.000Z</time>
      </trkpt>
      <trkpt lat="43.28543" lon="6.2582">
        <ele>263</ele>
        <time>2019-04-10T10:19:19.000Z</time>
      </trkpt>
      <trkpt lat="43.28543" lon="6.2582">
        <ele>263</ele>
        <time>2019-04-10T10:19:21.000Z</time>
      </trkpt>
      <trkpt lat="43.28484" lon="6.25872">
        <ele>267</ele>
        <time>2019-04-10T10:19:25.000Z</time>
      </trkpt>
      <trkpt lat="43.28471" lon="6.25882">
        <ele>268</ele>
        <time>2019-04-10T10:19:29.000Z</time>
      </trkpt>
      <trkpt lat="43.28471" lon="6.25882">
        <ele>268</ele>
        <time>2019-04-10T10:19:31.000Z</time>
      </trkpt>
      <trkpt lat="43.28471" lon="6.25882">
        <ele>268</ele>
        <time>2019-04-10T10:19:33.000Z</time>
      </trkpt>
      <trkpt lat="43.28471" lon="6.25882">
        <ele>268</ele>
        <time>2019-04-10T10:19:35.000Z</time>
      </trkpt>
      <trkpt lat="43.28434" lon="6.25902">
        <ele>269</ele>
        <time>2019-04-10T10:19:39.000Z</time>
      </trkpt>
      <trkpt lat="43.28419" lon="6.25909">
        <ele>270</ele>
        <time>2019-04-10T10:19:43.000Z</time>
      </trkpt>
      <trkpt lat="43.28419" lon="6.25909">
        <ele>270</ele>
        <time>2019-04-10T10:19:45.000Z</time>
      </trkpt>
      <trkpt lat="43.28419" lon="6.25909">
        <ele>270</ele>
        <time>2019-04-10T10:19:47.000Z</time>
      </trkpt>
      <trkpt lat="43.28419" lon="6.25909">
        <ele>270</ele>
        <time>2019-04-10T10:19:49.000Z</time>
      </trkpt>
      <trkpt lat="43.28419" lon="6.25909">
        <ele>270</ele>
        <time>2019-04-10T10:19:51.000Z</time>
      </trkpt>
      <trkpt lat="43.28419" lon="6.25909">
        <ele>270</ele>
        <time>2019-04-10T10:19:55.000Z</time>
      </trkpt>
      <trkpt lat="43.28419" lon="6.25909">
        <ele>270</ele>
        <time>2019-04-10T10:19:57.000Z</time>
      </trkpt>
      <trkpt lat="43.28388" lon="6.25916">
        <ele>266</ele>
        <time>2019-04-10T10:20:01.000Z</time>
      </trkpt>
      <trkpt lat="43.28369" lon="6.25921">
        <ele>266</ele>
        <time>2019-04-10T10:20:03.000Z</time>
      </trkpt>
      <trkpt lat="43.28369" lon="6.25921">
        <ele>266</ele>
        <time>2019-04-10T10:20:05.000Z</time>
      </trkpt>
      <trkpt lat="43.28369" lon="6.25921">
        <ele>266</ele>
        <time>2019-04-10T10:20:07.000Z</time>
      </trkpt>
      <trkpt lat="43.28369" lon="6.25921">
        <ele>266</ele>
        <time>2019-04-10T10:20:09.000Z</time>
      </trkpt>
      <trkpt lat="43.28369" lon="6.25921">
        <ele>266</ele>
        <time>2019-04-10T10:20:11.000Z</time>
      </trkpt>
      <trkpt lat="43.28339" lon="6.25927">
        <ele>266</ele>
        <time>2019-04-10T10:20:15.000Z</time>
      </trkpt>
      <trkpt lat="43.28321" lon="6.25932">
        <ele>268</ele>
        <time>2019-04-10T10:20:17.000Z</time>
      </trkpt>
      <trkpt lat="43.28308" lon="6.25935">
        <ele>269</ele>
        <time>2019-04-10T10:20:19.000Z</time>
      </trkpt>
      <trkpt lat="43.28298" lon="6.25938">
        <ele>271</ele>
        <time>2019-04-10T10:20:21.000Z</time>
      </trkpt>
      <trkpt lat="43.28289" lon="6.2594">
        <ele>272</ele>
        <time>2019-04-10T10:20:23.000Z</time>
      </trkpt>
      <trkpt lat="43.2827" lon="6.25947">
        <ele>271</ele>
        <time>2019-04-10T10:20:26.000Z</time>
      </trkpt>
      <trkpt lat="43.2827" lon="6.25947">
        <ele>271</ele>
        <time>2019-04-10T10:20:27.000Z</time>
      </trkpt>
      <trkpt lat="43.2827" lon="6.25947">
        <ele>271</ele>
        <time>2019-04-10T10:20:29.000Z</time>
      </trkpt>
      <trkpt lat="43.2827" lon="6.25947">
        <ele>271</ele>
        <time>2019-04-10T10:20:31.000Z</time>
      </trkpt>
      <trkpt lat="43.28244" lon="6.25961">
        <ele>266</ele>
        <time>2019-04-10T10:20:33.000Z</time>
      </trkpt>
      <trkpt lat="43.28231" lon="6.25971">
        <ele>267</ele>
        <time>2019-04-10T10:20:37.000Z</time>
      </trkpt>
      <trkpt lat="43.28231" lon="6.25971">
        <ele>267</ele>
        <time>2019-04-10T10:20:39.000Z</time>
      </trkpt>
      <trkpt lat="43.28231" lon="6.25971">
        <ele>267</ele>
        <time>2019-04-10T10:20:41.000Z</time>
      </trkpt>
      <trkpt lat="43.28231" lon="6.25971">
        <ele>267</ele>
        <time>2019-04-10T10:20:43.000Z</time>
      </trkpt>
      <trkpt lat="43.28231" lon="6.25971">
        <ele>267</ele>
        <time>2019-04-10T10:20:49.000Z</time>
      </trkpt>
      <trkpt lat="43.28182" lon="6.26019">
        <ele>273</ele>
        <time>2019-04-10T10:20:53.000Z</time>
      </trkpt>
      <trkpt lat="43.28182" lon="6.26019">
        <ele>273</ele>
        <time>2019-04-10T10:20:55.000Z</time>
      </trkpt>
      <trkpt lat="43.28182" lon="6.26019">
        <ele>273</ele>
        <time>2019-04-10T10:20:57.000Z</time>
      </trkpt>
      <trkpt lat="43.2816" lon="6.26046">
        <ele>280</ele>
        <time>2019-04-10T10:21:01.000Z</time>
      </trkpt>
      <trkpt lat="43.28149" lon="6.26057">
        <ele>282</ele>
        <time>2019-04-10T10:21:05.000Z</time>
      </trkpt>
      <trkpt lat="43.28149" lon="6.26057">
        <ele>282</ele>
        <time>2019-04-10T10:21:07.000Z</time>
      </trkpt>
      <trkpt lat="43.28149" lon="6.26057">
        <ele>282</ele>
        <time>2019-04-10T10:21:09.000Z</time>
      </trkpt>
      <trkpt lat="43.28149" lon="6.26057">
        <ele>282</ele>
        <time>2019-04-10T10:21:11.000Z</time>
      </trkpt>
      <trkpt lat="43.28149" lon="6.26057">
        <ele>282</ele>
        <time>2019-04-10T10:21:13.000Z</time>
      </trkpt>
      <trkpt lat="43.28149" lon="6.26057">
        <ele>282</ele>
        <time>2019-04-10T10:21:15.000Z</time>
      </trkpt>
      <trkpt lat="43.28149" lon="6.26057">
        <ele>282</ele>
        <time>2019-04-10T10:21:17.000Z</time>
      </trkpt>
      <trkpt lat="43.28149" lon="6.26057">
        <ele>282</ele>
        <time>2019-04-10T10:21:19.000Z</time>
      </trkpt>
      <trkpt lat="43.28149" lon="6.26057">
        <ele>282</ele>
        <time>2019-04-10T10:21:21.000Z</time>
      </trkpt>
      <trkpt lat="43.28149" lon="6.26057">
        <ele>282</ele>
        <time>2019-04-10T10:21:23.000Z</time>
      </trkpt>
      <trkpt lat="43.28149" lon="6.26057">
        <ele>282</ele>
        <time>2019-04-10T10:21:27.000Z</time>
      </trkpt>
      <trkpt lat="43.28149" lon="6.26057">
        <ele>282</ele>
        <time>2019-04-10T10:21:29.000Z</time>
      </trkpt>
      <trkpt lat="43.28085" lon="6.26123">
        <ele>282</ele>
        <time>2019-04-10T10:21:31.000Z</time>
      </trkpt>
      <trkpt lat="43.28074" lon="6.26133">
        <ele>281</ele>
        <time>2019-04-10T10:21:35.000Z</time>
      </trkpt>
      <trkpt lat="43.28062" lon="6.26145">
        <ele>282</ele>
        <time>2019-04-10T10:21:39.000Z</time>
      </trkpt>
      <trkpt lat="43.28055" lon="6.26152">
        <ele>283</ele>
        <time>2019-04-10T10:21:43.000Z</time>
      </trkpt>
      <trkpt lat="43.28048" lon="6.26157">
        <ele>284</ele>
        <time>2019-04-10T10:21:45.000Z</time>
      </trkpt>
      <trkpt lat="43.28041" lon="6.26162">
        <ele>283</ele>
        <time>2019-04-10T10:21:47.000Z</time>
      </trkpt>
      <trkpt lat="43.28034" lon="6.26168">
        <ele>282</ele>
        <time>2019-04-10T10:21:49.000Z</time>
      </trkpt>
      <trkpt lat="43.28027" lon="6.26174">
        <ele>281</ele>
        <time>2019-04-10T10:21:51.000Z</time>
      </trkpt>
      <trkpt lat="43.28013" lon="6.26188">
        <ele>282</ele>
        <time>2019-04-10T10:21:53.000Z</time>
      </trkpt>
      <trkpt lat="43.28013" lon="6.26188">
        <ele>282</ele>
        <time>2019-04-10T10:21:59.000Z</time>
      </trkpt>
      <trkpt lat="43.28013" lon="6.26188">
        <ele>282</ele>
        <time>2019-04-10T10:22:01.000Z</time>
      </trkpt>
      <trkpt lat="43.28013" lon="6.26188">
        <ele>282</ele>
        <time>2019-04-10T10:22:07.000Z</time>
      </trkpt>
      <trkpt lat="43.28013" lon="6.26188">
        <ele>282</ele>
        <time>2019-04-10T10:22:09.000Z</time>
      </trkpt>
      <trkpt lat="43.27942" lon="6.26236">
        <ele>284</ele>
        <time>2019-04-10T10:22:13.000Z</time>
      </trkpt>
      <trkpt lat="43.27942" lon="6.26236">
        <ele>284</ele>
        <time>2019-04-10T10:22:15.000Z</time>
      </trkpt>
      <trkpt lat="43.27942" lon="6.26236">
        <ele>284</ele>
        <time>2019-04-10T10:22:17.000Z</time>
      </trkpt>
      <trkpt lat="43.27942" lon="6.26236">
        <ele>284</ele>
        <time>2019-04-10T10:22:19.000Z</time>
      </trkpt>
      <trkpt lat="43.27914" lon="6.26278">
        <ele>291</ele>
        <time>2019-04-10T10:22:23.000Z</time>
      </trkpt>
      <trkpt lat="43.27914" lon="6.26278">
        <ele>291</ele>
        <time>2019-04-10T10:22:26.000Z</time>
      </trkpt>
      <trkpt lat="43.27914" lon="6.26278">
        <ele>291</ele>
        <time>2019-04-10T10:22:27.000Z</time>
      </trkpt>
      <trkpt lat="43.27914" lon="6.26278">
        <ele>291</ele>
        <time>2019-04-10T10:22:29.000Z</time>
      </trkpt>
      <trkpt lat="43.27897" lon="6.26318">
        <ele>290</ele>
        <time>2019-04-10T10:22:33.000Z</time>
      </trkpt>
      <trkpt lat="43.27897" lon="6.26318">
        <ele>290</ele>
        <time>2019-04-10T10:22:35.000Z</time>
      </trkpt>
      <trkpt lat="43.27887" lon="6.26334">
        <ele>291</ele>
        <time>2019-04-10T10:22:37.000Z</time>
      </trkpt>
      <trkpt lat="43.27887" lon="6.26334">
        <ele>291</ele>
        <time>2019-04-10T10:22:39.000Z</time>
      </trkpt>
      <trkpt lat="43.27887" lon="6.26334">
        <ele>291</ele>
        <time>2019-04-10T10:22:41.000Z</time>
      </trkpt>
      <trkpt lat="43.27887" lon="6.26334">
        <ele>291</ele>
        <time>2019-04-10T10:22:43.000Z</time>
      </trkpt>
      <trkpt lat="43.27849" lon="6.26352">
        <ele>296</ele>
        <time>2019-04-10T10:22:49.000Z</time>
      </trkpt>
      <trkpt lat="43.27834" lon="6.2635">
        <ele>296</ele>
        <time>2019-04-10T10:22:53.000Z</time>
      </trkpt>
      <trkpt lat="43.27834" lon="6.2635">
        <ele>296</ele>
        <time>2019-04-10T10:22:55.000Z</time>
      </trkpt>
      <trkpt lat="43.27819" lon="6.26348">
        <ele>295</ele>
        <time>2019-04-10T10:22:57.000Z</time>
      </trkpt>
      <trkpt lat="43.27819" lon="6.26348">
        <ele>295</ele>
        <time>2019-04-10T10:22:59.000Z</time>
      </trkpt>
      <trkpt lat="43.27819" lon="6.26348">
        <ele>295</ele>
        <time>2019-04-10T10:23:01.000Z</time>
      </trkpt>
      <trkpt lat="43.27819" lon="6.26348">
        <ele>295</ele>
        <time>2019-04-10T10:23:03.000Z</time>
      </trkpt>
      <trkpt lat="43.27819" lon="6.26348">
        <ele>295</ele>
        <time>2019-04-10T10:23:05.000Z</time>
      </trkpt>
      <trkpt lat="43.27819" lon="6.26348">
        <ele>295</ele>
        <time>2019-04-10T10:23:07.000Z</time>
      </trkpt>
      <trkpt lat="43.27794" lon="6.26342">
        <ele>300</ele>
        <time>2019-04-10T10:23:13.000Z</time>
      </trkpt>
      <trkpt lat="43.27778" lon="6.26338">
        <ele>301</ele>
        <time>2019-04-10T10:23:15.000Z</time>
      </trkpt>
      <trkpt lat="43.27778" lon="6.26338">
        <ele>301</ele>
        <time>2019-04-10T10:23:17.000Z</time>
      </trkpt>
      <trkpt lat="43.2776" lon="6.26334">
        <ele>297</ele>
        <time>2019-04-10T10:23:21.000Z</time>
      </trkpt>
      <trkpt lat="43.27748" lon="6.2633">
        <ele>297</ele>
        <time>2019-04-10T10:23:23.000Z</time>
      </trkpt>
      <trkpt lat="43.27748" lon="6.2633">
        <ele>297</ele>
        <time>2019-04-10T10:23:25.000Z</time>
      </trkpt>
      <trkpt lat="43.27735" lon="6.26329">
        <ele>295</ele>
        <time>2019-04-10T10:23:27.000Z</time>
      </trkpt>
      <trkpt lat="43.27724" lon="6.26327">
        <ele>296</ele>
        <time>2019-04-10T10:23:29.000Z</time>
      </trkpt>
      <trkpt lat="43.27715" lon="6.26326">
        <ele>296</ele>
        <time>2019-04-10T10:23:31.000Z</time>
      </trkpt>
      <trkpt lat="43.27706" lon="6.26325">
        <ele>296</ele>
        <time>2019-04-10T10:23:33.000Z</time>
      </trkpt>
      <trkpt lat="43.27697" lon="6.26325">
        <ele>297</ele>
        <time>2019-04-10T10:23:35.000Z</time>
      </trkpt>
      <trkpt lat="43.27682" lon="6.26325">
        <ele>297</ele>
        <time>2019-04-10T10:23:37.000Z</time>
      </trkpt>
      <trkpt lat="43.27682" lon="6.26325">
        <ele>297</ele>
        <time>2019-04-10T10:23:39.000Z</time>
      </trkpt>
      <trkpt lat="43.27682" lon="6.26325">
        <ele>297</ele>
        <time>2019-04-10T10:23:41.000Z</time>
      </trkpt>
      <trkpt lat="43.27682" lon="6.26325">
        <ele>297</ele>
        <time>2019-04-10T10:23:43.000Z</time>
      </trkpt>
      <trkpt lat="43.27642" lon="6.26335">
        <ele>298</ele>
        <time>2019-04-10T10:23:47.000Z</time>
      </trkpt>
      <trkpt lat="43.27627" lon="6.26338">
        <ele>298</ele>
        <time>2019-04-10T10:23:51.000Z</time>
      </trkpt>
      <trkpt lat="43.27627" lon="6.26338">
        <ele>298</ele>
        <time>2019-04-10T10:23:53.000Z</time>
      </trkpt>
      <trkpt lat="43.27627" lon="6.26338">
        <ele>298</ele>
        <time>2019-04-10T10:23:55.000Z</time>
      </trkpt>
      <trkpt lat="43.27627" lon="6.26338">
        <ele>298</ele>
        <time>2019-04-10T10:23:57.000Z</time>
      </trkpt>
      <trkpt lat="43.27627" lon="6.26338">
        <ele>298</ele>
        <time>2019-04-10T10:23:59.000Z</time>
      </trkpt>
      <trkpt lat="43.27587" lon="6.26351">
        <ele>296</ele>
        <time>2019-04-10T10:24:03.000Z</time>
      </trkpt>
      <trkpt lat="43.27573" lon="6.26357">
        <ele>295</ele>
        <time>2019-04-10T10:24:07.000Z</time>
      </trkpt>
      <trkpt lat="43.27559" lon="6.26356">
        <ele>296</ele>
        <time>2019-04-10T10:24:11.000Z</time>
      </trkpt>
      <trkpt lat="43.27559" lon="6.26356">
        <ele>296</ele>
        <time>2019-04-10T10:24:13.000Z</time>
      </trkpt>
      <trkpt lat="43.27559" lon="6.26356">
        <ele>296</ele>
        <time>2019-04-10T10:24:15.000Z</time>
      </trkpt>
      <trkpt lat="43.27559" lon="6.26356">
        <ele>296</ele>
        <time>2019-04-10T10:24:17.000Z</time>
      </trkpt>
      <trkpt lat="43.27559" lon="6.26356">
        <ele>296</ele>
        <time>2019-04-10T10:24:19.000Z</time>
      </trkpt>
      <trkpt lat="43.27559" lon="6.26356">
        <ele>296</ele>
        <time>2019-04-10T10:24:21.000Z</time>
      </trkpt>
      <trkpt lat="43.27559" lon="6.26356">
        <ele>296</ele>
        <time>2019-04-10T10:24:23.000Z</time>
      </trkpt>
      <trkpt lat="43.27506" lon="6.26354">
        <ele>305</ele>
        <time>2019-04-10T10:24:29.000Z</time>
      </trkpt>
      <trkpt lat="43.27506" lon="6.26354">
        <ele>305</ele>
        <time>2019-04-10T10:24:31.000Z</time>
      </trkpt>
      <trkpt lat="43.27506" lon="6.26354">
        <ele>305</ele>
        <time>2019-04-10T10:24:33.000Z</time>
      </trkpt>
      <trkpt lat="43.27506" lon="6.26354">
        <ele>305</ele>
        <time>2019-04-10T10:24:35.000Z</time>
      </trkpt>
      <trkpt lat="43.27506" lon="6.26354">
        <ele>305</ele>
        <time>2019-04-10T10:24:37.000Z</time>
      </trkpt>
      <trkpt lat="43.27506" lon="6.26354">
        <ele>305</ele>
        <time>2019-04-10T10:24:39.000Z</time>
      </trkpt>
      <trkpt lat="43.27506" lon="6.26354">
        <ele>305</ele>
        <time>2019-04-10T10:24:41.000Z</time>
      </trkpt>
      <trkpt lat="43.27506" lon="6.26354">
        <ele>305</ele>
        <time>2019-04-10T10:24:43.000Z</time>
      </trkpt>
      <trkpt lat="43.27464" lon="6.26381">
        <ele>308</ele>
        <time>2019-04-10T10:24:47.000Z</time>
      </trkpt>
      <trkpt lat="43.27464" lon="6.26381">
        <ele>308</ele>
        <time>2019-04-10T10:24:49.000Z</time>
      </trkpt>
      <trkpt lat="43.27464" lon="6.26381">
        <ele>308</ele>
        <time>2019-04-10T10:24:51.000Z</time>
      </trkpt>
      <trkpt lat="43.27457" lon="6.26387">
        <ele>311</ele>
        <time>2019-04-10T10:24:53.000Z</time>
      </trkpt>
      <trkpt lat="43.27452" lon="6.2639">
        <ele>314</ele>
        <time>2019-04-10T10:24:55.000Z</time>
      </trkpt>
      <trkpt lat="43.27447" lon="6.26393">
        <ele>314</ele>
        <time>2019-04-10T10:24:57.000Z</time>
      </trkpt>
      <trkpt lat="43.27447" lon="6.26393">
        <ele>314</ele>
        <time>2019-04-10T10:24:59.000Z</time>
      </trkpt>
      <trkpt lat="43.27447" lon="6.26393">
        <ele>314</ele>
        <time>2019-04-10T10:25:01.000Z</time>
      </trkpt>
      <trkpt lat="43.27434" lon="6.264">
        <ele>318</ele>
        <time>2019-04-10T10:25:05.000Z</time>
      </trkpt>
      <trkpt lat="43.27425" lon="6.26404">
        <ele>321</ele>
        <time>2019-04-10T10:25:07.000Z</time>
      </trkpt>
      <trkpt lat="43.27417" lon="6.26407">
        <ele>320</ele>
        <time>2019-04-10T10:25:09.000Z</time>
      </trkpt>
      <trkpt lat="43.2741" lon="6.26408">
        <ele>319</ele>
        <time>2019-04-10T10:25:11.000Z</time>
      </trkpt>
      <trkpt lat="43.27403" lon="6.26409">
        <ele>319</ele>
        <time>2019-04-10T10:25:13.000Z</time>
      </trkpt>
      <trkpt lat="43.2739" lon="6.26412">
        <ele>319</ele>
        <time>2019-04-10T10:25:15.000Z</time>
      </trkpt>
      <trkpt lat="43.27379" lon="6.26419">
        <ele>318</ele>
        <time>2019-04-10T10:25:19.000Z</time>
      </trkpt>
      <trkpt lat="43.27379" lon="6.26419">
        <ele>318</ele>
        <time>2019-04-10T10:25:21.000Z</time>
      </trkpt>
      <trkpt lat="43.27379" lon="6.26419">
        <ele>318</ele>
        <time>2019-04-10T10:25:23.000Z</time>
      </trkpt>
      <trkpt lat="43.27359" lon="6.26421">
        <ele>318</ele>
        <time>2019-04-10T10:25:25.000Z</time>
      </trkpt>
      <trkpt lat="43.27346" lon="6.26427">
        <ele>318</ele>
        <time>2019-04-10T10:25:29.000Z</time>
      </trkpt>
      <trkpt lat="43.27333" lon="6.2643">
        <ele>313</ele>
        <time>2019-04-10T10:25:33.000Z</time>
      </trkpt>
      <trkpt lat="43.27333" lon="6.2643">
        <ele>313</ele>
        <time>2019-04-10T10:25:35.000Z</time>
      </trkpt>
      <trkpt lat="43.27333" lon="6.2643">
        <ele>313</ele>
        <time>2019-04-10T10:25:37.000Z</time>
      </trkpt>
      <trkpt lat="43.27333" lon="6.2643">
        <ele>313</ele>
        <time>2019-04-10T10:25:39.000Z</time>
      </trkpt>
      <trkpt lat="43.27333" lon="6.2643">
        <ele>313</ele>
        <time>2019-04-10T10:25:41.000Z</time>
      </trkpt>
      <trkpt lat="43.27333" lon="6.2643">
        <ele>313</ele>
        <time>2019-04-10T10:25:43.000Z</time>
      </trkpt>
      <trkpt lat="43.27291" lon="6.26448">
        <ele>310</ele>
        <time>2019-04-10T10:25:47.000Z</time>
      </trkpt>
      <trkpt lat="43.27279" lon="6.26453">
        <ele>311</ele>
        <time>2019-04-10T10:25:51.000Z</time>
      </trkpt>
      <trkpt lat="43.27279" lon="6.26453">
        <ele>311</ele>
        <time>2019-04-10T10:25:53.000Z</time>
      </trkpt>
      <trkpt lat="43.27264" lon="6.26456">
        <ele>313</ele>
        <time>2019-04-10T10:25:55.000Z</time>
      </trkpt>
      <trkpt lat="43.27255" lon="6.26458">
        <ele>317</ele>
        <time>2019-04-10T10:25:57.000Z</time>
      </trkpt>
      <trkpt lat="43.27245" lon="6.26462">
        <ele>314</ele>
        <time>2019-04-10T10:26:01.000Z</time>
      </trkpt>
      <trkpt lat="43.27245" lon="6.26462">
        <ele>314</ele>
        <time>2019-04-10T10:26:03.000Z</time>
      </trkpt>
      <trkpt lat="43.27245" lon="6.26462">
        <ele>314</ele>
        <time>2019-04-10T10:26:05.000Z</time>
      </trkpt>
      <trkpt lat="43.27245" lon="6.26462">
        <ele>314</ele>
        <time>2019-04-10T10:26:07.000Z</time>
      </trkpt>
      <trkpt lat="43.27216" lon="6.26477">
        <ele>314</ele>
        <time>2019-04-10T10:26:13.000Z</time>
      </trkpt>
      <trkpt lat="43.27216" lon="6.26477">
        <ele>314</ele>
        <time>2019-04-10T10:26:15.000Z</time>
      </trkpt>
      <trkpt lat="43.27216" lon="6.26477">
        <ele>314</ele>
        <time>2019-04-10T10:26:17.000Z</time>
      </trkpt>
      <trkpt lat="43.27216" lon="6.26477">
        <ele>314</ele>
        <time>2019-04-10T10:26:19.000Z</time>
      </trkpt>
      <trkpt lat="43.27216" lon="6.26477">
        <ele>314</ele>
        <time>2019-04-10T10:26:21.000Z</time>
      </trkpt>
      <trkpt lat="43.27185" lon="6.26492">
        <ele>313</ele>
        <time>2019-04-10T10:26:26.000Z</time>
      </trkpt>
      <trkpt lat="43.27185" lon="6.26492">
        <ele>313</ele>
        <time>2019-04-10T10:26:27.000Z</time>
      </trkpt>
      <trkpt lat="43.27185" lon="6.26492">
        <ele>313</ele>
        <time>2019-04-10T10:26:29.000Z</time>
      </trkpt>
      <trkpt lat="43.27185" lon="6.26492">
        <ele>313</ele>
        <time>2019-04-10T10:26:31.000Z</time>
      </trkpt>
      <trkpt lat="43.27169" lon="6.26501">
        <ele>316</ele>
        <time>2019-04-10T10:26:39.000Z</time>
      </trkpt>
      <trkpt lat="43.27169" lon="6.26501">
        <ele>316</ele>
        <time>2019-04-10T10:26:41.000Z</time>
      </trkpt>
      <trkpt lat="43.27169" lon="6.26501">
        <ele>316</ele>
        <time>2019-04-10T10:26:43.000Z</time>
      </trkpt>
      <trkpt lat="43.27169" lon="6.26501">
        <ele>316</ele>
        <time>2019-04-10T10:26:46.000Z</time>
      </trkpt>
      <trkpt lat="43.27169" lon="6.26501">
        <ele>316</ele>
        <time>2019-04-10T10:26:48.000Z</time>
      </trkpt>
      <trkpt lat="43.27169" lon="6.26501">
        <ele>316</ele>
        <time>2019-04-10T10:26:50.000Z</time>
      </trkpt>
      <trkpt lat="43.27145" lon="6.26517">
        <ele>322</ele>
        <time>2019-04-10T10:26:54.000Z</time>
      </trkpt>
      <trkpt lat="43.27131" lon="6.26526">
        <ele>323</ele>
        <time>2019-04-10T10:26:56.000Z</time>
      </trkpt>
      <trkpt lat="43.27121" lon="6.26532">
        <ele>323</ele>
        <time>2019-04-10T10:26:58.000Z</time>
      </trkpt>
      <trkpt lat="43.27113" lon="6.26537">
        <ele>323</ele>
        <time>2019-04-10T10:27:00.000Z</time>
      </trkpt>
      <trkpt lat="43.27106" lon="6.26542">
        <ele>325</ele>
        <time>2019-04-10T10:27:02.000Z</time>
      </trkpt>
      <trkpt lat="43.27096" lon="6.26554">
        <ele>327</ele>
        <time>2019-04-10T10:27:04.000Z</time>
      </trkpt>
      <trkpt lat="43.2709" lon="6.26569">
        <ele>330</ele>
        <time>2019-04-10T10:27:08.000Z</time>
      </trkpt>
      <trkpt lat="43.2709" lon="6.26569">
        <ele>330</ele>
        <time>2019-04-10T10:27:10.000Z</time>
      </trkpt>
      <trkpt lat="43.2709" lon="6.26569">
        <ele>330</ele>
        <time>2019-04-10T10:27:12.000Z</time>
      </trkpt>
      <trkpt lat="43.27082" lon="6.26601">
        <ele>328</ele>
        <time>2019-04-10T10:27:16.000Z</time>
      </trkpt>
      <trkpt lat="43.27077" lon="6.26616">
        <ele>333</ele>
        <time>2019-04-10T10:27:20.000Z</time>
      </trkpt>
      <trkpt lat="43.27077" lon="6.26616">
        <ele>333</ele>
        <time>2019-04-10T10:27:22.000Z</time>
      </trkpt>
      <trkpt lat="43.27077" lon="6.26616">
        <ele>333</ele>
        <time>2019-04-10T10:27:24.000Z</time>
      </trkpt>
      <trkpt lat="43.27061" lon="6.26643">
        <ele>334</ele>
        <time>2019-04-10T10:27:26.000Z</time>
      </trkpt>
      <trkpt lat="43.27055" lon="6.26658">
        <ele>336</ele>
        <time>2019-04-10T10:27:30.000Z</time>
      </trkpt>
      <trkpt lat="43.27055" lon="6.26658">
        <ele>336</ele>
        <time>2019-04-10T10:27:32.000Z</time>
      </trkpt>
      <trkpt lat="43.27055" lon="6.26658">
        <ele>336</ele>
        <time>2019-04-10T10:27:35.000Z</time>
      </trkpt>
      <trkpt lat="43.27043" lon="6.26701">
        <ele>334</ele>
        <time>2019-04-10T10:27:39.000Z</time>
      </trkpt>
      <trkpt lat="43.27043" lon="6.26701">
        <ele>334</ele>
        <time>2019-04-10T10:27:41.000Z</time>
      </trkpt>
      <trkpt lat="43.27039" lon="6.2672">
        <ele>334</ele>
        <time>2019-04-10T10:27:43.000Z</time>
      </trkpt>
      <trkpt lat="43.27039" lon="6.2672">
        <ele>334</ele>
        <time>2019-04-10T10:27:45.000Z</time>
      </trkpt>
      <trkpt lat="43.27036" lon="6.26739">
        <ele>335</ele>
        <time>2019-04-10T10:27:47.000Z</time>
      </trkpt>
      <trkpt lat="43.27036" lon="6.26739">
        <ele>335</ele>
        <time>2019-04-10T10:27:49.000Z</time>
      </trkpt>
      <trkpt lat="43.27036" lon="6.26739">
        <ele>335</ele>
        <time>2019-04-10T10:27:51.000Z</time>
      </trkpt>
      <trkpt lat="43.27036" lon="6.26739">
        <ele>335</ele>
        <time>2019-04-10T10:27:53.000Z</time>
      </trkpt>
      <trkpt lat="43.27036" lon="6.26739">
        <ele>335</ele>
        <time>2019-04-10T10:27:55.000Z</time>
      </trkpt>
      <trkpt lat="43.27036" lon="6.26739">
        <ele>335</ele>
        <time>2019-04-10T10:27:57.000Z</time>
      </trkpt>
      <trkpt lat="43.27036" lon="6.26739">
        <ele>335</ele>
        <time>2019-04-10T10:27:59.000Z</time>
      </trkpt>
      <trkpt lat="43.2702" lon="6.2681">
        <ele>335</ele>
        <time>2019-04-10T10:28:03.000Z</time>
      </trkpt>
      <trkpt lat="43.27018" lon="6.26823">
        <ele>337</ele>
        <time>2019-04-10T10:28:05.000Z</time>
      </trkpt>
      <trkpt lat="43.27017" lon="6.2684">
        <ele>339</ele>
        <time>2019-04-10T10:28:09.000Z</time>
      </trkpt>
      <trkpt lat="43.27017" lon="6.2684">
        <ele>339</ele>
        <time>2019-04-10T10:28:11.000Z</time>
      </trkpt>
      <trkpt lat="43.27017" lon="6.2684">
        <ele>339</ele>
        <time>2019-04-10T10:28:13.000Z</time>
      </trkpt>
      <trkpt lat="43.27017" lon="6.2684">
        <ele>339</ele>
        <time>2019-04-10T10:28:15.000Z</time>
      </trkpt>
      <trkpt lat="43.27017" lon="6.2684">
        <ele>339</ele>
        <time>2019-04-10T10:28:17.000Z</time>
      </trkpt>
      <trkpt lat="43.27017" lon="6.2684">
        <ele>339</ele>
        <time>2019-04-10T10:28:23.000Z</time>
      </trkpt>
      <trkpt lat="43.27017" lon="6.2684">
        <ele>339</ele>
        <time>2019-04-10T10:28:25.000Z</time>
      </trkpt>
      <trkpt lat="43.27017" lon="6.2684">
        <ele>339</ele>
        <time>2019-04-10T10:28:27.000Z</time>
      </trkpt>
      <trkpt lat="43.27017" lon="6.2684">
        <ele>339</ele>
        <time>2019-04-10T10:28:28.000Z</time>
      </trkpt>
      <trkpt lat="43.27011" lon="6.26882">
        <ele>342</ele>
        <time>2019-04-10T10:28:32.000Z</time>
      </trkpt>
      <trkpt lat="43.27009" lon="6.26907">
        <ele>343</ele>
        <time>2019-04-10T10:28:34.000Z</time>
      </trkpt>
      <trkpt lat="43.27008" lon="6.26922">
        <ele>344</ele>
        <time>2019-04-10T10:28:36.000Z</time>
      </trkpt>
      <trkpt lat="43.27007" lon="6.26934">
        <ele>344</ele>
        <time>2019-04-10T10:28:38.000Z</time>
      </trkpt>
      <trkpt lat="43.27007" lon="6.26934">
        <ele>344</ele>
        <time>2019-04-10T10:28:40.000Z</time>
      </trkpt>
      <trkpt lat="43.27007" lon="6.26934">
        <ele>344</ele>
        <time>2019-04-10T10:28:42.000Z</time>
      </trkpt>
      <trkpt lat="43.27007" lon="6.26934">
        <ele>344</ele>
        <time>2019-04-10T10:28:44.000Z</time>
      </trkpt>
      <trkpt lat="43.27007" lon="6.26934">
        <ele>344</ele>
        <time>2019-04-10T10:28:46.000Z</time>
      </trkpt>
      <trkpt lat="43.27007" lon="6.26963">
        <ele>349</ele>
        <time>2019-04-10T10:28:50.000Z</time>
      </trkpt>
      <trkpt lat="43.27006" lon="6.26982">
        <ele>347</ele>
        <time>2019-04-10T10:28:52.000Z</time>
      </trkpt>
      <trkpt lat="43.27005" lon="6.26997">
        <ele>347</ele>
        <time>2019-04-10T10:28:54.000Z</time>
      </trkpt>
      <trkpt lat="43.27004" lon="6.2701">
        <ele>346</ele>
        <time>2019-04-10T10:28:56.000Z</time>
      </trkpt>
      <trkpt lat="43.27002" lon="6.27022">
        <ele>346</ele>
        <time>2019-04-10T10:28:58.000Z</time>
      </trkpt>
      <trkpt lat="43.26994" lon="6.27048">
        <ele>348</ele>
        <time>2019-04-10T10:29:00.000Z</time>
      </trkpt>
      <trkpt lat="43.26991" lon="6.2706">
        <ele>343</ele>
        <time>2019-04-10T10:29:02.000Z</time>
      </trkpt>
      <trkpt lat="43.26986" lon="6.27073">
        <ele>344</ele>
        <time>2019-04-10T10:29:04.000Z</time>
      </trkpt>
      <trkpt lat="43.26982" lon="6.27087">
        <ele>345</ele>
        <time>2019-04-10T10:29:06.000Z</time>
      </trkpt>
      <trkpt lat="43.26982" lon="6.27087">
        <ele>345</ele>
        <time>2019-04-10T10:29:08.000Z</time>
      </trkpt>
      <trkpt lat="43.26982" lon="6.27087">
        <ele>345</ele>
        <time>2019-04-10T10:29:10.000Z</time>
      </trkpt>
      <trkpt lat="43.26982" lon="6.27087">
        <ele>345</ele>
        <time>2019-04-10T10:29:12.000Z</time>
      </trkpt>
      <trkpt lat="43.26982" lon="6.27087">
        <ele>345</ele>
        <time>2019-04-10T10:29:14.000Z</time>
      </trkpt>
      <trkpt lat="43.26982" lon="6.27087">
        <ele>345</ele>
        <time>2019-04-10T10:29:16.000Z</time>
      </trkpt>
      <trkpt lat="43.26982" lon="6.27087">
        <ele>345</ele>
        <time>2019-04-10T10:29:18.000Z</time>
      </trkpt>
      <trkpt lat="43.26982" lon="6.27087">
        <ele>345</ele>
        <time>2019-04-10T10:29:20.000Z</time>
      </trkpt>
      <trkpt lat="43.26982" lon="6.27087">
        <ele>345</ele>
        <time>2019-04-10T10:29:22.000Z</time>
      </trkpt>
      <trkpt lat="43.26982" lon="6.27087">
        <ele>345</ele>
        <time>2019-04-10T10:29:24.000Z</time>
      </trkpt>
      <trkpt lat="43.26982" lon="6.27087">
        <ele>345</ele>
        <time>2019-04-10T10:29:26.000Z</time>
      </trkpt>
      <trkpt lat="43.26982" lon="6.27087">
        <ele>345</ele>
        <time>2019-04-10T10:29:28.000Z</time>
      </trkpt>
      <trkpt lat="43.26982" lon="6.27087">
        <ele>345</ele>
        <time>2019-04-10T10:29:30.000Z</time>
      </trkpt>
      <trkpt lat="43.26982" lon="6.27087">
        <ele>345</ele>
        <time>2019-04-10T10:29:32.000Z</time>
      </trkpt>
      <trkpt lat="43.26982" lon="6.27087">
        <ele>345</ele>
        <time>2019-04-10T10:29:34.000Z</time>
      </trkpt>
      <trkpt lat="43.26982" lon="6.27087">
        <ele>345</ele>
        <time>2019-04-10T10:29:36.000Z</time>
      </trkpt>
      <trkpt lat="43.26982" lon="6.27087">
        <ele>345</ele>
        <time>2019-04-10T10:29:38.000Z</time>
      </trkpt>
      <trkpt lat="43.26982" lon="6.27087">
        <ele>345</ele>
        <time>2019-04-10T10:29:40.000Z</time>
      </trkpt>
      <trkpt lat="43.26982" lon="6.27087">
        <ele>345</ele>
        <time>2019-04-10T10:29:42.000Z</time>
      </trkpt>
      <trkpt lat="43.26977" lon="6.27267">
        <ele>350</ele>
        <time>2019-04-10T10:29:48.000Z</time>
      </trkpt>
      <trkpt lat="43.26977" lon="6.27267">
        <ele>350</ele>
        <time>2019-04-10T10:29:50.000Z</time>
      </trkpt>
      <trkpt lat="43.26977" lon="6.27267">
        <ele>350</ele>
        <time>2019-04-10T10:29:52.000Z</time>
      </trkpt>
      <trkpt lat="43.26977" lon="6.27267">
        <ele>350</ele>
        <time>2019-04-10T10:29:54.000Z</time>
      </trkpt>
      <trkpt lat="43.26977" lon="6.27267">
        <ele>350</ele>
        <time>2019-04-10T10:29:56.000Z</time>
      </trkpt>
      <trkpt lat="43.26977" lon="6.27267">
        <ele>350</ele>
        <time>2019-04-10T10:29:58.000Z</time>
      </trkpt>
      <trkpt lat="43.26977" lon="6.27267">
        <ele>350</ele>
        <time>2019-04-10T10:30:00.000Z</time>
      </trkpt>
      <trkpt lat="43.26979" lon="6.27317">
        <ele>351</ele>
        <time>2019-04-10T10:30:04.000Z</time>
      </trkpt>
      <trkpt lat="43.26979" lon="6.27332">
        <ele>353</ele>
        <time>2019-04-10T10:30:08.000Z</time>
      </trkpt>
      <trkpt lat="43.26978" lon="6.27348">
        <ele>355</ele>
        <time>2019-04-10T10:30:12.000Z</time>
      </trkpt>
      <trkpt lat="43.26978" lon="6.27348">
        <ele>355</ele>
        <time>2019-04-10T10:30:14.000Z</time>
      </trkpt>
      <trkpt lat="43.26978" lon="6.27348">
        <ele>355</ele>
        <time>2019-04-10T10:30:16.000Z</time>
      </trkpt>
      <trkpt lat="43.26978" lon="6.27348">
        <ele>355</ele>
        <time>2019-04-10T10:30:18.000Z</time>
      </trkpt>
      <trkpt lat="43.26979" lon="6.27366">
        <ele>353</ele>
        <time>2019-04-10T10:30:22.000Z</time>
      </trkpt>
      <trkpt lat="43.2698" lon="6.27379">
        <ele>356</ele>
        <time>2019-04-10T10:30:24.000Z</time>
      </trkpt>
      <trkpt lat="43.2698" lon="6.27379">
        <ele>356</ele>
        <time>2019-04-10T10:30:27.000Z</time>
      </trkpt>
      <trkpt lat="43.2698" lon="6.27379">
        <ele>356</ele>
        <time>2019-04-10T10:30:28.000Z</time>
      </trkpt>
      <trkpt lat="43.2698" lon="6.27379">
        <ele>356</ele>
        <time>2019-04-10T10:30:30.000Z</time>
      </trkpt>
      <trkpt lat="43.2698" lon="6.27379">
        <ele>356</ele>
        <time>2019-04-10T10:30:32.000Z</time>
      </trkpt>
      <trkpt lat="43.26983" lon="6.27405">
        <ele>357</ele>
        <time>2019-04-10T10:30:36.000Z</time>
      </trkpt>
      <trkpt lat="43.26985" lon="6.27421">
        <ele>358</ele>
        <time>2019-04-10T10:30:38.000Z</time>
      </trkpt>
      <trkpt lat="43.26987" lon="6.27432">
        <ele>360</ele>
        <time>2019-04-10T10:30:40.000Z</time>
      </trkpt>
      <trkpt lat="43.26987" lon="6.27432">
        <ele>360</ele>
        <time>2019-04-10T10:30:42.000Z</time>
      </trkpt>
      <trkpt lat="43.26987" lon="6.27432">
        <ele>360</ele>
        <time>2019-04-10T10:30:44.000Z</time>
      </trkpt>
      <trkpt lat="43.26987" lon="6.27432">
        <ele>360</ele>
        <time>2019-04-10T10:30:46.000Z</time>
      </trkpt>
      <trkpt lat="43.26989" lon="6.27452">
        <ele>364</ele>
        <time>2019-04-10T10:30:48.000Z</time>
      </trkpt>
      <trkpt lat="43.26991" lon="6.27465">
        <ele>364</ele>
        <time>2019-04-10T10:30:50.000Z</time>
      </trkpt>
      <trkpt lat="43.26993" lon="6.27474">
        <ele>364</ele>
        <time>2019-04-10T10:30:52.000Z</time>
      </trkpt>
      <trkpt lat="43.26994" lon="6.27482">
        <ele>364</ele>
        <time>2019-04-10T10:30:54.000Z</time>
      </trkpt>
      <trkpt lat="43.26994" lon="6.27482">
        <ele>364</ele>
        <time>2019-04-10T10:30:56.000Z</time>
      </trkpt>
      <trkpt lat="43.26994" lon="6.27482">
        <ele>364</ele>
        <time>2019-04-10T10:30:58.000Z</time>
      </trkpt>
      <trkpt lat="43.26994" lon="6.27482">
        <ele>364</ele>
        <time>2019-04-10T10:31:04.000Z</time>
      </trkpt>
      <trkpt lat="43.26994" lon="6.27482">
        <ele>364</ele>
        <time>2019-04-10T10:31:06.000Z</time>
      </trkpt>
      <trkpt lat="43.27001" lon="6.27511">
        <ele>358</ele>
        <time>2019-04-10T10:31:10.000Z</time>
      </trkpt>
      <trkpt lat="43.27006" lon="6.27527">
        <ele>358</ele>
        <time>2019-04-10T10:31:12.000Z</time>
      </trkpt>
      <trkpt lat="43.2701" lon="6.27538">
        <ele>358</ele>
        <time>2019-04-10T10:31:14.000Z</time>
      </trkpt>
      <trkpt lat="43.27014" lon="6.27548">
        <ele>357</ele>
        <time>2019-04-10T10:31:16.000Z</time>
      </trkpt>
      <trkpt lat="43.27016" lon="6.27557">
        <ele>359</ele>
        <time>2019-04-10T10:31:18.000Z</time>
      </trkpt>
      <trkpt lat="43.2702" lon="6.27573">
        <ele>360</ele>
        <time>2019-04-10T10:31:20.000Z</time>
      </trkpt>
      <trkpt lat="43.2702" lon="6.27573">
        <ele>360</ele>
        <time>2019-04-10T10:31:22.000Z</time>
      </trkpt>
      <trkpt lat="43.2702" lon="6.27573">
        <ele>360</ele>
        <time>2019-04-10T10:31:24.000Z</time>
      </trkpt>
      <trkpt lat="43.27021" lon="6.27599">
        <ele>363</ele>
        <time>2019-04-10T10:31:26.000Z</time>
      </trkpt>
      <trkpt lat="43.27021" lon="6.27615">
        <ele>363</ele>
        <time>2019-04-10T10:31:30.000Z</time>
      </trkpt>
      <trkpt lat="43.27021" lon="6.27615">
        <ele>363</ele>
        <time>2019-04-10T10:31:32.000Z</time>
      </trkpt>
      <trkpt lat="43.27023" lon="6.27631">
        <ele>363</ele>
        <time>2019-04-10T10:31:34.000Z</time>
      </trkpt>
      <trkpt lat="43.27023" lon="6.27631">
        <ele>363</ele>
        <time>2019-04-10T10:31:38.000Z</time>
      </trkpt>
      <trkpt lat="43.27023" lon="6.27631">
        <ele>363</ele>
        <time>2019-04-10T10:31:40.000Z</time>
      </trkpt>
      <trkpt lat="43.27023" lon="6.27631">
        <ele>363</ele>
        <time>2019-04-10T10:31:42.000Z</time>
      </trkpt>
      <trkpt lat="43.27023" lon="6.27631">
        <ele>363</ele>
        <time>2019-04-10T10:31:44.000Z</time>
      </trkpt>
      <trkpt lat="43.27023" lon="6.27693">
        <ele>368</ele>
        <time>2019-04-10T10:31:50.000Z</time>
      </trkpt>
      <trkpt lat="43.27025" lon="6.2771">
        <ele>371</ele>
        <time>2019-04-10T10:31:54.000Z</time>
      </trkpt>
      <trkpt lat="43.27025" lon="6.2771">
        <ele>371</ele>
        <time>2019-04-10T10:31:56.000Z</time>
      </trkpt>
      <trkpt lat="43.27025" lon="6.2771">
        <ele>371</ele>
        <time>2019-04-10T10:31:58.000Z</time>
      </trkpt>
      <trkpt lat="43.27025" lon="6.2771">
        <ele>371</ele>
        <time>2019-04-10T10:32:00.000Z</time>
      </trkpt>
      <trkpt lat="43.27025" lon="6.2771">
        <ele>371</ele>
        <time>2019-04-10T10:32:02.000Z</time>
      </trkpt>
      <trkpt lat="43.27029" lon="6.27761">
        <ele>377</ele>
        <time>2019-04-10T10:32:06.000Z</time>
      </trkpt>
      <trkpt lat="43.27028" lon="6.27778">
        <ele>380</ele>
        <time>2019-04-10T10:32:10.000Z</time>
      </trkpt>
      <trkpt lat="43.27023" lon="6.27796">
        <ele>379</ele>
        <time>2019-04-10T10:32:14.000Z</time>
      </trkpt>
      <trkpt lat="43.27018" lon="6.27821">
        <ele>384</ele>
        <time>2019-04-10T10:32:18.000Z</time>
      </trkpt>
      <trkpt lat="43.27013" lon="6.27843">
        <ele>386</ele>
        <time>2019-04-10T10:32:22.000Z</time>
      </trkpt>
      <trkpt lat="43.27013" lon="6.27843">
        <ele>386</ele>
        <time>2019-04-10T10:32:24.000Z</time>
      </trkpt>
      <trkpt lat="43.27013" lon="6.27843">
        <ele>386</ele>
        <time>2019-04-10T10:32:27.000Z</time>
      </trkpt>
      <trkpt lat="43.27013" lon="6.27843">
        <ele>386</ele>
        <time>2019-04-10T10:32:28.000Z</time>
      </trkpt>
      <trkpt lat="43.27013" lon="6.27843">
        <ele>386</ele>
        <time>2019-04-10T10:32:30.000Z</time>
      </trkpt>
      <trkpt lat="43.27013" lon="6.27843">
        <ele>386</ele>
        <time>2019-04-10T10:32:32.000Z</time>
      </trkpt>
      <trkpt lat="43.27013" lon="6.27843">
        <ele>386</ele>
        <time>2019-04-10T10:32:34.000Z</time>
      </trkpt>
      <trkpt lat="43.27013" lon="6.27843">
        <ele>386</ele>
        <time>2019-04-10T10:32:36.000Z</time>
      </trkpt>
      <trkpt lat="43.27013" lon="6.27843">
        <ele>386</ele>
        <time>2019-04-10T10:32:44.000Z</time>
      </trkpt>
      <trkpt lat="43.27013" lon="6.27843">
        <ele>386</ele>
        <time>2019-04-10T10:32:46.000Z</time>
      </trkpt>
      <trkpt lat="43.27013" lon="6.27843">
        <ele>386</ele>
        <time>2019-04-10T10:32:48.000Z</time>
      </trkpt>
      <trkpt lat="43.27013" lon="6.27843">
        <ele>386</ele>
        <time>2019-04-10T10:32:50.000Z</time>
      </trkpt>
      <trkpt lat="43.27013" lon="6.27843">
        <ele>386</ele>
        <time>2019-04-10T10:32:52.000Z</time>
      </trkpt>
      <trkpt lat="43.27007" lon="6.27898">
        <ele>386</ele>
        <time>2019-04-10T10:32:56.000Z</time>
      </trkpt>
      <trkpt lat="43.27003" lon="6.27928">
        <ele>388</ele>
        <time>2019-04-10T10:32:58.000Z</time>
      </trkpt>
      <trkpt lat="43.27" lon="6.27946">
        <ele>385</ele>
        <time>2019-04-10T10:33:00.000Z</time>
      </trkpt>
      <trkpt lat="43.26997" lon="6.27959">
        <ele>386</ele>
        <time>2019-04-10T10:33:02.000Z</time>
      </trkpt>
      <trkpt lat="43.26994" lon="6.27969">
        <ele>387</ele>
        <time>2019-04-10T10:33:04.000Z</time>
      </trkpt>
      <trkpt lat="43.26989" lon="6.27984">
        <ele>388</ele>
        <time>2019-04-10T10:33:06.000Z</time>
      </trkpt>
      <trkpt lat="43.26989" lon="6.27984">
        <ele>388</ele>
        <time>2019-04-10T10:33:08.000Z</time>
      </trkpt>
      <trkpt lat="43.26989" lon="6.27984">
        <ele>388</ele>
        <time>2019-04-10T10:33:10.000Z</time>
      </trkpt>
      <trkpt lat="43.26992" lon="6.28006">
        <ele>394</ele>
        <time>2019-04-10T10:33:16.000Z</time>
      </trkpt>
      <trkpt lat="43.2699" lon="6.2802">
        <ele>395</ele>
        <time>2019-04-10T10:33:20.000Z</time>
      </trkpt>
      <trkpt lat="43.2699" lon="6.2802">
        <ele>395</ele>
        <time>2019-04-10T10:33:26.000Z</time>
      </trkpt>
      <trkpt lat="43.2699" lon="6.2802">
        <ele>395</ele>
        <time>2019-04-10T10:33:28.000Z</time>
      </trkpt>
      <trkpt lat="43.26987" lon="6.28048">
        <ele>392</ele>
        <time>2019-04-10T10:33:32.000Z</time>
      </trkpt>
      <trkpt lat="43.26986" lon="6.2806">
        <ele>396</ele>
        <time>2019-04-10T10:33:36.000Z</time>
      </trkpt>
      <trkpt lat="43.26986" lon="6.2806">
        <ele>396</ele>
        <time>2019-04-10T10:33:38.000Z</time>
      </trkpt>
      <trkpt lat="43.26986" lon="6.2806">
        <ele>396</ele>
        <time>2019-04-10T10:33:40.000Z</time>
      </trkpt>
      <trkpt lat="43.26986" lon="6.2806">
        <ele>396</ele>
        <time>2019-04-10T10:33:42.000Z</time>
      </trkpt>
      <trkpt lat="43.26986" lon="6.2806">
        <ele>396</ele>
        <time>2019-04-10T10:33:44.000Z</time>
      </trkpt>
      <trkpt lat="43.26986" lon="6.2806">
        <ele>396</ele>
        <time>2019-04-10T10:33:46.000Z</time>
      </trkpt>
      <trkpt lat="43.26982" lon="6.28099">
        <ele>392</ele>
        <time>2019-04-10T10:33:50.000Z</time>
      </trkpt>
      <trkpt lat="43.26979" lon="6.28114">
        <ele>396</ele>
        <time>2019-04-10T10:33:54.000Z</time>
      </trkpt>
      <trkpt lat="43.2698" lon="6.28131">
        <ele>395</ele>
        <time>2019-04-10T10:33:58.000Z</time>
      </trkpt>
      <trkpt lat="43.26981" lon="6.28146">
        <ele>397</ele>
        <time>2019-04-10T10:34:02.000Z</time>
      </trkpt>
      <trkpt lat="43.26981" lon="6.28146">
        <ele>397</ele>
        <time>2019-04-10T10:34:04.000Z</time>
      </trkpt>
      <trkpt lat="43.26981" lon="6.28146">
        <ele>397</ele>
        <time>2019-04-10T10:34:06.000Z</time>
      </trkpt>
      <trkpt lat="43.26981" lon="6.28146">
        <ele>397</ele>
        <time>2019-04-10T10:34:08.000Z</time>
      </trkpt>
      <trkpt lat="43.26981" lon="6.28146">
        <ele>397</ele>
        <time>2019-04-10T10:34:10.000Z</time>
      </trkpt>
      <trkpt lat="43.26986" lon="6.28183">
        <ele>396</ele>
        <time>2019-04-10T10:34:16.000Z</time>
      </trkpt>
      <trkpt lat="43.26986" lon="6.282">
        <ele>397</ele>
        <time>2019-04-10T10:34:22.000Z</time>
      </trkpt>
      <trkpt lat="43.26976" lon="6.282">
        <ele>394</ele>
        <time>2019-04-10T10:34:27.000Z</time>
      </trkpt>
      <trkpt lat="43.26974" lon="6.28192">
        <ele>395</ele>
        <time>2019-04-10T10:34:32.000Z</time>
      </trkpt>
      <trkpt lat="43.26972" lon="6.28185">
        <ele>396</ele>
        <time>2019-04-10T10:34:34.000Z</time>
      </trkpt>
      <trkpt lat="43.2697" lon="6.28179">
        <ele>397</ele>
        <time>2019-04-10T10:34:36.000Z</time>
      </trkpt>
      <trkpt lat="43.2697" lon="6.28179">
        <ele>397</ele>
        <time>2019-04-10T10:34:38.000Z</time>
      </trkpt>
      <trkpt lat="43.2697" lon="6.28179">
        <ele>397</ele>
        <time>2019-04-10T10:34:40.000Z</time>
      </trkpt>
      <trkpt lat="43.26967" lon="6.28161">
        <ele>400</ele>
        <time>2019-04-10T10:34:44.000Z</time>
      </trkpt>
      <trkpt lat="43.26964" lon="6.28152">
        <ele>405</ele>
        <time>2019-04-10T10:34:46.000Z</time>
      </trkpt>
      <trkpt lat="43.26964" lon="6.28152">
        <ele>405</ele>
        <time>2019-04-10T10:34:48.000Z</time>
      </trkpt>
      <trkpt lat="43.26964" lon="6.28152">
        <ele>405</ele>
        <time>2019-04-10T10:34:50.000Z</time>
      </trkpt>
      <trkpt lat="43.26965" lon="6.28122">
        <ele>405</ele>
        <time>2019-04-10T10:35:00.000Z</time>
      </trkpt>
      <trkpt lat="43.26965" lon="6.28104">
        <ele>405</ele>
        <time>2019-04-10T10:35:02.000Z</time>
      </trkpt>
      <trkpt lat="43.26965" lon="6.28091">
        <ele>405</ele>
        <time>2019-04-10T10:35:04.000Z</time>
      </trkpt>
      <trkpt lat="43.26965" lon="6.28091">
        <ele>405</ele>
        <time>2019-04-10T10:35:06.000Z</time>
      </trkpt>
      <trkpt lat="43.26965" lon="6.28091">
        <ele>405</ele>
        <time>2019-04-10T10:35:08.000Z</time>
      </trkpt>
      <trkpt lat="43.26965" lon="6.28091">
        <ele>405</ele>
        <time>2019-04-10T10:35:16.000Z</time>
      </trkpt>
      <trkpt lat="43.26965" lon="6.28091">
        <ele>405</ele>
        <time>2019-04-10T10:35:18.000Z</time>
      </trkpt>
      <trkpt lat="43.26965" lon="6.28091">
        <ele>405</ele>
        <time>2019-04-10T10:35:20.000Z</time>
      </trkpt>
      <trkpt lat="43.26965" lon="6.28091">
        <ele>405</ele>
        <time>2019-04-10T10:35:26.000Z</time>
      </trkpt>
      <trkpt lat="43.26965" lon="6.28091">
        <ele>405</ele>
        <time>2019-04-10T10:35:28.000Z</time>
      </trkpt>
      <trkpt lat="43.26965" lon="6.28091">
        <ele>405</ele>
        <time>2019-04-10T10:35:30.000Z</time>
      </trkpt>
      <trkpt lat="43.26965" lon="6.28091">
        <ele>405</ele>
        <time>2019-04-10T10:35:32.000Z</time>
      </trkpt>
      <trkpt lat="43.26965" lon="6.28091">
        <ele>405</ele>
        <time>2019-04-10T10:35:34.000Z</time>
      </trkpt>
      <trkpt lat="43.26965" lon="6.28091">
        <ele>405</ele>
        <time>2019-04-10T10:35:36.000Z</time>
      </trkpt>
      <trkpt lat="43.26965" lon="6.28091">
        <ele>405</ele>
        <time>2019-04-10T10:35:38.000Z</time>
      </trkpt>
      <trkpt lat="43.26961" lon="6.28036">
        <ele>419</ele>
        <time>2019-04-10T10:35:42.000Z</time>
      </trkpt>
      <trkpt lat="43.26959" lon="6.28005">
        <ele>418</ele>
        <time>2019-04-10T10:35:44.000Z</time>
      </trkpt>
      <trkpt lat="43.26958" lon="6.27989">
        <ele>420</ele>
        <time>2019-04-10T10:35:46.000Z</time>
      </trkpt>
      <trkpt lat="43.26957" lon="6.27979">
        <ele>420</ele>
        <time>2019-04-10T10:35:48.000Z</time>
      </trkpt>
      <trkpt lat="43.26957" lon="6.27979">
        <ele>420</ele>
        <time>2019-04-10T10:35:50.000Z</time>
      </trkpt>
      <trkpt lat="43.26957" lon="6.27966">
        <ele>419</ele>
        <time>2019-04-10T10:35:54.000Z</time>
      </trkpt>
      <trkpt lat="43.26957" lon="6.27956">
        <ele>419</ele>
        <time>2019-04-10T10:35:56.000Z</time>
      </trkpt>
      <trkpt lat="43.26958" lon="6.27948">
        <ele>418</ele>
        <time>2019-04-10T10:35:58.000Z</time>
      </trkpt>
      <trkpt lat="43.26959" lon="6.2794">
        <ele>417</ele>
        <time>2019-04-10T10:36:00.000Z</time>
      </trkpt>
      <trkpt lat="43.26959" lon="6.27932">
        <ele>418</ele>
        <time>2019-04-10T10:36:04.000Z</time>
      </trkpt>
      <trkpt lat="43.26959" lon="6.27932">
        <ele>418</ele>
        <time>2019-04-10T10:36:06.000Z</time>
      </trkpt>
      <trkpt lat="43.26956" lon="6.27925">
        <ele>418</ele>
        <time>2019-04-10T10:36:08.000Z</time>
      </trkpt>
      <trkpt lat="43.26954" lon="6.27918">
        <ele>419</ele>
        <time>2019-04-10T10:36:10.000Z</time>
      </trkpt>
      <trkpt lat="43.26953" lon="6.27912">
        <ele>418</ele>
        <time>2019-04-10T10:36:12.000Z</time>
      </trkpt>
      <trkpt lat="43.26952" lon="6.27906">
        <ele>418</ele>
        <time>2019-04-10T10:36:14.000Z</time>
      </trkpt>
      <trkpt lat="43.2695" lon="6.27896">
        <ele>417</ele>
        <time>2019-04-10T10:36:18.000Z</time>
      </trkpt>
      <trkpt lat="43.2695" lon="6.27889">
        <ele>418</ele>
        <time>2019-04-10T10:36:20.000Z</time>
      </trkpt>
      <trkpt lat="43.26949" lon="6.27883">
        <ele>418</ele>
        <time>2019-04-10T10:36:22.000Z</time>
      </trkpt>
      <trkpt lat="43.26949" lon="6.27876">
        <ele>420</ele>
        <time>2019-04-10T10:36:24.000Z</time>
      </trkpt>
      <trkpt lat="43.26949" lon="6.27868">
        <ele>421</ele>
        <time>2019-04-10T10:36:27.000Z</time>
      </trkpt>
      <trkpt lat="43.26944" lon="6.27852">
        <ele>420</ele>
        <time>2019-04-10T10:36:30.000Z</time>
      </trkpt>
      <trkpt lat="43.26944" lon="6.27852">
        <ele>420</ele>
        <time>2019-04-10T10:36:32.000Z</time>
      </trkpt>
      <trkpt lat="43.26944" lon="6.27852">
        <ele>420</ele>
        <time>2019-04-10T10:36:36.000Z</time>
      </trkpt>
      <trkpt lat="43.26944" lon="6.27852">
        <ele>420</ele>
        <time>2019-04-10T10:36:38.000Z</time>
      </trkpt>
      <trkpt lat="43.26944" lon="6.27852">
        <ele>420</ele>
        <time>2019-04-10T10:36:40.000Z</time>
      </trkpt>
      <trkpt lat="43.26944" lon="6.27852">
        <ele>420</ele>
        <time>2019-04-10T10:36:42.000Z</time>
      </trkpt>
      <trkpt lat="43.26944" lon="6.27852">
        <ele>420</ele>
        <time>2019-04-10T10:36:44.000Z</time>
      </trkpt>
      <trkpt lat="43.26944" lon="6.27852">
        <ele>420</ele>
        <time>2019-04-10T10:36:46.000Z</time>
      </trkpt>
      <trkpt lat="43.26917" lon="6.27812">
        <ele>419</ele>
        <time>2019-04-10T10:36:50.000Z</time>
      </trkpt>
      <trkpt lat="43.26907" lon="6.27815">
        <ele>420</ele>
        <time>2019-04-10T10:36:54.000Z</time>
      </trkpt>
      <trkpt lat="43.26907" lon="6.27815">
        <ele>420</ele>
        <time>2019-04-10T10:37:00.000Z</time>
      </trkpt>
      <trkpt lat="43.26907" lon="6.27815">
        <ele>420</ele>
        <time>2019-04-10T10:37:02.000Z</time>
      </trkpt>
      <trkpt lat="43.26907" lon="6.27815">
        <ele>420</ele>
        <time>2019-04-10T10:37:04.000Z</time>
      </trkpt>
      <trkpt lat="43.26881" lon="6.27808">
        <ele>423</ele>
        <time>2019-04-10T10:37:08.000Z</time>
      </trkpt>
      <trkpt lat="43.26881" lon="6.27808">
        <ele>423</ele>
        <time>2019-04-10T10:37:14.000Z</time>
      </trkpt>
      <trkpt lat="43.26881" lon="6.27808">
        <ele>423</ele>
        <time>2019-04-10T10:37:16.000Z</time>
      </trkpt>
      <trkpt lat="43.26881" lon="6.27808">
        <ele>423</ele>
        <time>2019-04-10T10:37:18.000Z</time>
      </trkpt>
      <trkpt lat="43.26862" lon="6.27785">
        <ele>425</ele>
        <time>2019-04-10T10:37:22.000Z</time>
      </trkpt>
      <trkpt lat="43.26862" lon="6.27785">
        <ele>425</ele>
        <time>2019-04-10T10:37:24.000Z</time>
      </trkpt>
      <trkpt lat="43.26862" lon="6.27785">
        <ele>425</ele>
        <time>2019-04-10T10:37:26.000Z</time>
      </trkpt>
      <trkpt lat="43.26862" lon="6.27785">
        <ele>425</ele>
        <time>2019-04-10T10:37:28.000Z</time>
      </trkpt>
      <trkpt lat="43.26862" lon="6.27785">
        <ele>425</ele>
        <time>2019-04-10T10:37:30.000Z</time>
      </trkpt>
      <trkpt lat="43.26862" lon="6.27785">
        <ele>425</ele>
        <time>2019-04-10T10:37:32.000Z</time>
      </trkpt>
      <trkpt lat="43.26842" lon="6.27776">
        <ele>429</ele>
        <time>2019-04-10T10:37:36.000Z</time>
      </trkpt>
      <trkpt lat="43.26837" lon="6.27775">
        <ele>430</ele>
        <time>2019-04-10T10:37:42.000Z</time>
      </trkpt>
      <trkpt lat="43.26832" lon="6.27775">
        <ele>431</ele>
        <time>2019-04-10T10:37:44.000Z</time>
      </trkpt>
      <trkpt lat="43.26832" lon="6.27775">
        <ele>431</ele>
        <time>2019-04-10T10:37:46.000Z</time>
      </trkpt>
      <trkpt lat="43.26832" lon="6.27775">
        <ele>431</ele>
        <time>2019-04-10T10:37:48.000Z</time>
      </trkpt>
      <trkpt lat="43.26832" lon="6.27775">
        <ele>431</ele>
        <time>2019-04-10T10:37:50.000Z</time>
      </trkpt>
      <trkpt lat="43.26832" lon="6.27775">
        <ele>431</ele>
        <time>2019-04-10T10:37:58.000Z</time>
      </trkpt>
      <trkpt lat="43.26816" lon="6.27774">
        <ele>436</ele>
        <time>2019-04-10T10:38:00.000Z</time>
      </trkpt>
      <trkpt lat="43.26807" lon="6.27773">
        <ele>435</ele>
        <time>2019-04-10T10:38:02.000Z</time>
      </trkpt>
      <trkpt lat="43.26801" lon="6.27771">
        <ele>435</ele>
        <time>2019-04-10T10:38:04.000Z</time>
      </trkpt>
      <trkpt lat="43.26796" lon="6.27771">
        <ele>435</ele>
        <time>2019-04-10T10:38:06.000Z</time>
      </trkpt>
      <trkpt lat="43.26792" lon="6.2777">
        <ele>435</ele>
        <time>2019-04-10T10:38:08.000Z</time>
      </trkpt>
      <trkpt lat="43.2678" lon="6.27768">
        <ele>435</ele>
        <time>2019-04-10T10:38:12.000Z</time>
      </trkpt>
      <trkpt lat="43.2678" lon="6.27768">
        <ele>435</ele>
        <time>2019-04-10T10:38:14.000Z</time>
      </trkpt>
      <trkpt lat="43.2678" lon="6.27768">
        <ele>435</ele>
        <time>2019-04-10T10:38:16.000Z</time>
      </trkpt>
      <trkpt lat="43.2678" lon="6.27768">
        <ele>435</ele>
        <time>2019-04-10T10:38:18.000Z</time>
      </trkpt>
      <trkpt lat="43.2677" lon="6.27768">
        <ele>440</ele>
        <time>2019-04-10T10:42:25.000Z</time>
      </trkpt>
      <trkpt lat="43.2677" lon="6.27768">
        <ele>440</ele>
        <time>2019-04-10T10:42:28.000Z</time>
      </trkpt>
      <trkpt lat="43.2677" lon="6.27768">
        <ele>440</ele>
        <time>2019-04-10T10:42:30.000Z</time>
      </trkpt>
      <trkpt lat="43.2677" lon="6.27768">
        <ele>440</ele>
        <time>2019-04-10T10:42:32.000Z</time>
      </trkpt>
      <trkpt lat="43.2677" lon="6.27768">
        <ele>440</ele>
        <time>2019-04-10T10:42:40.000Z</time>
      </trkpt>
      <trkpt lat="43.2677" lon="6.27768">
        <ele>440</ele>
        <time>2019-04-10T10:42:42.000Z</time>
      </trkpt>
      <trkpt lat="43.26761" lon="6.27776">
        <ele>444</ele>
        <time>2019-04-10T10:42:44.000Z</time>
      </trkpt>
      <trkpt lat="43.26773" lon="6.27778">
        <ele>444</ele>
        <time>2019-04-10T10:42:48.000Z</time>
      </trkpt>
      <trkpt lat="43.26773" lon="6.27778">
        <ele>444</ele>
        <time>2019-04-10T10:42:50.000Z</time>
      </trkpt>
      <trkpt lat="43.26784" lon="6.27785">
        <ele>442</ele>
        <time>2019-04-10T10:42:52.000Z</time>
      </trkpt>
      <trkpt lat="43.26784" lon="6.27785">
        <ele>442</ele>
        <time>2019-04-10T10:42:54.000Z</time>
      </trkpt>
      <trkpt lat="43.26795" lon="6.27789">
        <ele>442</ele>
        <time>2019-04-10T10:42:56.000Z</time>
      </trkpt>
      <trkpt lat="43.26795" lon="6.27789">
        <ele>442</ele>
        <time>2019-04-10T10:42:58.000Z</time>
      </trkpt>
      <trkpt lat="43.26795" lon="6.27789">
        <ele>442</ele>
        <time>2019-04-10T10:43:00.000Z</time>
      </trkpt>
      <trkpt lat="43.26795" lon="6.27789">
        <ele>442</ele>
        <time>2019-04-10T10:43:02.000Z</time>
      </trkpt>
      <trkpt lat="43.26795" lon="6.27789">
        <ele>442</ele>
        <time>2019-04-10T10:43:04.000Z</time>
      </trkpt>
      <trkpt lat="43.26795" lon="6.27789">
        <ele>442</ele>
        <time>2019-04-10T10:43:10.000Z</time>
      </trkpt>
      <trkpt lat="43.26828" lon="6.27815">
        <ele>441</ele>
        <time>2019-04-10T10:43:14.000Z</time>
      </trkpt>
      <trkpt lat="43.26828" lon="6.27815">
        <ele>441</ele>
        <time>2019-04-10T10:43:20.000Z</time>
      </trkpt>
      <trkpt lat="43.26828" lon="6.27815">
        <ele>441</ele>
        <time>2019-04-10T10:43:22.000Z</time>
      </trkpt>
      <trkpt lat="43.26847" lon="6.27849">
        <ele>444</ele>
        <time>2019-04-10T10:43:28.000Z</time>
      </trkpt>
      <trkpt lat="43.26855" lon="6.27858">
        <ele>445</ele>
        <time>2019-04-10T10:43:32.000Z</time>
      </trkpt>
      <trkpt lat="43.26855" lon="6.27858">
        <ele>445</ele>
        <time>2019-04-10T10:43:34.000Z</time>
      </trkpt>
      <trkpt lat="43.26855" lon="6.27858">
        <ele>445</ele>
        <time>2019-04-10T10:43:36.000Z</time>
      </trkpt>
      <trkpt lat="43.26871" lon="6.27872">
        <ele>446</ele>
        <time>2019-04-10T10:43:40.000Z</time>
      </trkpt>
      <trkpt lat="43.26875" lon="6.27875">
        <ele>446</ele>
        <time>2019-04-10T10:43:44.000Z</time>
      </trkpt>
      <trkpt lat="43.2688" lon="6.27878">
        <ele>447</ele>
        <time>2019-04-10T10:43:46.000Z</time>
      </trkpt>
      <trkpt lat="43.2688" lon="6.27878">
        <ele>447</ele>
        <time>2019-04-10T10:43:50.000Z</time>
      </trkpt>
      <trkpt lat="43.2688" lon="6.27878">
        <ele>447</ele>
        <time>2019-04-10T10:43:52.000Z</time>
      </trkpt>
      <trkpt lat="43.26884" lon="6.27892">
        <ele>448</ele>
        <time>2019-04-10T10:43:54.000Z</time>
      </trkpt>
      <trkpt lat="43.26886" lon="6.27903">
        <ele>448</ele>
        <time>2019-04-10T10:43:56.000Z</time>
      </trkpt>
      <trkpt lat="43.26886" lon="6.27903">
        <ele>448</ele>
        <time>2019-04-10T10:43:58.000Z</time>
      </trkpt>
      <trkpt lat="43.26886" lon="6.27903">
        <ele>448</ele>
        <time>2019-04-10T10:44:00.000Z</time>
      </trkpt>
      <trkpt lat="43.26886" lon="6.27903">
        <ele>448</ele>
        <time>2019-04-10T10:44:02.000Z</time>
      </trkpt>
      <trkpt lat="43.26886" lon="6.27903">
        <ele>448</ele>
        <time>2019-04-10T10:44:04.000Z</time>
      </trkpt>
      <trkpt lat="43.26886" lon="6.27903">
        <ele>448</ele>
        <time>2019-04-10T10:44:06.000Z</time>
      </trkpt>
      <trkpt lat="43.26886" lon="6.27903">
        <ele>448</ele>
        <time>2019-04-10T10:44:08.000Z</time>
      </trkpt>
      <trkpt lat="43.26883" lon="6.27931">
        <ele>451</ele>
        <time>2019-04-10T10:44:12.000Z</time>
      </trkpt>
      <trkpt lat="43.2688" lon="6.27948">
        <ele>452</ele>
        <time>2019-04-10T10:44:14.000Z</time>
      </trkpt>
      <trkpt lat="43.26878" lon="6.27959">
        <ele>452</ele>
        <time>2019-04-10T10:44:16.000Z</time>
      </trkpt>
      <trkpt lat="43.26878" lon="6.27959">
        <ele>452</ele>
        <time>2019-04-10T10:44:18.000Z</time>
      </trkpt>
      <trkpt lat="43.26878" lon="6.27959">
        <ele>452</ele>
        <time>2019-04-10T10:44:20.000Z</time>
      </trkpt>
      <trkpt lat="43.26878" lon="6.27959">
        <ele>452</ele>
        <time>2019-04-10T10:44:22.000Z</time>
      </trkpt>
      <trkpt lat="43.26878" lon="6.27959">
        <ele>452</ele>
        <time>2019-04-10T10:44:24.000Z</time>
      </trkpt>
      <trkpt lat="43.26878" lon="6.27959">
        <ele>452</ele>
        <time>2019-04-10T10:44:27.000Z</time>
      </trkpt>
      <trkpt lat="43.26871" lon="6.27987">
        <ele>462</ele>
        <time>2019-04-10T10:44:34.000Z</time>
      </trkpt>
      <trkpt lat="43.26868" lon="6.28003">
        <ele>461</ele>
        <time>2019-04-10T10:44:36.000Z</time>
      </trkpt>
      <trkpt lat="43.26867" lon="6.28012">
        <ele>461</ele>
        <time>2019-04-10T10:44:38.000Z</time>
      </trkpt>
      <trkpt lat="43.26867" lon="6.28012">
        <ele>461</ele>
        <time>2019-04-10T10:44:40.000Z</time>
      </trkpt>
      <trkpt lat="43.26866" lon="6.28025">
        <ele>462</ele>
        <time>2019-04-10T10:44:44.000Z</time>
      </trkpt>
      <trkpt lat="43.26865" lon="6.28033">
        <ele>462</ele>
        <time>2019-04-10T10:44:46.000Z</time>
      </trkpt>
      <trkpt lat="43.26865" lon="6.2804">
        <ele>463</ele>
        <time>2019-04-10T10:44:48.000Z</time>
      </trkpt>
      <trkpt lat="43.26863" lon="6.28047">
        <ele>465</ele>
        <time>2019-04-10T10:44:52.000Z</time>
      </trkpt>
      <trkpt lat="43.26863" lon="6.28047">
        <ele>465</ele>
        <time>2019-04-10T10:44:54.000Z</time>
      </trkpt>
      <trkpt lat="43.26863" lon="6.28047">
        <ele>465</ele>
        <time>2019-04-10T10:44:56.000Z</time>
      </trkpt>
      <trkpt lat="43.26863" lon="6.28047">
        <ele>465</ele>
        <time>2019-04-10T10:44:58.000Z</time>
      </trkpt>
      <trkpt lat="43.2686" lon="6.28063">
        <ele>467</ele>
        <time>2019-04-10T10:45:02.000Z</time>
      </trkpt>
      <trkpt lat="43.26858" lon="6.28074">
        <ele>468</ele>
        <time>2019-04-10T10:45:04.000Z</time>
      </trkpt>
      <trkpt lat="43.26858" lon="6.28081">
        <ele>469</ele>
        <time>2019-04-10T10:45:06.000Z</time>
      </trkpt>
      <trkpt lat="43.26858" lon="6.28081">
        <ele>469</ele>
        <time>2019-04-10T10:45:08.000Z</time>
      </trkpt>
      <trkpt lat="43.26858" lon="6.28081">
        <ele>469</ele>
        <time>2019-04-10T10:45:10.000Z</time>
      </trkpt>
      <trkpt lat="43.26855" lon="6.28096">
        <ele>470</ele>
        <time>2019-04-10T10:45:16.000Z</time>
      </trkpt>
      <trkpt lat="43.26853" lon="6.28106">
        <ele>471</ele>
        <time>2019-04-10T10:45:18.000Z</time>
      </trkpt>
      <trkpt lat="43.26852" lon="6.28114">
        <ele>470</ele>
        <time>2019-04-10T10:45:20.000Z</time>
      </trkpt>
      <trkpt lat="43.2685" lon="6.28121">
        <ele>469</ele>
        <time>2019-04-10T10:45:22.000Z</time>
      </trkpt>
      <trkpt lat="43.2685" lon="6.28121">
        <ele>469</ele>
        <time>2019-04-10T10:45:24.000Z</time>
      </trkpt>
      <trkpt lat="43.2685" lon="6.28121">
        <ele>469</ele>
        <time>2019-04-10T10:45:26.000Z</time>
      </trkpt>
      <trkpt lat="43.2685" lon="6.28121">
        <ele>469</ele>
        <time>2019-04-10T10:45:28.000Z</time>
      </trkpt>
      <trkpt lat="43.26845" lon="6.28132">
        <ele>466</ele>
        <time>2019-04-10T10:45:32.000Z</time>
      </trkpt>
      <trkpt lat="43.26841" lon="6.2814">
        <ele>466</ele>
        <time>2019-04-10T10:45:34.000Z</time>
      </trkpt>
      <trkpt lat="43.26838" lon="6.28144">
        <ele>466</ele>
        <time>2019-04-10T10:45:36.000Z</time>
      </trkpt>
      <trkpt lat="43.26838" lon="6.28144">
        <ele>466</ele>
        <time>2019-04-10T10:45:38.000Z</time>
      </trkpt>
      <trkpt lat="43.26834" lon="6.28149">
        <ele>467</ele>
        <time>2019-04-10T10:45:40.000Z</time>
      </trkpt>
      <trkpt lat="43.2683" lon="6.28151">
        <ele>466</ele>
        <time>2019-04-10T10:45:42.000Z</time>
      </trkpt>
      <trkpt lat="43.26824" lon="6.28154">
        <ele>467</ele>
        <time>2019-04-10T10:45:46.000Z</time>
      </trkpt>
      <trkpt lat="43.26819" lon="6.28157">
        <ele>467</ele>
        <time>2019-04-10T10:45:48.000Z</time>
      </trkpt>
      <trkpt lat="43.26814" lon="6.28159">
        <ele>469</ele>
        <time>2019-04-10T10:45:52.000Z</time>
      </trkpt>
      <trkpt lat="43.26814" lon="6.28159">
        <ele>469</ele>
        <time>2019-04-10T10:45:54.000Z</time>
      </trkpt>
      <trkpt lat="43.26814" lon="6.28159">
        <ele>469</ele>
        <time>2019-04-10T10:45:56.000Z</time>
      </trkpt>
      <trkpt lat="43.26804" lon="6.28162">
        <ele>471</ele>
        <time>2019-04-10T10:46:00.000Z</time>
      </trkpt>
      <trkpt lat="43.26798" lon="6.28164">
        <ele>471</ele>
        <time>2019-04-10T10:46:02.000Z</time>
      </trkpt>
      <trkpt lat="43.26798" lon="6.28164">
        <ele>471</ele>
        <time>2019-04-10T10:46:04.000Z</time>
      </trkpt>
      <trkpt lat="43.26798" lon="6.28164">
        <ele>471</ele>
        <time>2019-04-10T10:46:06.000Z</time>
      </trkpt>
      <trkpt lat="43.26798" lon="6.28164">
        <ele>471</ele>
        <time>2019-04-10T10:46:08.000Z</time>
      </trkpt>
      <trkpt lat="43.26787" lon="6.28168">
        <ele>474</ele>
        <time>2019-04-10T10:46:12.000Z</time>
      </trkpt>
      <trkpt lat="43.2678" lon="6.2817">
        <ele>474</ele>
        <time>2019-04-10T10:46:14.000Z</time>
      </trkpt>
      <trkpt lat="43.26774" lon="6.28173">
        <ele>476</ele>
        <time>2019-04-10T10:46:16.000Z</time>
      </trkpt>
      <trkpt lat="43.2677" lon="6.28174">
        <ele>475</ele>
        <time>2019-04-10T10:46:18.000Z</time>
      </trkpt>
      <trkpt lat="43.2677" lon="6.28174">
        <ele>475</ele>
        <time>2019-04-10T10:46:20.000Z</time>
      </trkpt>
      <trkpt lat="43.26764" lon="6.28177">
        <ele>477</ele>
        <time>2019-04-10T10:46:22.000Z</time>
      </trkpt>
      <trkpt lat="43.26759" lon="6.28179">
        <ele>476</ele>
        <time>2019-04-10T10:46:24.000Z</time>
      </trkpt>
      <trkpt lat="43.26759" lon="6.28179">
        <ele>476</ele>
        <time>2019-04-10T10:46:27.000Z</time>
      </trkpt>
      <trkpt lat="43.26759" lon="6.28179">
        <ele>476</ele>
        <time>2019-04-10T10:46:28.000Z</time>
      </trkpt>
      <trkpt lat="43.26759" lon="6.28179">
        <ele>476</ele>
        <time>2019-04-10T10:46:30.000Z</time>
      </trkpt>
      <trkpt lat="43.26759" lon="6.28179">
        <ele>476</ele>
        <time>2019-04-10T10:46:32.000Z</time>
      </trkpt>
      <trkpt lat="43.26748" lon="6.28184">
        <ele>477</ele>
        <time>2019-04-10T10:46:36.000Z</time>
      </trkpt>
      <trkpt lat="43.2674" lon="6.28187">
        <ele>477</ele>
        <time>2019-04-10T10:46:38.000Z</time>
      </trkpt>
      <trkpt lat="43.26734" lon="6.28189">
        <ele>478</ele>
        <time>2019-04-10T10:46:40.000Z</time>
      </trkpt>
      <trkpt lat="43.2673" lon="6.28191">
        <ele>480</ele>
        <time>2019-04-10T10:46:42.000Z</time>
      </trkpt>
      <trkpt lat="43.2673" lon="6.28191">
        <ele>480</ele>
        <time>2019-04-10T10:46:44.000Z</time>
      </trkpt>
      <trkpt lat="43.2673" lon="6.28191">
        <ele>480</ele>
        <time>2019-04-10T10:46:46.000Z</time>
      </trkpt>
      <trkpt lat="43.2673" lon="6.28191">
        <ele>480</ele>
        <time>2019-04-10T10:46:48.000Z</time>
      </trkpt>
      <trkpt lat="43.2673" lon="6.28191">
        <ele>480</ele>
        <time>2019-04-10T10:46:50.000Z</time>
      </trkpt>
      <trkpt lat="43.26723" lon="6.28202">
        <ele>487</ele>
        <time>2019-04-10T10:46:54.000Z</time>
      </trkpt>
      <trkpt lat="43.26719" lon="6.28209">
        <ele>488</ele>
        <time>2019-04-10T10:46:56.000Z</time>
      </trkpt>
      <trkpt lat="43.26717" lon="6.28215">
        <ele>490</ele>
        <time>2019-04-10T10:46:58.000Z</time>
      </trkpt>
      <trkpt lat="43.26717" lon="6.28215">
        <ele>490</ele>
        <time>2019-04-10T10:47:00.000Z</time>
      </trkpt>
      <trkpt lat="43.26717" lon="6.28215">
        <ele>490</ele>
        <time>2019-04-10T10:47:02.000Z</time>
      </trkpt>
      <trkpt lat="43.2672" lon="6.28222">
        <ele>488</ele>
        <time>2019-04-10T10:47:04.000Z</time>
      </trkpt>
      <trkpt lat="43.26724" lon="6.28226">
        <ele>484</ele>
        <time>2019-04-10T10:47:06.000Z</time>
      </trkpt>
      <trkpt lat="43.26728" lon="6.28231">
        <ele>488</ele>
        <time>2019-04-10T10:47:08.000Z</time>
      </trkpt>
      <trkpt lat="43.26728" lon="6.28231">
        <ele>488</ele>
        <time>2019-04-10T10:47:10.000Z</time>
      </trkpt>
      <trkpt lat="43.26728" lon="6.28231">
        <ele>488</ele>
        <time>2019-04-10T10:47:12.000Z</time>
      </trkpt>
      <trkpt lat="43.26728" lon="6.28231">
        <ele>488</ele>
        <time>2019-04-10T10:47:14.000Z</time>
      </trkpt>
      <trkpt lat="43.26734" lon="6.28243">
        <ele>491</ele>
        <time>2019-04-10T10:47:20.000Z</time>
      </trkpt>
      <trkpt lat="43.26738" lon="6.28251">
        <ele>491</ele>
        <time>2019-04-10T10:47:22.000Z</time>
      </trkpt>
      <trkpt lat="43.26741" lon="6.28257">
        <ele>491</ele>
        <time>2019-04-10T10:47:24.000Z</time>
      </trkpt>
      <trkpt lat="43.26741" lon="6.28257">
        <ele>491</ele>
        <time>2019-04-10T10:47:26.000Z</time>
      </trkpt>
      <trkpt lat="43.26741" lon="6.28257">
        <ele>491</ele>
        <time>2019-04-10T10:47:28.000Z</time>
      </trkpt>
      <trkpt lat="43.26744" lon="6.28268">
        <ele>493</ele>
        <time>2019-04-10T10:47:32.000Z</time>
      </trkpt>
      <trkpt lat="43.26746" lon="6.28276">
        <ele>493</ele>
        <time>2019-04-10T10:47:34.000Z</time>
      </trkpt>
      <trkpt lat="43.26747" lon="6.28283">
        <ele>494</ele>
        <time>2019-04-10T10:47:36.000Z</time>
      </trkpt>
      <trkpt lat="43.26747" lon="6.28283">
        <ele>494</ele>
        <time>2019-04-10T10:47:38.000Z</time>
      </trkpt>
      <trkpt lat="43.26747" lon="6.28283">
        <ele>494</ele>
        <time>2019-04-10T10:47:40.000Z</time>
      </trkpt>
      <trkpt lat="43.26747" lon="6.28283">
        <ele>494</ele>
        <time>2019-04-10T10:47:42.000Z</time>
      </trkpt>
      <trkpt lat="43.26747" lon="6.28283">
        <ele>494</ele>
        <time>2019-04-10T10:47:44.000Z</time>
      </trkpt>
      <trkpt lat="43.26752" lon="6.28298">
        <ele>496</ele>
        <time>2019-04-10T10:47:48.000Z</time>
      </trkpt>
      <trkpt lat="43.26755" lon="6.28307">
        <ele>496</ele>
        <time>2019-04-10T10:47:50.000Z</time>
      </trkpt>
      <trkpt lat="43.26757" lon="6.28315">
        <ele>498</ele>
        <time>2019-04-10T10:47:52.000Z</time>
      </trkpt>
      <trkpt lat="43.26758" lon="6.28321">
        <ele>498</ele>
        <time>2019-04-10T10:47:54.000Z</time>
      </trkpt>
      <trkpt lat="43.26758" lon="6.28321">
        <ele>498</ele>
        <time>2019-04-10T10:47:56.000Z</time>
      </trkpt>
      <trkpt lat="43.26758" lon="6.28321">
        <ele>498</ele>
        <time>2019-04-10T10:47:58.000Z</time>
      </trkpt>
      <trkpt lat="43.26758" lon="6.28321">
        <ele>498</ele>
        <time>2019-04-10T10:48:00.000Z</time>
      </trkpt>
      <trkpt lat="43.26758" lon="6.28321">
        <ele>498</ele>
        <time>2019-04-10T10:48:04.000Z</time>
      </trkpt>
      <trkpt lat="43.26758" lon="6.28321">
        <ele>498</ele>
        <time>2019-04-10T10:48:06.000Z</time>
      </trkpt>
      <trkpt lat="43.26758" lon="6.28321">
        <ele>498</ele>
        <time>2019-04-10T10:48:08.000Z</time>
      </trkpt>
      <trkpt lat="43.26758" lon="6.28321">
        <ele>498</ele>
        <time>2019-04-10T10:48:10.000Z</time>
      </trkpt>
      <trkpt lat="43.26758" lon="6.28321">
        <ele>498</ele>
        <time>2019-04-10T10:48:12.000Z</time>
      </trkpt>
      <trkpt lat="43.26756" lon="6.28348">
        <ele>499</ele>
        <time>2019-04-10T10:48:16.000Z</time>
      </trkpt>
      <trkpt lat="43.26756" lon="6.28363">
        <ele>500</ele>
        <time>2019-04-10T10:48:18.000Z</time>
      </trkpt>
      <trkpt lat="43.26754" lon="6.28374">
        <ele>500</ele>
        <time>2019-04-10T10:48:20.000Z</time>
      </trkpt>
      <trkpt lat="43.26753" lon="6.28382">
        <ele>500</ele>
        <time>2019-04-10T10:48:22.000Z</time>
      </trkpt>
      <trkpt lat="43.26751" lon="6.28387">
        <ele>501</ele>
        <time>2019-04-10T10:48:24.000Z</time>
      </trkpt>
      <trkpt lat="43.26751" lon="6.28387">
        <ele>501</ele>
        <time>2019-04-10T10:48:27.000Z</time>
      </trkpt>
      <trkpt lat="43.26751" lon="6.28387">
        <ele>501</ele>
        <time>2019-04-10T10:48:28.000Z</time>
      </trkpt>
      <trkpt lat="43.26751" lon="6.28387">
        <ele>501</ele>
        <time>2019-04-10T10:48:30.000Z</time>
      </trkpt>
      <trkpt lat="43.2674" lon="6.28414">
        <ele>505</ele>
        <time>2019-04-10T10:48:36.000Z</time>
      </trkpt>
      <trkpt lat="43.2674" lon="6.28414">
        <ele>505</ele>
        <time>2019-04-10T10:48:40.000Z</time>
      </trkpt>
      <trkpt lat="43.2674" lon="6.28414">
        <ele>505</ele>
        <time>2019-04-10T10:48:42.000Z</time>
      </trkpt>
      <trkpt lat="43.2674" lon="6.28414">
        <ele>505</ele>
        <time>2019-04-10T10:48:44.000Z</time>
      </trkpt>
      <trkpt lat="43.26734" lon="6.28432">
        <ele>509</ele>
        <time>2019-04-10T10:48:46.000Z</time>
      </trkpt>
      <trkpt lat="43.26734" lon="6.28432">
        <ele>509</ele>
        <time>2019-04-10T10:48:50.000Z</time>
      </trkpt>
      <trkpt lat="43.26734" lon="6.28432">
        <ele>509</ele>
        <time>2019-04-10T10:48:52.000Z</time>
      </trkpt>
      <trkpt lat="43.26734" lon="6.28432">
        <ele>509</ele>
        <time>2019-04-10T10:48:54.000Z</time>
      </trkpt>
      <trkpt lat="43.26734" lon="6.28432">
        <ele>509</ele>
        <time>2019-04-10T10:48:56.000Z</time>
      </trkpt>
      <trkpt lat="43.26734" lon="6.28432">
        <ele>509</ele>
        <time>2019-04-10T10:48:58.000Z</time>
      </trkpt>
      <trkpt lat="43.26734" lon="6.28432">
        <ele>509</ele>
        <time>2019-04-10T10:49:00.000Z</time>
      </trkpt>
      <trkpt lat="43.26726" lon="6.28471">
        <ele>515</ele>
        <time>2019-04-10T10:49:04.000Z</time>
      </trkpt>
      <trkpt lat="43.26719" lon="6.28483">
        <ele>516</ele>
        <time>2019-04-10T10:49:10.000Z</time>
      </trkpt>
      <trkpt lat="43.26719" lon="6.28483">
        <ele>516</ele>
        <time>2019-04-10T10:49:14.000Z</time>
      </trkpt>
      <trkpt lat="43.26719" lon="6.28483">
        <ele>516</ele>
        <time>2019-04-10T10:49:16.000Z</time>
      </trkpt>
      <trkpt lat="43.26705" lon="6.28495">
        <ele>514</ele>
        <time>2019-04-10T10:49:20.000Z</time>
      </trkpt>
      <trkpt lat="43.26705" lon="6.28495">
        <ele>514</ele>
        <time>2019-04-10T10:49:22.000Z</time>
      </trkpt>
      <trkpt lat="43.26705" lon="6.28495">
        <ele>514</ele>
        <time>2019-04-10T10:49:24.000Z</time>
      </trkpt>
      <trkpt lat="43.26698" lon="6.28505">
        <ele>513</ele>
        <time>2019-04-10T10:49:28.000Z</time>
      </trkpt>
      <trkpt lat="43.26698" lon="6.28505">
        <ele>513</ele>
        <time>2019-04-10T10:49:32.000Z</time>
      </trkpt>
      <trkpt lat="43.26693" lon="6.28518">
        <ele>515</ele>
        <time>2019-04-10T10:49:34.000Z</time>
      </trkpt>
      <trkpt lat="43.26691" lon="6.28525">
        <ele>520</ele>
        <time>2019-04-10T10:49:40.000Z</time>
      </trkpt>
      <trkpt lat="43.26691" lon="6.28525">
        <ele>520</ele>
        <time>2019-04-10T10:49:42.000Z</time>
      </trkpt>
      <trkpt lat="43.2669" lon="6.28533">
        <ele>519</ele>
        <time>2019-04-10T10:49:44.000Z</time>
      </trkpt>
      <trkpt lat="43.26688" lon="6.28541">
        <ele>520</ele>
        <time>2019-04-10T10:49:46.000Z</time>
      </trkpt>
      <trkpt lat="43.26686" lon="6.28549">
        <ele>518</ele>
        <time>2019-04-10T10:49:50.000Z</time>
      </trkpt>
      <trkpt lat="43.26683" lon="6.28554">
        <ele>518</ele>
        <time>2019-04-10T10:49:52.000Z</time>
      </trkpt>
      <trkpt lat="43.26683" lon="6.28554">
        <ele>518</ele>
        <time>2019-04-10T10:49:56.000Z</time>
      </trkpt>
      <trkpt lat="43.26683" lon="6.28554">
        <ele>518</ele>
        <time>2019-04-10T10:49:58.000Z</time>
      </trkpt>
      <trkpt lat="43.26683" lon="6.28554">
        <ele>518</ele>
        <time>2019-04-10T10:50:00.000Z</time>
      </trkpt>
      <trkpt lat="43.26683" lon="6.28554">
        <ele>518</ele>
        <time>2019-04-10T10:50:02.000Z</time>
      </trkpt>
      <trkpt lat="43.26677" lon="6.2857">
        <ele>523</ele>
        <time>2019-04-10T10:50:06.000Z</time>
      </trkpt>
      <trkpt lat="43.26674" lon="6.28579">
        <ele>524</ele>
        <time>2019-04-10T10:50:08.000Z</time>
      </trkpt>
      <trkpt lat="43.26674" lon="6.28579">
        <ele>524</ele>
        <time>2019-04-10T10:50:10.000Z</time>
      </trkpt>
      <trkpt lat="43.26674" lon="6.28579">
        <ele>524</ele>
        <time>2019-04-10T10:50:12.000Z</time>
      </trkpt>
      <trkpt lat="43.26674" lon="6.28579">
        <ele>524</ele>
        <time>2019-04-10T10:50:14.000Z</time>
      </trkpt>
      <trkpt lat="43.26674" lon="6.28579">
        <ele>524</ele>
        <time>2019-04-10T10:50:22.000Z</time>
      </trkpt>
      <trkpt lat="43.26674" lon="6.28579">
        <ele>524</ele>
        <time>2019-04-10T10:50:24.000Z</time>
      </trkpt>
      <trkpt lat="43.26674" lon="6.28579">
        <ele>524</ele>
        <time>2019-04-10T10:50:27.000Z</time>
      </trkpt>
      <trkpt lat="43.26674" lon="6.28579">
        <ele>524</ele>
        <time>2019-04-10T10:50:28.000Z</time>
      </trkpt>
      <trkpt lat="43.26674" lon="6.28579">
        <ele>524</ele>
        <time>2019-04-10T10:50:30.000Z</time>
      </trkpt>
      <trkpt lat="43.26674" lon="6.28579">
        <ele>524</ele>
        <time>2019-04-10T10:50:32.000Z</time>
      </trkpt>
      <trkpt lat="43.26675" lon="6.2861">
        <ele>531</ele>
        <time>2019-04-10T10:50:38.000Z</time>
      </trkpt>
      <trkpt lat="43.26676" lon="6.28628">
        <ele>532</ele>
        <time>2019-04-10T10:50:40.000Z</time>
      </trkpt>
      <trkpt lat="43.26676" lon="6.28639">
        <ele>532</ele>
        <time>2019-04-10T10:50:42.000Z</time>
      </trkpt>
      <trkpt lat="43.26676" lon="6.28647">
        <ele>532</ele>
        <time>2019-04-10T10:50:44.000Z</time>
      </trkpt>
      <trkpt lat="43.26675" lon="6.28655">
        <ele>533</ele>
        <time>2019-04-10T10:50:48.000Z</time>
      </trkpt>
      <trkpt lat="43.26675" lon="6.28655">
        <ele>533</ele>
        <time>2019-04-10T10:50:50.000Z</time>
      </trkpt>
      <trkpt lat="43.26674" lon="6.28663">
        <ele>533</ele>
        <time>2019-04-10T10:50:52.000Z</time>
      </trkpt>
      <trkpt lat="43.26672" lon="6.28669">
        <ele>534</ele>
        <time>2019-04-10T10:50:54.000Z</time>
      </trkpt>
      <trkpt lat="43.26671" lon="6.28677">
        <ele>534</ele>
        <time>2019-04-10T10:50:58.000Z</time>
      </trkpt>
      <trkpt lat="43.26671" lon="6.28683">
        <ele>534</ele>
        <time>2019-04-10T10:51:00.000Z</time>
      </trkpt>
      <trkpt lat="43.2667" lon="6.28691">
        <ele>535</ele>
        <time>2019-04-10T10:51:04.000Z</time>
      </trkpt>
      <trkpt lat="43.2667" lon="6.28697">
        <ele>535</ele>
        <time>2019-04-10T10:51:06.000Z</time>
      </trkpt>
      <trkpt lat="43.2667" lon="6.28697">
        <ele>535</ele>
        <time>2019-04-10T10:51:08.000Z</time>
      </trkpt>
      <trkpt lat="43.2667" lon="6.28706">
        <ele>536</ele>
        <time>2019-04-10T10:51:10.000Z</time>
      </trkpt>
      <trkpt lat="43.2667" lon="6.28713">
        <ele>536</ele>
        <time>2019-04-10T10:51:12.000Z</time>
      </trkpt>
      <trkpt lat="43.26671" lon="6.2872">
        <ele>537</ele>
        <time>2019-04-10T10:51:14.000Z</time>
      </trkpt>
      <trkpt lat="43.26671" lon="6.2872">
        <ele>537</ele>
        <time>2019-04-10T10:51:16.000Z</time>
      </trkpt>
      <trkpt lat="43.26673" lon="6.28728">
        <ele>536</ele>
        <time>2019-04-10T10:51:18.000Z</time>
      </trkpt>
      <trkpt lat="43.26675" lon="6.28734">
        <ele>536</ele>
        <time>2019-04-10T10:51:20.000Z</time>
      </trkpt>
      <trkpt lat="43.26675" lon="6.28734">
        <ele>536</ele>
        <time>2019-04-10T10:51:22.000Z</time>
      </trkpt>
      <trkpt lat="43.26675" lon="6.28734">
        <ele>536</ele>
        <time>2019-04-10T10:51:24.000Z</time>
      </trkpt>
      <trkpt lat="43.26675" lon="6.28734">
        <ele>536</ele>
        <time>2019-04-10T10:51:26.000Z</time>
      </trkpt>
      <trkpt lat="43.26675" lon="6.28734">
        <ele>536</ele>
        <time>2019-04-10T10:51:28.000Z</time>
      </trkpt>
      <trkpt lat="43.26686" lon="6.28746">
        <ele>540</ele>
        <time>2019-04-10T10:51:34.000Z</time>
      </trkpt>
      <trkpt lat="43.26686" lon="6.28746">
        <ele>540</ele>
        <time>2019-04-10T10:51:36.000Z</time>
      </trkpt>
      <trkpt lat="43.26686" lon="6.28746">
        <ele>540</ele>
        <time>2019-04-10T10:51:38.000Z</time>
      </trkpt>
      <trkpt lat="43.26698" lon="6.28756">
        <ele>540</ele>
        <time>2019-04-10T10:51:42.000Z</time>
      </trkpt>
      <trkpt lat="43.26706" lon="6.28761">
        <ele>541</ele>
        <time>2019-04-10T10:51:44.000Z</time>
      </trkpt>
      <trkpt lat="43.26711" lon="6.28765">
        <ele>542</ele>
        <time>2019-04-10T10:51:46.000Z</time>
      </trkpt>
      <trkpt lat="43.26715" lon="6.28769">
        <ele>541</ele>
        <time>2019-04-10T10:51:48.000Z</time>
      </trkpt>
      <trkpt lat="43.2672" lon="6.28774">
        <ele>541</ele>
        <time>2019-04-10T10:51:52.000Z</time>
      </trkpt>
      <trkpt lat="43.2672" lon="6.28774">
        <ele>541</ele>
        <time>2019-04-10T10:51:54.000Z</time>
      </trkpt>
      <trkpt lat="43.2672" lon="6.28774">
        <ele>541</ele>
        <time>2019-04-10T10:51:56.000Z</time>
      </trkpt>
      <trkpt lat="43.2672" lon="6.28774">
        <ele>541</ele>
        <time>2019-04-10T10:51:58.000Z</time>
      </trkpt>
      <trkpt lat="43.2672" lon="6.28774">
        <ele>541</ele>
        <time>2019-04-10T10:52:00.000Z</time>
      </trkpt>
      <trkpt lat="43.26728" lon="6.28786">
        <ele>542</ele>
        <time>2019-04-10T10:52:04.000Z</time>
      </trkpt>
      <trkpt lat="43.26733" lon="6.28795">
        <ele>542</ele>
        <time>2019-04-10T10:52:06.000Z</time>
      </trkpt>
      <trkpt lat="43.26733" lon="6.28795">
        <ele>542</ele>
        <time>2019-04-10T10:52:08.000Z</time>
      </trkpt>
      <trkpt lat="43.26737" lon="6.28805">
        <ele>544</ele>
        <time>2019-04-10T10:52:12.000Z</time>
      </trkpt>
      <trkpt lat="43.26739" lon="6.28812">
        <ele>543</ele>
        <time>2019-04-10T10:52:14.000Z</time>
      </trkpt>
      <trkpt lat="43.26739" lon="6.28812">
        <ele>543</ele>
        <time>2019-04-10T10:52:16.000Z</time>
      </trkpt>
      <trkpt lat="43.26739" lon="6.28812">
        <ele>543</ele>
        <time>2019-04-10T10:52:18.000Z</time>
      </trkpt>
      <trkpt lat="43.26739" lon="6.28812">
        <ele>543</ele>
        <time>2019-04-10T10:52:20.000Z</time>
      </trkpt>
      <trkpt lat="43.26739" lon="6.28812">
        <ele>543</ele>
        <time>2019-04-10T10:52:22.000Z</time>
      </trkpt>
      <trkpt lat="43.26739" lon="6.28812">
        <ele>543</ele>
        <time>2019-04-10T10:52:24.000Z</time>
      </trkpt>
      <trkpt lat="43.26741" lon="6.2883">
        <ele>548</ele>
        <time>2019-04-10T10:52:28.000Z</time>
      </trkpt>
      <trkpt lat="43.26742" lon="6.28841">
        <ele>549</ele>
        <time>2019-04-10T10:52:29.000Z</time>
      </trkpt>
      <trkpt lat="43.26742" lon="6.28841">
        <ele>549</ele>
        <time>2019-04-10T10:52:31.000Z</time>
      </trkpt>
      <trkpt lat="43.26745" lon="6.28855">
        <ele>551</ele>
        <time>2019-04-10T10:52:37.000Z</time>
      </trkpt>
      <trkpt lat="43.26747" lon="6.28865">
        <ele>552</ele>
        <time>2019-04-10T10:52:39.000Z</time>
      </trkpt>
      <trkpt lat="43.26748" lon="6.28873">
        <ele>553</ele>
        <time>2019-04-10T10:52:41.000Z</time>
      </trkpt>
      <trkpt lat="43.2675" lon="6.28879">
        <ele>553</ele>
        <time>2019-04-10T10:52:43.000Z</time>
      </trkpt>
      <trkpt lat="43.26752" lon="6.28886">
        <ele>553</ele>
        <time>2019-04-10T10:52:47.000Z</time>
      </trkpt>
      <trkpt lat="43.26755" lon="6.28893">
        <ele>554</ele>
        <time>2019-04-10T10:52:49.000Z</time>
      </trkpt>
      <trkpt lat="43.26757" lon="6.28899">
        <ele>553</ele>
        <time>2019-04-10T10:52:53.000Z</time>
      </trkpt>
      <trkpt lat="43.26757" lon="6.28899">
        <ele>553</ele>
        <time>2019-04-10T10:52:55.000Z</time>
      </trkpt>
      <trkpt lat="43.26757" lon="6.28899">
        <ele>553</ele>
        <time>2019-04-10T10:52:57.000Z</time>
      </trkpt>
      <trkpt lat="43.26757" lon="6.28899">
        <ele>553</ele>
        <time>2019-04-10T10:53:03.000Z</time>
      </trkpt>
      <trkpt lat="43.26757" lon="6.28899">
        <ele>553</ele>
        <time>2019-04-10T10:53:05.000Z</time>
      </trkpt>
      <trkpt lat="43.26757" lon="6.28899">
        <ele>553</ele>
        <time>2019-04-10T10:53:07.000Z</time>
      </trkpt>
      <trkpt lat="43.26757" lon="6.28899">
        <ele>553</ele>
        <time>2019-04-10T10:53:09.000Z</time>
      </trkpt>
      <trkpt lat="43.26775" lon="6.28904">
        <ele>555</ele>
        <time>2019-04-10T10:53:13.000Z</time>
      </trkpt>
      <trkpt lat="43.26786" lon="6.28906">
        <ele>556</ele>
        <time>2019-04-10T10:53:15.000Z</time>
      </trkpt>
      <trkpt lat="43.26792" lon="6.28907">
        <ele>558</ele>
        <time>2019-04-10T10:53:17.000Z</time>
      </trkpt>
      <trkpt lat="43.26797" lon="6.28907">
        <ele>559</ele>
        <time>2019-04-10T10:53:19.000Z</time>
      </trkpt>
      <trkpt lat="43.26802" lon="6.28908">
        <ele>560</ele>
        <time>2019-04-10T10:53:23.000Z</time>
      </trkpt>
      <trkpt lat="43.26802" lon="6.28908">
        <ele>560</ele>
        <time>2019-04-10T10:53:25.000Z</time>
      </trkpt>
      <trkpt lat="43.26808" lon="6.28908">
        <ele>561</ele>
        <time>2019-04-10T10:53:27.000Z</time>
      </trkpt>
      <trkpt lat="43.26813" lon="6.28909">
        <ele>561</ele>
        <time>2019-04-10T10:53:29.000Z</time>
      </trkpt>
      <trkpt lat="43.26813" lon="6.28909">
        <ele>561</ele>
        <time>2019-04-10T10:53:33.000Z</time>
      </trkpt>
      <trkpt lat="43.26813" lon="6.28909">
        <ele>561</ele>
        <time>2019-04-10T10:53:35.000Z</time>
      </trkpt>
      <trkpt lat="43.26813" lon="6.28909">
        <ele>561</ele>
        <time>2019-04-10T10:53:37.000Z</time>
      </trkpt>
      <trkpt lat="43.26822" lon="6.28911">
        <ele>562</ele>
        <time>2019-04-10T10:53:39.000Z</time>
      </trkpt>
      <trkpt lat="43.26828" lon="6.28914">
        <ele>561</ele>
        <time>2019-04-10T10:53:41.000Z</time>
      </trkpt>
      <trkpt lat="43.26833" lon="6.28916">
        <ele>561</ele>
        <time>2019-04-10T10:53:43.000Z</time>
      </trkpt>
      <trkpt lat="43.26833" lon="6.28916">
        <ele>561</ele>
        <time>2019-04-10T10:53:45.000Z</time>
      </trkpt>
      <trkpt lat="43.26833" lon="6.28916">
        <ele>561</ele>
        <time>2019-04-10T10:53:47.000Z</time>
      </trkpt>
      <trkpt lat="43.26833" lon="6.28916">
        <ele>561</ele>
        <time>2019-04-10T10:53:49.000Z</time>
      </trkpt>
      <trkpt lat="43.26842" lon="6.28925">
        <ele>566</ele>
        <time>2019-04-10T10:53:53.000Z</time>
      </trkpt>
      <trkpt lat="43.26848" lon="6.28932">
        <ele>565</ele>
        <time>2019-04-10T10:53:55.000Z</time>
      </trkpt>
      <trkpt lat="43.26851" lon="6.28937">
        <ele>565</ele>
        <time>2019-04-10T10:53:57.000Z</time>
      </trkpt>
      <trkpt lat="43.26851" lon="6.28937">
        <ele>565</ele>
        <time>2019-04-10T10:53:59.000Z</time>
      </trkpt>
      <trkpt lat="43.26851" lon="6.28937">
        <ele>565</ele>
        <time>2019-04-10T10:54:01.000Z</time>
      </trkpt>
      <trkpt lat="43.26851" lon="6.28937">
        <ele>565</ele>
        <time>2019-04-10T10:54:03.000Z</time>
      </trkpt>
      <trkpt lat="43.26854" lon="6.2895">
        <ele>567</ele>
        <time>2019-04-10T10:54:07.000Z</time>
      </trkpt>
      <trkpt lat="43.26856" lon="6.28958">
        <ele>567</ele>
        <time>2019-04-10T10:54:09.000Z</time>
      </trkpt>
      <trkpt lat="43.26856" lon="6.28958">
        <ele>567</ele>
        <time>2019-04-10T10:54:11.000Z</time>
      </trkpt>
      <trkpt lat="43.26856" lon="6.28958">
        <ele>567</ele>
        <time>2019-04-10T10:54:13.000Z</time>
      </trkpt>
      <trkpt lat="43.26856" lon="6.28958">
        <ele>567</ele>
        <time>2019-04-10T10:54:15.000Z</time>
      </trkpt>
      <trkpt lat="43.26856" lon="6.28973">
        <ele>569</ele>
        <time>2019-04-10T10:54:19.000Z</time>
      </trkpt>
      <trkpt lat="43.26856" lon="6.28982">
        <ele>568</ele>
        <time>2019-04-10T10:54:21.000Z</time>
      </trkpt>
      <trkpt lat="43.26856" lon="6.28989">
        <ele>567</ele>
        <time>2019-04-10T10:54:23.000Z</time>
      </trkpt>
      <trkpt lat="43.26856" lon="6.28989">
        <ele>567</ele>
        <time>2019-04-10T10:54:25.000Z</time>
      </trkpt>
      <trkpt lat="43.26856" lon="6.28989">
        <ele>567</ele>
        <time>2019-04-10T10:54:27.000Z</time>
      </trkpt>
      <trkpt lat="43.26855" lon="6.29001">
        <ele>567</ele>
        <time>2019-04-10T10:54:32.000Z</time>
      </trkpt>
      <trkpt lat="43.26854" lon="6.29009">
        <ele>568</ele>
        <time>2019-04-10T10:54:34.000Z</time>
      </trkpt>
      <trkpt lat="43.26854" lon="6.29009">
        <ele>568</ele>
        <time>2019-04-10T10:54:36.000Z</time>
      </trkpt>
      <trkpt lat="43.26854" lon="6.29009">
        <ele>568</ele>
        <time>2019-04-10T10:54:38.000Z</time>
      </trkpt>
      <trkpt lat="43.26854" lon="6.29009">
        <ele>568</ele>
        <time>2019-04-10T10:54:40.000Z</time>
      </trkpt>
      <trkpt lat="43.26851" lon="6.29022">
        <ele>573</ele>
        <time>2019-04-10T10:54:44.000Z</time>
      </trkpt>
      <trkpt lat="43.26849" lon="6.29031">
        <ele>572</ele>
        <time>2019-04-10T10:54:46.000Z</time>
      </trkpt>
      <trkpt lat="43.26847" lon="6.29038">
        <ele>571</ele>
        <time>2019-04-10T10:54:48.000Z</time>
      </trkpt>
      <trkpt lat="43.26846" lon="6.29045">
        <ele>575</ele>
        <time>2019-04-10T10:54:52.000Z</time>
      </trkpt>
      <trkpt lat="43.26846" lon="6.29045">
        <ele>575</ele>
        <time>2019-04-10T10:54:56.000Z</time>
      </trkpt>
      <trkpt lat="43.26846" lon="6.29045">
        <ele>575</ele>
        <time>2019-04-10T10:54:58.000Z</time>
      </trkpt>
      <trkpt lat="43.26846" lon="6.29045">
        <ele>575</ele>
        <time>2019-04-10T10:55:00.000Z</time>
      </trkpt>
      <trkpt lat="43.26848" lon="6.2906">
        <ele>578</ele>
        <time>2019-04-10T10:55:04.000Z</time>
      </trkpt>
      <trkpt lat="43.26849" lon="6.29072">
        <ele>578</ele>
        <time>2019-04-10T10:55:06.000Z</time>
      </trkpt>
      <trkpt lat="43.26852" lon="6.29079">
        <ele>575</ele>
        <time>2019-04-10T10:55:08.000Z</time>
      </trkpt>
      <trkpt lat="43.26855" lon="6.29086">
        <ele>575</ele>
        <time>2019-04-10T10:55:12.000Z</time>
      </trkpt>
      <trkpt lat="43.26855" lon="6.29086">
        <ele>575</ele>
        <time>2019-04-10T10:55:14.000Z</time>
      </trkpt>
      <trkpt lat="43.26855" lon="6.29086">
        <ele>575</ele>
        <time>2019-04-10T10:55:16.000Z</time>
      </trkpt>
      <trkpt lat="43.2686" lon="6.29097">
        <ele>578</ele>
        <time>2019-04-10T10:55:20.000Z</time>
      </trkpt>
      <trkpt lat="43.26864" lon="6.29105">
        <ele>579</ele>
        <time>2019-04-10T10:55:22.000Z</time>
      </trkpt>
      <trkpt lat="43.26864" lon="6.29105">
        <ele>579</ele>
        <time>2019-04-10T10:55:24.000Z</time>
      </trkpt>
      <trkpt lat="43.26864" lon="6.29105">
        <ele>579</ele>
        <time>2019-04-10T10:55:26.000Z</time>
      </trkpt>
      <trkpt lat="43.26868" lon="6.29115">
        <ele>578</ele>
        <time>2019-04-10T10:55:28.000Z</time>
      </trkpt>
      <trkpt lat="43.26871" lon="6.29123">
        <ele>579</ele>
        <time>2019-04-10T10:55:30.000Z</time>
      </trkpt>
      <trkpt lat="43.26874" lon="6.29131">
        <ele>578</ele>
        <time>2019-04-10T10:55:32.000Z</time>
      </trkpt>
      <trkpt lat="43.26876" lon="6.29137">
        <ele>578</ele>
        <time>2019-04-10T10:55:34.000Z</time>
      </trkpt>
      <trkpt lat="43.26876" lon="6.29137">
        <ele>578</ele>
        <time>2019-04-10T10:55:36.000Z</time>
      </trkpt>
      <trkpt lat="43.26876" lon="6.29137">
        <ele>578</ele>
        <time>2019-04-10T10:55:38.000Z</time>
      </trkpt>
      <trkpt lat="43.26876" lon="6.29137">
        <ele>578</ele>
        <time>2019-04-10T10:55:40.000Z</time>
      </trkpt>
      <trkpt lat="43.26877" lon="6.2915">
        <ele>577</ele>
        <time>2019-04-10T10:55:44.000Z</time>
      </trkpt>
      <trkpt lat="43.26878" lon="6.29159">
        <ele>576</ele>
        <time>2019-04-10T10:55:46.000Z</time>
      </trkpt>
      <trkpt lat="43.26878" lon="6.29165">
        <ele>575</ele>
        <time>2019-04-10T10:55:48.000Z</time>
      </trkpt>
      <trkpt lat="43.26878" lon="6.29165">
        <ele>575</ele>
        <time>2019-04-10T10:55:50.000Z</time>
      </trkpt>
      <trkpt lat="43.26878" lon="6.29165">
        <ele>575</ele>
        <time>2019-04-10T10:55:52.000Z</time>
      </trkpt>
      <trkpt lat="43.26873" lon="6.29162">
        <ele>577</ele>
        <time>2019-04-10T10:55:56.000Z</time>
      </trkpt>
      <trkpt lat="43.2687" lon="6.29155">
        <ele>578</ele>
        <time>2019-04-10T10:56:00.000Z</time>
      </trkpt>
      <trkpt lat="43.26868" lon="6.29149">
        <ele>579</ele>
        <time>2019-04-10T10:56:02.000Z</time>
      </trkpt>
      <trkpt lat="43.26866" lon="6.29144">
        <ele>581</ele>
        <time>2019-04-10T10:56:04.000Z</time>
      </trkpt>
      <trkpt lat="43.26866" lon="6.29144">
        <ele>581</ele>
        <time>2019-04-10T10:56:06.000Z</time>
      </trkpt>
      <trkpt lat="43.2686" lon="6.29134">
        <ele>582</ele>
        <time>2019-04-10T10:56:10.000Z</time>
      </trkpt>
      <trkpt lat="43.26856" lon="6.29128">
        <ele>583</ele>
        <time>2019-04-10T10:56:12.000Z</time>
      </trkpt>
      <trkpt lat="43.26856" lon="6.29128">
        <ele>583</ele>
        <time>2019-04-10T10:56:14.000Z</time>
      </trkpt>
      <trkpt lat="43.26856" lon="6.29128">
        <ele>583</ele>
        <time>2019-04-10T10:56:16.000Z</time>
      </trkpt>
      <trkpt lat="43.26856" lon="6.29128">
        <ele>583</ele>
        <time>2019-04-10T10:56:18.000Z</time>
      </trkpt>
      <trkpt lat="43.26856" lon="6.29128">
        <ele>583</ele>
        <time>2019-04-10T10:56:20.000Z</time>
      </trkpt>
      <trkpt lat="43.26856" lon="6.29128">
        <ele>583</ele>
        <time>2019-04-10T10:56:22.000Z</time>
      </trkpt>
      <trkpt lat="43.26856" lon="6.29128">
        <ele>583</ele>
        <time>2019-04-10T10:56:24.000Z</time>
      </trkpt>
      <trkpt lat="43.26856" lon="6.29128">
        <ele>583</ele>
        <time>2019-04-10T10:56:27.000Z</time>
      </trkpt>
      <trkpt lat="43.26856" lon="6.29128">
        <ele>583</ele>
        <time>2019-04-10T10:56:28.000Z</time>
      </trkpt>
      <trkpt lat="43.26839" lon="6.29108">
        <ele>583</ele>
        <time>2019-04-10T10:56:32.000Z</time>
      </trkpt>
      <trkpt lat="43.26839" lon="6.29108">
        <ele>583</ele>
        <time>2019-04-10T10:56:34.000Z</time>
      </trkpt>
      <trkpt lat="43.26839" lon="6.29108">
        <ele>583</ele>
        <time>2019-04-10T10:56:36.000Z</time>
      </trkpt>
      <trkpt lat="43.26839" lon="6.29108">
        <ele>583</ele>
        <time>2019-04-10T10:56:38.000Z</time>
      </trkpt>
      <trkpt lat="43.26827" lon="6.2909">
        <ele>589</ele>
        <time>2019-04-10T10:56:42.000Z</time>
      </trkpt>
      <trkpt lat="43.2682" lon="6.29078">
        <ele>591</ele>
        <time>2019-04-10T10:56:44.000Z</time>
      </trkpt>
      <trkpt lat="43.26816" lon="6.29071">
        <ele>592</ele>
        <time>2019-04-10T10:56:46.000Z</time>
      </trkpt>
      <trkpt lat="43.26812" lon="6.29066">
        <ele>594</ele>
        <time>2019-04-10T10:56:48.000Z</time>
      </trkpt>
      <trkpt lat="43.26812" lon="6.29066">
        <ele>594</ele>
        <time>2019-04-10T10:56:50.000Z</time>
      </trkpt>
      <trkpt lat="43.26812" lon="6.29066">
        <ele>594</ele>
        <time>2019-04-10T10:56:52.000Z</time>
      </trkpt>
      <trkpt lat="43.26812" lon="6.29066">
        <ele>594</ele>
        <time>2019-04-10T10:56:54.000Z</time>
      </trkpt>
      <trkpt lat="43.26802" lon="6.29055">
        <ele>593</ele>
        <time>2019-04-10T10:56:58.000Z</time>
      </trkpt>
      <trkpt lat="43.26793" lon="6.2905">
        <ele>593</ele>
        <time>2019-04-10T10:57:00.000Z</time>
      </trkpt>
      <trkpt lat="43.26787" lon="6.29047">
        <ele>593</ele>
        <time>2019-04-10T10:57:02.000Z</time>
      </trkpt>
      <trkpt lat="43.26781" lon="6.29046">
        <ele>594</ele>
        <time>2019-04-10T10:57:04.000Z</time>
      </trkpt>
      <trkpt lat="43.26774" lon="6.29045">
        <ele>594</ele>
        <time>2019-04-10T10:57:06.000Z</time>
      </trkpt>
      <trkpt lat="43.26762" lon="6.29044">
        <ele>593</ele>
        <time>2019-04-10T10:57:08.000Z</time>
      </trkpt>
      <trkpt lat="43.26762" lon="6.29044">
        <ele>593</ele>
        <time>2019-04-10T10:57:10.000Z</time>
      </trkpt>
      <trkpt lat="43.26762" lon="6.29044">
        <ele>593</ele>
        <time>2019-04-10T10:57:12.000Z</time>
      </trkpt>
      <trkpt lat="43.26762" lon="6.29044">
        <ele>593</ele>
        <time>2019-04-10T10:57:14.000Z</time>
      </trkpt>
      <trkpt lat="43.26734" lon="6.29036">
        <ele>592</ele>
        <time>2019-04-10T10:57:18.000Z</time>
      </trkpt>
      <trkpt lat="43.26723" lon="6.2903">
        <ele>593</ele>
        <time>2019-04-10T10:57:22.000Z</time>
      </trkpt>
      <trkpt lat="43.26723" lon="6.2903">
        <ele>593</ele>
        <time>2019-04-10T10:57:24.000Z</time>
      </trkpt>
      <trkpt lat="43.26715" lon="6.29022">
        <ele>593</ele>
        <time>2019-04-10T10:57:26.000Z</time>
      </trkpt>
      <trkpt lat="43.26699" lon="6.29012">
        <ele>593</ele>
        <time>2019-04-10T10:57:30.000Z</time>
      </trkpt>
      <trkpt lat="43.26686" lon="6.28999">
        <ele>594</ele>
        <time>2019-04-10T10:57:34.000Z</time>
      </trkpt>
      <trkpt lat="43.26686" lon="6.28999">
        <ele>594</ele>
        <time>2019-04-10T10:57:36.000Z</time>
      </trkpt>
      <trkpt lat="43.26686" lon="6.28999">
        <ele>594</ele>
        <time>2019-04-10T10:57:38.000Z</time>
      </trkpt>
      <trkpt lat="43.26686" lon="6.28999">
        <ele>594</ele>
        <time>2019-04-10T10:57:40.000Z</time>
      </trkpt>
      <trkpt lat="43.26686" lon="6.28999">
        <ele>594</ele>
        <time>2019-04-10T10:57:42.000Z</time>
      </trkpt>
      <trkpt lat="43.26686" lon="6.28999">
        <ele>594</ele>
        <time>2019-04-10T10:57:44.000Z</time>
      </trkpt>
      <trkpt lat="43.26686" lon="6.28999">
        <ele>594</ele>
        <time>2019-04-10T10:57:46.000Z</time>
      </trkpt>
      <trkpt lat="43.26644" lon="6.28958">
        <ele>597</ele>
        <time>2019-04-10T10:57:50.000Z</time>
      </trkpt>
      <trkpt lat="43.26644" lon="6.28958">
        <ele>597</ele>
        <time>2019-04-10T10:57:54.000Z</time>
      </trkpt>
      <trkpt lat="43.26644" lon="6.28958">
        <ele>597</ele>
        <time>2019-04-10T10:57:56.000Z</time>
      </trkpt>
      <trkpt lat="43.26644" lon="6.28958">
        <ele>597</ele>
        <time>2019-04-10T10:57:58.000Z</time>
      </trkpt>
      <trkpt lat="43.2661" lon="6.28914">
        <ele>599</ele>
        <time>2019-04-10T10:58:06.000Z</time>
      </trkpt>
      <trkpt lat="43.26604" lon="6.28902">
        <ele>603</ele>
        <time>2019-04-10T10:58:10.000Z</time>
      </trkpt>
      <trkpt lat="43.26596" lon="6.28889">
        <ele>604</ele>
        <time>2019-04-10T10:58:14.000Z</time>
      </trkpt>
      <trkpt lat="43.26582" lon="6.28879">
        <ele>607</ele>
        <time>2019-04-10T10:58:18.000Z</time>
      </trkpt>
      <trkpt lat="43.26578" lon="6.28867">
        <ele>607</ele>
        <time>2019-04-10T10:58:20.000Z</time>
      </trkpt>
      <trkpt lat="43.26575" lon="6.28853">
        <ele>607</ele>
        <time>2019-04-10T10:58:22.000Z</time>
      </trkpt>
      <trkpt lat="43.26571" lon="6.2884">
        <ele>606</ele>
        <time>2019-04-10T10:58:24.000Z</time>
      </trkpt>
      <trkpt lat="43.26569" lon="6.28821">
        <ele>605</ele>
        <time>2019-04-10T10:58:27.000Z</time>
      </trkpt>
      <trkpt lat="43.26569" lon="6.28821">
        <ele>605</ele>
        <time>2019-04-10T10:58:28.000Z</time>
      </trkpt>
      <trkpt lat="43.26561" lon="6.28798">
        <ele>603</ele>
        <time>2019-04-10T10:58:30.000Z</time>
      </trkpt>
      <trkpt lat="43.26561" lon="6.28798">
        <ele>603</ele>
        <time>2019-04-10T10:58:32.000Z</time>
      </trkpt>
      <trkpt lat="43.26561" lon="6.28798">
        <ele>603</ele>
        <time>2019-04-10T10:58:35.000Z</time>
      </trkpt>
      <trkpt lat="43.26561" lon="6.28798">
        <ele>603</ele>
        <time>2019-04-10T10:58:37.000Z</time>
      </trkpt>
      <trkpt lat="43.26553" lon="6.28776">
        <ele>605</ele>
        <time>2019-04-10T10:59:44.000Z</time>
      </trkpt>
      <trkpt lat="43.26551" lon="6.28754">
        <ele>603</ele>
        <time>2019-04-10T10:59:48.000Z</time>
      </trkpt>
      <trkpt lat="43.2655" lon="6.28742">
        <ele>602</ele>
        <time>2019-04-10T10:59:50.000Z</time>
      </trkpt>
      <trkpt lat="43.2655" lon="6.28727">
        <ele>601</ele>
        <time>2019-04-10T10:59:52.000Z</time>
      </trkpt>
      <trkpt lat="43.26548" lon="6.28713">
        <ele>600</ele>
        <time>2019-04-10T10:59:54.000Z</time>
      </trkpt>
      <trkpt lat="43.26546" lon="6.287">
        <ele>598</ele>
        <time>2019-04-10T10:59:56.000Z</time>
      </trkpt>
      <trkpt lat="43.26543" lon="6.28686">
        <ele>598</ele>
        <time>2019-04-10T10:59:58.000Z</time>
      </trkpt>
      <trkpt lat="43.26537" lon="6.28672">
        <ele>596</ele>
        <time>2019-04-10T11:00:00.000Z</time>
      </trkpt>
      <trkpt lat="43.26533" lon="6.28658">
        <ele>596</ele>
        <time>2019-04-10T11:00:02.000Z</time>
      </trkpt>
      <trkpt lat="43.26527" lon="6.28642">
        <ele>596</ele>
        <time>2019-04-10T11:00:04.000Z</time>
      </trkpt>
      <trkpt lat="43.26523" lon="6.28625">
        <ele>596</ele>
        <time>2019-04-10T11:00:06.000Z</time>
      </trkpt>
      <trkpt lat="43.26517" lon="6.28608">
        <ele>595</ele>
        <time>2019-04-10T11:00:08.000Z</time>
      </trkpt>
      <trkpt lat="43.26514" lon="6.28587">
        <ele>594</ele>
        <time>2019-04-10T11:00:10.000Z</time>
      </trkpt>
      <trkpt lat="43.26517" lon="6.28572">
        <ele>594</ele>
        <time>2019-04-10T11:00:12.000Z</time>
      </trkpt>
      <trkpt lat="43.26532" lon="6.28546">
        <ele>594</ele>
        <time>2019-04-10T11:00:15.000Z</time>
      </trkpt>
      <trkpt lat="43.2654" lon="6.28527">
        <ele>593</ele>
        <time>2019-04-10T11:00:17.000Z</time>
      </trkpt>
      <trkpt lat="43.26546" lon="6.28505">
        <ele>590</ele>
        <time>2019-04-10T11:00:19.000Z</time>
      </trkpt>
      <trkpt lat="43.26549" lon="6.28484">
        <ele>589</ele>
        <time>2019-04-10T11:00:21.000Z</time>
      </trkpt>
      <trkpt lat="43.26553" lon="6.28459">
        <ele>588</ele>
        <time>2019-04-10T11:00:23.000Z</time>
      </trkpt>
      <trkpt lat="43.26553" lon="6.28439">
        <ele>589</ele>
        <time>2019-04-10T11:00:25.000Z</time>
      </trkpt>
      <trkpt lat="43.26551" lon="6.28425">
        <ele>589</ele>
        <time>2019-04-10T11:00:27.000Z</time>
      </trkpt>
      <trkpt lat="43.26551" lon="6.28425">
        <ele>589</ele>
        <time>2019-04-10T11:00:28.000Z</time>
      </trkpt>
      <trkpt lat="43.26541" lon="6.28398">
        <ele>588</ele>
        <time>2019-04-10T11:00:30.000Z</time>
      </trkpt>
      <trkpt lat="43.26536" lon="6.28383">
        <ele>590</ele>
        <time>2019-04-10T11:00:32.000Z</time>
      </trkpt>
      <trkpt lat="43.26532" lon="6.28368">
        <ele>591</ele>
        <time>2019-04-10T11:00:34.000Z</time>
      </trkpt>
      <trkpt lat="43.26527" lon="6.28351">
        <ele>589</ele>
        <time>2019-04-10T11:00:36.000Z</time>
      </trkpt>
      <trkpt lat="43.26522" lon="6.28334">
        <ele>589</ele>
        <time>2019-04-10T11:00:38.000Z</time>
      </trkpt>
      <trkpt lat="43.26521" lon="6.28319">
        <ele>591</ele>
        <time>2019-04-10T11:00:40.000Z</time>
      </trkpt>
      <trkpt lat="43.26521" lon="6.28305">
        <ele>594</ele>
        <time>2019-04-10T11:00:42.000Z</time>
      </trkpt>
      <trkpt lat="43.26521" lon="6.28305">
        <ele>594</ele>
        <time>2019-04-10T11:00:44.000Z</time>
      </trkpt>
      <trkpt lat="43.26521" lon="6.28305">
        <ele>594</ele>
        <time>2019-04-10T11:00:46.000Z</time>
      </trkpt>
      <trkpt lat="43.26521" lon="6.28305">
        <ele>594</ele>
        <time>2019-04-10T11:00:48.000Z</time>
      </trkpt>
      <trkpt lat="43.26521" lon="6.28305">
        <ele>594</ele>
        <time>2019-04-10T11:00:50.000Z</time>
      </trkpt>
      <trkpt lat="43.26521" lon="6.28305">
        <ele>594</ele>
        <time>2019-04-10T11:00:52.000Z</time>
      </trkpt>
      <trkpt lat="43.26505" lon="6.2822">
        <ele>599</ele>
        <time>2019-04-10T11:00:58.000Z</time>
      </trkpt>
      <trkpt lat="43.26505" lon="6.2822">
        <ele>599</ele>
        <time>2019-04-10T11:01:00.000Z</time>
      </trkpt>
      <trkpt lat="43.26497" lon="6.28202">
        <ele>601</ele>
        <time>2019-04-10T11:01:02.000Z</time>
      </trkpt>
      <trkpt lat="43.26497" lon="6.28202">
        <ele>601</ele>
        <time>2019-04-10T11:01:04.000Z</time>
      </trkpt>
      <trkpt lat="43.26497" lon="6.28202">
        <ele>601</ele>
        <time>2019-04-10T11:01:06.000Z</time>
      </trkpt>
      <trkpt lat="43.26497" lon="6.28202">
        <ele>601</ele>
        <time>2019-04-10T11:01:08.000Z</time>
      </trkpt>
      <trkpt lat="43.26497" lon="6.28202">
        <ele>601</ele>
        <time>2019-04-10T11:01:10.000Z</time>
      </trkpt>
      <trkpt lat="43.26497" lon="6.28202">
        <ele>601</ele>
        <time>2019-04-10T11:01:12.000Z</time>
      </trkpt>
      <trkpt lat="43.26497" lon="6.28202">
        <ele>601</ele>
        <time>2019-04-10T11:01:14.000Z</time>
      </trkpt>
      <trkpt lat="43.26466" lon="6.28137">
        <ele>596</ele>
        <time>2019-04-10T11:01:18.000Z</time>
      </trkpt>
      <trkpt lat="43.26455" lon="6.28117">
        <ele>596</ele>
        <time>2019-04-10T11:01:22.000Z</time>
      </trkpt>
      <trkpt lat="43.26448" lon="6.28106">
        <ele>594</ele>
        <time>2019-04-10T11:01:24.000Z</time>
      </trkpt>
      <trkpt lat="43.26442" lon="6.28092">
        <ele>591</ele>
        <time>2019-04-10T11:01:26.000Z</time>
      </trkpt>
      <trkpt lat="43.26437" lon="6.28076">
        <ele>591</ele>
        <time>2019-04-10T11:01:28.000Z</time>
      </trkpt>
      <trkpt lat="43.26433" lon="6.28058">
        <ele>590</ele>
        <time>2019-04-10T11:01:30.000Z</time>
      </trkpt>
      <trkpt lat="43.26428" lon="6.28038">
        <ele>589</ele>
        <time>2019-04-10T11:01:32.000Z</time>
      </trkpt>
      <trkpt lat="43.26421" lon="6.28017">
        <ele>589</ele>
        <time>2019-04-10T11:01:34.000Z</time>
      </trkpt>
      <trkpt lat="43.26414" lon="6.27995">
        <ele>588</ele>
        <time>2019-04-10T11:01:36.000Z</time>
      </trkpt>
      <trkpt lat="43.2641" lon="6.27971">
        <ele>588</ele>
        <time>2019-04-10T11:01:38.000Z</time>
      </trkpt>
      <trkpt lat="43.26406" lon="6.27948">
        <ele>587</ele>
        <time>2019-04-10T11:01:40.000Z</time>
      </trkpt>
      <trkpt lat="43.26399" lon="6.27922">
        <ele>586</ele>
        <time>2019-04-10T11:01:42.000Z</time>
      </trkpt>
      <trkpt lat="43.26392" lon="6.27896">
        <ele>586</ele>
        <time>2019-04-10T11:01:44.000Z</time>
      </trkpt>
      <trkpt lat="43.26384" lon="6.27873">
        <ele>584</ele>
        <time>2019-04-10T11:01:46.000Z</time>
      </trkpt>
      <trkpt lat="43.26377" lon="6.27851">
        <ele>583</ele>
        <time>2019-04-10T11:01:48.000Z</time>
      </trkpt>
      <trkpt lat="43.26376" lon="6.27825">
        <ele>581</ele>
        <time>2019-04-10T11:01:50.000Z</time>
      </trkpt>
      <trkpt lat="43.26379" lon="6.27803">
        <ele>580</ele>
        <time>2019-04-10T11:01:52.000Z</time>
      </trkpt>
      <trkpt lat="43.26386" lon="6.27782">
        <ele>579</ele>
        <time>2019-04-10T11:01:54.000Z</time>
      </trkpt>
      <trkpt lat="43.26393" lon="6.27762">
        <ele>579</ele>
        <time>2019-04-10T11:01:56.000Z</time>
      </trkpt>
      <trkpt lat="43.26398" lon="6.27738">
        <ele>579</ele>
        <time>2019-04-10T11:01:58.000Z</time>
      </trkpt>
      <trkpt lat="43.26403" lon="6.27716">
        <ele>577</ele>
        <time>2019-04-10T11:02:00.000Z</time>
      </trkpt>
      <trkpt lat="43.26404" lon="6.27694">
        <ele>577</ele>
        <time>2019-04-10T11:02:02.000Z</time>
      </trkpt>
      <trkpt lat="43.26403" lon="6.27669">
        <ele>575</ele>
        <time>2019-04-10T11:02:04.000Z</time>
      </trkpt>
      <trkpt lat="43.26404" lon="6.27647">
        <ele>573</ele>
        <time>2019-04-10T11:02:06.000Z</time>
      </trkpt>
      <trkpt lat="43.26403" lon="6.27623">
        <ele>571</ele>
        <time>2019-04-10T11:02:08.000Z</time>
      </trkpt>
      <trkpt lat="43.26395" lon="6.27601">
        <ele>570</ele>
        <time>2019-04-10T11:02:10.000Z</time>
      </trkpt>
      <trkpt lat="43.26385" lon="6.27582">
        <ele>568</ele>
        <time>2019-04-10T11:02:12.000Z</time>
      </trkpt>
      <trkpt lat="43.26373" lon="6.27559">
        <ele>567</ele>
        <time>2019-04-10T11:02:14.000Z</time>
      </trkpt>
      <trkpt lat="43.26362" lon="6.27533">
        <ele>567</ele>
        <time>2019-04-10T11:02:16.000Z</time>
      </trkpt>
      <trkpt lat="43.26352" lon="6.27507">
        <ele>568</ele>
        <time>2019-04-10T11:02:18.000Z</time>
      </trkpt>
      <trkpt lat="43.26345" lon="6.2748">
        <ele>569</ele>
        <time>2019-04-10T11:02:20.000Z</time>
      </trkpt>
      <trkpt lat="43.26344" lon="6.27454">
        <ele>566</ele>
        <time>2019-04-10T11:02:22.000Z</time>
      </trkpt>
      <trkpt lat="43.26347" lon="6.27431">
        <ele>564</ele>
        <time>2019-04-10T11:02:24.000Z</time>
      </trkpt>
      <trkpt lat="43.26356" lon="6.27399">
        <ele>565</ele>
        <time>2019-04-10T11:02:27.000Z</time>
      </trkpt>
      <trkpt lat="43.26359" lon="6.27384">
        <ele>564</ele>
        <time>2019-04-10T11:02:28.000Z</time>
      </trkpt>
      <trkpt lat="43.26364" lon="6.27362">
        <ele>563</ele>
        <time>2019-04-10T11:02:30.000Z</time>
      </trkpt>
      <trkpt lat="43.26367" lon="6.27342">
        <ele>564</ele>
        <time>2019-04-10T11:02:32.000Z</time>
      </trkpt>
      <trkpt lat="43.26369" lon="6.27322">
        <ele>564</ele>
        <time>2019-04-10T11:02:34.000Z</time>
      </trkpt>
      <trkpt lat="43.26371" lon="6.27303">
        <ele>564</ele>
        <time>2019-04-10T11:02:36.000Z</time>
      </trkpt>
      <trkpt lat="43.26374" lon="6.27288">
        <ele>565</ele>
        <time>2019-04-10T11:02:38.000Z</time>
      </trkpt>
      <trkpt lat="43.26376" lon="6.27272">
        <ele>565</ele>
        <time>2019-04-10T11:02:40.000Z</time>
      </trkpt>
      <trkpt lat="43.26378" lon="6.27252">
        <ele>566</ele>
        <time>2019-04-10T11:02:42.000Z</time>
      </trkpt>
      <trkpt lat="43.2638" lon="6.27235">
        <ele>566</ele>
        <time>2019-04-10T11:02:44.000Z</time>
      </trkpt>
      <trkpt lat="43.26381" lon="6.27218">
        <ele>567</ele>
        <time>2019-04-10T11:02:46.000Z</time>
      </trkpt>
      <trkpt lat="43.26384" lon="6.27203">
        <ele>565</ele>
        <time>2019-04-10T11:02:48.000Z</time>
      </trkpt>
      <trkpt lat="43.26387" lon="6.27188">
        <ele>566</ele>
        <time>2019-04-10T11:02:50.000Z</time>
      </trkpt>
      <trkpt lat="43.26389" lon="6.27173">
        <ele>565</ele>
        <time>2019-04-10T11:02:52.000Z</time>
      </trkpt>
      <trkpt lat="43.2639" lon="6.27158">
        <ele>564</ele>
        <time>2019-04-10T11:02:54.000Z</time>
      </trkpt>
      <trkpt lat="43.2639" lon="6.27158">
        <ele>564</ele>
        <time>2019-04-10T11:02:56.000Z</time>
      </trkpt>
      <trkpt lat="43.2639" lon="6.27158">
        <ele>564</ele>
        <time>2019-04-10T11:02:58.000Z</time>
      </trkpt>
      <trkpt lat="43.2639" lon="6.27158">
        <ele>564</ele>
        <time>2019-04-10T11:03:00.000Z</time>
      </trkpt>
      <trkpt lat="43.2639" lon="6.27158">
        <ele>564</ele>
        <time>2019-04-10T11:03:02.000Z</time>
      </trkpt>
      <trkpt lat="43.2639" lon="6.27158">
        <ele>564</ele>
        <time>2019-04-10T11:03:04.000Z</time>
      </trkpt>
      <trkpt lat="43.2639" lon="6.27158">
        <ele>564</ele>
        <time>2019-04-10T11:03:08.000Z</time>
      </trkpt>
      <trkpt lat="43.2639" lon="6.27158">
        <ele>564</ele>
        <time>2019-04-10T11:03:10.000Z</time>
      </trkpt>
      <trkpt lat="43.2639" lon="6.27158">
        <ele>564</ele>
        <time>2019-04-10T11:03:12.000Z</time>
      </trkpt>
      <trkpt lat="43.2639" lon="6.27158">
        <ele>564</ele>
        <time>2019-04-10T11:03:14.000Z</time>
      </trkpt>
      <trkpt lat="43.2639" lon="6.27158">
        <ele>564</ele>
        <time>2019-04-10T11:03:16.000Z</time>
      </trkpt>
      <trkpt lat="43.2639" lon="6.27158">
        <ele>564</ele>
        <time>2019-04-10T11:03:18.000Z</time>
      </trkpt>
      <trkpt lat="43.2638" lon="6.27072">
        <ele>563</ele>
        <time>2019-04-10T11:03:22.000Z</time>
      </trkpt>
      <trkpt lat="43.26373" lon="6.27023">
        <ele>564</ele>
        <time>2019-04-10T11:03:24.000Z</time>
      </trkpt>
      <trkpt lat="43.26369" lon="6.26991">
        <ele>563</ele>
        <time>2019-04-10T11:03:26.000Z</time>
      </trkpt>
      <trkpt lat="43.26365" lon="6.2697">
        <ele>564</ele>
        <time>2019-04-10T11:03:28.000Z</time>
      </trkpt>
      <trkpt lat="43.2636" lon="6.26952">
        <ele>562</ele>
        <time>2019-04-10T11:03:30.000Z</time>
      </trkpt>
      <trkpt lat="43.26354" lon="6.2692">
        <ele>564</ele>
        <time>2019-04-10T11:03:32.000Z</time>
      </trkpt>
      <trkpt lat="43.2635" lon="6.26909">
        <ele>564</ele>
        <time>2019-04-10T11:03:34.000Z</time>
      </trkpt>
      <trkpt lat="43.2635" lon="6.26909">
        <ele>564</ele>
        <time>2019-04-10T11:03:36.000Z</time>
      </trkpt>
      <trkpt lat="43.2635" lon="6.26909">
        <ele>564</ele>
        <time>2019-04-10T11:03:38.000Z</time>
      </trkpt>
      <trkpt lat="43.2634" lon="6.26857">
        <ele>563</ele>
        <time>2019-04-10T11:03:42.000Z</time>
      </trkpt>
      <trkpt lat="43.26337" lon="6.26843">
        <ele>563</ele>
        <time>2019-04-10T11:03:44.000Z</time>
      </trkpt>
      <trkpt lat="43.26335" lon="6.26831">
        <ele>563</ele>
        <time>2019-04-10T11:03:46.000Z</time>
      </trkpt>
      <trkpt lat="43.26331" lon="6.26816">
        <ele>564</ele>
        <time>2019-04-10T11:03:48.000Z</time>
      </trkpt>
      <trkpt lat="43.26328" lon="6.26802">
        <ele>565</ele>
        <time>2019-04-10T11:03:50.000Z</time>
      </trkpt>
      <trkpt lat="43.26328" lon="6.26802">
        <ele>565</ele>
        <time>2019-04-10T11:03:52.000Z</time>
      </trkpt>
      <trkpt lat="43.26328" lon="6.26802">
        <ele>565</ele>
        <time>2019-04-10T11:03:54.000Z</time>
      </trkpt>
      <trkpt lat="43.26328" lon="6.26802">
        <ele>565</ele>
        <time>2019-04-10T11:03:56.000Z</time>
      </trkpt>
      <trkpt lat="43.26328" lon="6.26802">
        <ele>565</ele>
        <time>2019-04-10T11:03:58.000Z</time>
      </trkpt>
      <trkpt lat="43.26328" lon="6.26802">
        <ele>565</ele>
        <time>2019-04-10T11:04:02.000Z</time>
      </trkpt>
      <trkpt lat="43.26328" lon="6.26802">
        <ele>565</ele>
        <time>2019-04-10T11:04:04.000Z</time>
      </trkpt>
      <trkpt lat="43.26328" lon="6.26802">
        <ele>565</ele>
        <time>2019-04-10T11:04:06.000Z</time>
      </trkpt>
      <trkpt lat="43.26328" lon="6.26802">
        <ele>565</ele>
        <time>2019-04-10T11:04:08.000Z</time>
      </trkpt>
      <trkpt lat="43.26328" lon="6.26802">
        <ele>565</ele>
        <time>2019-04-10T11:04:10.000Z</time>
      </trkpt>
      <trkpt lat="43.26328" lon="6.26802">
        <ele>565</ele>
        <time>2019-04-10T11:04:12.000Z</time>
      </trkpt>
      <trkpt lat="43.26328" lon="6.26802">
        <ele>565</ele>
        <time>2019-04-10T11:04:14.000Z</time>
      </trkpt>
      <trkpt lat="43.2635" lon="6.26669">
        <ele>570</ele>
        <time>2019-04-10T11:04:16.000Z</time>
      </trkpt>
      <trkpt lat="43.26354" lon="6.26652">
        <ele>568</ele>
        <time>2019-04-10T11:04:20.000Z</time>
      </trkpt>
      <trkpt lat="43.26354" lon="6.26635">
        <ele>570</ele>
        <time>2019-04-10T11:04:24.000Z</time>
      </trkpt>
      <trkpt lat="43.26355" lon="6.26622">
        <ele>569</ele>
        <time>2019-04-10T11:04:27.000Z</time>
      </trkpt>
      <trkpt lat="43.26352" lon="6.26602">
        <ele>569</ele>
        <time>2019-04-10T11:04:30.000Z</time>
      </trkpt>
      <trkpt lat="43.26349" lon="6.2658">
        <ele>569</ele>
        <time>2019-04-10T11:04:34.000Z</time>
      </trkpt>
      <trkpt lat="43.26349" lon="6.2658">
        <ele>569</ele>
        <time>2019-04-10T11:04:36.000Z</time>
      </trkpt>
      <trkpt lat="43.26349" lon="6.26557">
        <ele>570</ele>
        <time>2019-04-10T11:04:38.000Z</time>
      </trkpt>
      <trkpt lat="43.26349" lon="6.26557">
        <ele>570</ele>
        <time>2019-04-10T11:04:40.000Z</time>
      </trkpt>
      <trkpt lat="43.26349" lon="6.26557">
        <ele>570</ele>
        <time>2019-04-10T11:04:42.000Z</time>
      </trkpt>
      <trkpt lat="43.26349" lon="6.26557">
        <ele>570</ele>
        <time>2019-04-10T11:04:44.000Z</time>
      </trkpt>
      <trkpt lat="43.26349" lon="6.26557">
        <ele>570</ele>
        <time>2019-04-10T11:04:46.000Z</time>
      </trkpt>
      <trkpt lat="43.26349" lon="6.26557">
        <ele>570</ele>
        <time>2019-04-10T11:04:48.000Z</time>
      </trkpt>
      <trkpt lat="43.26354" lon="6.26488">
        <ele>569</ele>
        <time>2019-04-10T11:04:52.000Z</time>
      </trkpt>
      <trkpt lat="43.26355" lon="6.26469">
        <ele>572</ele>
        <time>2019-04-10T11:04:56.000Z</time>
      </trkpt>
      <trkpt lat="43.26351" lon="6.26445">
        <ele>572</ele>
        <time>2019-04-10T11:05:00.000Z</time>
      </trkpt>
      <trkpt lat="43.26351" lon="6.26445">
        <ele>572</ele>
        <time>2019-04-10T11:05:02.000Z</time>
      </trkpt>
      <trkpt lat="43.26351" lon="6.26445">
        <ele>572</ele>
        <time>2019-04-10T11:05:04.000Z</time>
      </trkpt>
      <trkpt lat="43.26351" lon="6.26445">
        <ele>572</ele>
        <time>2019-04-10T11:05:06.000Z</time>
      </trkpt>
      <trkpt lat="43.26346" lon="6.26419">
        <ele>574</ele>
        <time>2019-04-10T11:05:10.000Z</time>
      </trkpt>
      <trkpt lat="43.26342" lon="6.26401">
        <ele>575</ele>
        <time>2019-04-10T11:05:12.000Z</time>
      </trkpt>
      <trkpt lat="43.26339" lon="6.26386">
        <ele>575</ele>
        <time>2019-04-10T11:05:14.000Z</time>
      </trkpt>
      <trkpt lat="43.26336" lon="6.26373">
        <ele>577</ele>
        <time>2019-04-10T11:05:16.000Z</time>
      </trkpt>
      <trkpt lat="43.26333" lon="6.2636">
        <ele>577</ele>
        <time>2019-04-10T11:05:18.000Z</time>
      </trkpt>
      <trkpt lat="43.26333" lon="6.2636">
        <ele>577</ele>
        <time>2019-04-10T11:05:20.000Z</time>
      </trkpt>
      <trkpt lat="43.26333" lon="6.2636">
        <ele>577</ele>
        <time>2019-04-10T11:05:22.000Z</time>
      </trkpt>
      <trkpt lat="43.26333" lon="6.2636">
        <ele>577</ele>
        <time>2019-04-10T11:05:24.000Z</time>
      </trkpt>
      <trkpt lat="43.26333" lon="6.2636">
        <ele>577</ele>
        <time>2019-04-10T11:05:26.000Z</time>
      </trkpt>
      <trkpt lat="43.26354" lon="6.26313">
        <ele>576</ele>
        <time>2019-04-10T11:05:32.000Z</time>
      </trkpt>
      <trkpt lat="43.26362" lon="6.26308">
        <ele>574</ele>
        <time>2019-04-10T11:05:34.000Z</time>
      </trkpt>
      <trkpt lat="43.26372" lon="6.26299">
        <ele>570</ele>
        <time>2019-04-10T11:05:36.000Z</time>
      </trkpt>
      <trkpt lat="43.26382" lon="6.26292">
        <ele>569</ele>
        <time>2019-04-10T11:05:38.000Z</time>
      </trkpt>
      <trkpt lat="43.26392" lon="6.26284">
        <ele>568</ele>
        <time>2019-04-10T11:05:40.000Z</time>
      </trkpt>
      <trkpt lat="43.26402" lon="6.26276">
        <ele>568</ele>
        <time>2019-04-10T11:05:42.000Z</time>
      </trkpt>
      <trkpt lat="43.26413" lon="6.26264">
        <ele>565</ele>
        <time>2019-04-10T11:05:44.000Z</time>
      </trkpt>
      <trkpt lat="43.26423" lon="6.26252">
        <ele>563</ele>
        <time>2019-04-10T11:05:46.000Z</time>
      </trkpt>
      <trkpt lat="43.26434" lon="6.26242">
        <ele>561</ele>
        <time>2019-04-10T11:05:48.000Z</time>
      </trkpt>
      <trkpt lat="43.26445" lon="6.26228">
        <ele>559</ele>
        <time>2019-04-10T11:05:50.000Z</time>
      </trkpt>
      <trkpt lat="43.26457" lon="6.26214">
        <ele>558</ele>
        <time>2019-04-10T11:05:52.000Z</time>
      </trkpt>
      <trkpt lat="43.26466" lon="6.26198">
        <ele>557</ele>
        <time>2019-04-10T11:05:54.000Z</time>
      </trkpt>
      <trkpt lat="43.26474" lon="6.26178">
        <ele>556</ele>
        <time>2019-04-10T11:05:56.000Z</time>
      </trkpt>
      <trkpt lat="43.26478" lon="6.26157">
        <ele>555</ele>
        <time>2019-04-10T11:05:58.000Z</time>
      </trkpt>
      <trkpt lat="43.26479" lon="6.26134">
        <ele>554</ele>
        <time>2019-04-10T11:06:00.000Z</time>
      </trkpt>
      <trkpt lat="43.26479" lon="6.26111">
        <ele>552</ele>
        <time>2019-04-10T11:06:02.000Z</time>
      </trkpt>
      <trkpt lat="43.26475" lon="6.26089">
        <ele>550</ele>
        <time>2019-04-10T11:06:04.000Z</time>
      </trkpt>
      <trkpt lat="43.26473" lon="6.26065">
        <ele>549</ele>
        <time>2019-04-10T11:06:06.000Z</time>
      </trkpt>
      <trkpt lat="43.26473" lon="6.26041">
        <ele>548</ele>
        <time>2019-04-10T11:06:08.000Z</time>
      </trkpt>
      <trkpt lat="43.26477" lon="6.26017">
        <ele>547</ele>
        <time>2019-04-10T11:06:10.000Z</time>
      </trkpt>
      <trkpt lat="43.26479" lon="6.25996">
        <ele>547</ele>
        <time>2019-04-10T11:06:12.000Z</time>
      </trkpt>
      <trkpt lat="43.26473" lon="6.25976">
        <ele>545</ele>
        <time>2019-04-10T11:06:14.000Z</time>
      </trkpt>
      <trkpt lat="43.26468" lon="6.25956">
        <ele>543</ele>
        <time>2019-04-10T11:06:16.000Z</time>
      </trkpt>
      <trkpt lat="43.2646" lon="6.25935">
        <ele>541</ele>
        <time>2019-04-10T11:06:18.000Z</time>
      </trkpt>
      <trkpt lat="43.26454" lon="6.25913">
        <ele>540</ele>
        <time>2019-04-10T11:06:20.000Z</time>
      </trkpt>
      <trkpt lat="43.26446" lon="6.25894">
        <ele>540</ele>
        <time>2019-04-10T11:06:22.000Z</time>
      </trkpt>
      <trkpt lat="43.26437" lon="6.25875">
        <ele>539</ele>
        <time>2019-04-10T11:06:24.000Z</time>
      </trkpt>
      <trkpt lat="43.26423" lon="6.25848">
        <ele>535</ele>
        <time>2019-04-10T11:06:27.000Z</time>
      </trkpt>
      <trkpt lat="43.26417" lon="6.25834">
        <ele>533</ele>
        <time>2019-04-10T11:06:28.000Z</time>
      </trkpt>
      <trkpt lat="43.26411" lon="6.25813">
        <ele>531</ele>
        <time>2019-04-10T11:06:30.000Z</time>
      </trkpt>
      <trkpt lat="43.26408" lon="6.25791">
        <ele>530</ele>
        <time>2019-04-10T11:06:32.000Z</time>
      </trkpt>
      <trkpt lat="43.26408" lon="6.25773">
        <ele>530</ele>
        <time>2019-04-10T11:06:34.000Z</time>
      </trkpt>
      <trkpt lat="43.26411" lon="6.25757">
        <ele>529</ele>
        <time>2019-04-10T11:06:36.000Z</time>
      </trkpt>
      <trkpt lat="43.26414" lon="6.25742">
        <ele>530</ele>
        <time>2019-04-10T11:06:38.000Z</time>
      </trkpt>
      <trkpt lat="43.26418" lon="6.25727">
        <ele>530</ele>
        <time>2019-04-10T11:06:40.000Z</time>
      </trkpt>
      <trkpt lat="43.26423" lon="6.25714">
        <ele>531</ele>
        <time>2019-04-10T11:06:42.000Z</time>
      </trkpt>
      <trkpt lat="43.26428" lon="6.25703">
        <ele>531</ele>
        <time>2019-04-10T11:06:44.000Z</time>
      </trkpt>
      <trkpt lat="43.26428" lon="6.25703">
        <ele>531</ele>
        <time>2019-04-10T11:06:46.000Z</time>
      </trkpt>
      <trkpt lat="43.26428" lon="6.25703">
        <ele>531</ele>
        <time>2019-04-10T11:06:48.000Z</time>
      </trkpt>
      <trkpt lat="43.26428" lon="6.25703">
        <ele>531</ele>
        <time>2019-04-10T11:06:50.000Z</time>
      </trkpt>
      <trkpt lat="43.26428" lon="6.25703">
        <ele>531</ele>
        <time>2019-04-10T11:06:52.000Z</time>
      </trkpt>
      <trkpt lat="43.26428" lon="6.25703">
        <ele>531</ele>
        <time>2019-04-10T11:06:54.000Z</time>
      </trkpt>
      <trkpt lat="43.26428" lon="6.25703">
        <ele>531</ele>
        <time>2019-04-10T11:06:56.000Z</time>
      </trkpt>
      <trkpt lat="43.26428" lon="6.25703">
        <ele>531</ele>
        <time>2019-04-10T11:06:58.000Z</time>
      </trkpt>
      <trkpt lat="43.26483" lon="6.25662">
        <ele>538</ele>
        <time>2019-04-10T11:07:04.000Z</time>
      </trkpt>
      <trkpt lat="43.26494" lon="6.25657">
        <ele>537</ele>
        <time>2019-04-10T11:07:08.000Z</time>
      </trkpt>
      <trkpt lat="43.26494" lon="6.25657">
        <ele>537</ele>
        <time>2019-04-10T11:07:10.000Z</time>
      </trkpt>
      <trkpt lat="43.26494" lon="6.25657">
        <ele>537</ele>
        <time>2019-04-10T11:07:12.000Z</time>
      </trkpt>
      <trkpt lat="43.26494" lon="6.25657">
        <ele>537</ele>
        <time>2019-04-10T11:07:14.000Z</time>
      </trkpt>
      <trkpt lat="43.26494" lon="6.25657">
        <ele>537</ele>
        <time>2019-04-10T11:07:16.000Z</time>
      </trkpt>
      <trkpt lat="43.26494" lon="6.25657">
        <ele>537</ele>
        <time>2019-04-10T11:07:18.000Z</time>
      </trkpt>
      <trkpt lat="43.26494" lon="6.25657">
        <ele>537</ele>
        <time>2019-04-10T11:07:20.000Z</time>
      </trkpt>
      <trkpt lat="43.26494" lon="6.25657">
        <ele>537</ele>
        <time>2019-04-10T11:07:22.000Z</time>
      </trkpt>
      <trkpt lat="43.26494" lon="6.25657">
        <ele>537</ele>
        <time>2019-04-10T11:07:24.000Z</time>
      </trkpt>
      <trkpt lat="43.26534" lon="6.25631">
        <ele>543</ele>
        <time>2019-04-10T11:07:26.000Z</time>
      </trkpt>
      <trkpt lat="43.26543" lon="6.25623">
        <ele>544</ele>
        <time>2019-04-10T11:07:30.000Z</time>
      </trkpt>
      <trkpt lat="43.26543" lon="6.25623">
        <ele>544</ele>
        <time>2019-04-10T11:07:32.000Z</time>
      </trkpt>
      <trkpt lat="43.26543" lon="6.25623">
        <ele>544</ele>
        <time>2019-04-10T11:07:34.000Z</time>
      </trkpt>
      <trkpt lat="43.26543" lon="6.25623">
        <ele>544</ele>
        <time>2019-04-10T11:07:36.000Z</time>
      </trkpt>
      <trkpt lat="43.26553" lon="6.25612">
        <ele>545</ele>
        <time>2019-04-10T11:07:42.000Z</time>
      </trkpt>
      <trkpt lat="43.2656" lon="6.25604">
        <ele>545</ele>
        <time>2019-04-10T11:07:44.000Z</time>
      </trkpt>
      <trkpt lat="43.26566" lon="6.25595">
        <ele>543</ele>
        <time>2019-04-10T11:07:46.000Z</time>
      </trkpt>
      <trkpt lat="43.2657" lon="6.25586">
        <ele>544</ele>
        <time>2019-04-10T11:07:48.000Z</time>
      </trkpt>
      <trkpt lat="43.26572" lon="6.25578">
        <ele>544</ele>
        <time>2019-04-10T11:07:50.000Z</time>
      </trkpt>
      <trkpt lat="43.26579" lon="6.25563">
        <ele>545</ele>
        <time>2019-04-10T11:07:52.000Z</time>
      </trkpt>
      <trkpt lat="43.26583" lon="6.25549">
        <ele>547</ele>
        <time>2019-04-10T11:07:56.000Z</time>
      </trkpt>
      <trkpt lat="43.26583" lon="6.25549">
        <ele>547</ele>
        <time>2019-04-10T11:07:58.000Z</time>
      </trkpt>
      <trkpt lat="43.26583" lon="6.25549">
        <ele>547</ele>
        <time>2019-04-10T11:08:00.000Z</time>
      </trkpt>
      <trkpt lat="43.26583" lon="6.25549">
        <ele>547</ele>
        <time>2019-04-10T11:08:02.000Z</time>
      </trkpt>
      <trkpt lat="43.26583" lon="6.25549">
        <ele>547</ele>
        <time>2019-04-10T11:08:08.000Z</time>
      </trkpt>
      <trkpt lat="43.26583" lon="6.25549">
        <ele>547</ele>
        <time>2019-04-10T11:08:10.000Z</time>
      </trkpt>
      <trkpt lat="43.26583" lon="6.25549">
        <ele>547</ele>
        <time>2019-04-10T11:08:12.000Z</time>
      </trkpt>
      <trkpt lat="43.26583" lon="6.25549">
        <ele>547</ele>
        <time>2019-04-10T11:08:14.000Z</time>
      </trkpt>
      <trkpt lat="43.26608" lon="6.25476">
        <ele>554</ele>
        <time>2019-04-10T11:08:20.000Z</time>
      </trkpt>
      <trkpt lat="43.26612" lon="6.25465">
        <ele>554</ele>
        <time>2019-04-10T11:08:24.000Z</time>
      </trkpt>
      <trkpt lat="43.26619" lon="6.25454">
        <ele>553</ele>
        <time>2019-04-10T11:08:28.000Z</time>
      </trkpt>
      <trkpt lat="43.26619" lon="6.25454">
        <ele>553</ele>
        <time>2019-04-10T11:08:32.000Z</time>
      </trkpt>
      <trkpt lat="43.26626" lon="6.25437">
        <ele>551</ele>
        <time>2019-04-10T11:08:34.000Z</time>
      </trkpt>
      <trkpt lat="43.26633" lon="6.25427">
        <ele>551</ele>
        <time>2019-04-10T11:08:38.000Z</time>
      </trkpt>
      <trkpt lat="43.26633" lon="6.25427">
        <ele>551</ele>
        <time>2019-04-10T11:08:40.000Z</time>
      </trkpt>
      <trkpt lat="43.26633" lon="6.25427">
        <ele>551</ele>
        <time>2019-04-10T11:08:42.000Z</time>
      </trkpt>
      <trkpt lat="43.26633" lon="6.25427">
        <ele>551</ele>
        <time>2019-04-10T11:08:44.000Z</time>
      </trkpt>
      <trkpt lat="43.26633" lon="6.25427">
        <ele>551</ele>
        <time>2019-04-10T11:08:46.000Z</time>
      </trkpt>
      <trkpt lat="43.26655" lon="6.25403">
        <ele>554</ele>
        <time>2019-04-10T11:08:50.000Z</time>
      </trkpt>
      <trkpt lat="43.26655" lon="6.25403">
        <ele>554</ele>
        <time>2019-04-10T11:08:52.000Z</time>
      </trkpt>
      <trkpt lat="43.26663" lon="6.25395">
        <ele>553</ele>
        <time>2019-04-10T11:08:54.000Z</time>
      </trkpt>
      <trkpt lat="43.26663" lon="6.25395">
        <ele>553</ele>
        <time>2019-04-10T11:08:56.000Z</time>
      </trkpt>
      <trkpt lat="43.26674" lon="6.25389">
        <ele>554</ele>
        <time>2019-04-10T11:08:58.000Z</time>
      </trkpt>
      <trkpt lat="43.26683" lon="6.25386">
        <ele>555</ele>
        <time>2019-04-10T11:09:00.000Z</time>
      </trkpt>
      <trkpt lat="43.26698" lon="6.25387">
        <ele>554</ele>
        <time>2019-04-10T11:09:04.000Z</time>
      </trkpt>
      <trkpt lat="43.26714" lon="6.25383">
        <ele>553</ele>
        <time>2019-04-10T11:09:08.000Z</time>
      </trkpt>
      <trkpt lat="43.2673" lon="6.25387">
        <ele>552</ele>
        <time>2019-04-10T11:09:12.000Z</time>
      </trkpt>
      <trkpt lat="43.2673" lon="6.25387">
        <ele>552</ele>
        <time>2019-04-10T11:09:14.000Z</time>
      </trkpt>
      <trkpt lat="43.26745" lon="6.25387">
        <ele>550</ele>
        <time>2019-04-10T11:09:16.000Z</time>
      </trkpt>
      <trkpt lat="43.26745" lon="6.25387">
        <ele>550</ele>
        <time>2019-04-10T11:09:24.000Z</time>
      </trkpt>
      <trkpt lat="43.26745" lon="6.25387">
        <ele>550</ele>
        <time>2019-04-10T11:09:26.000Z</time>
      </trkpt>
      <trkpt lat="43.26768" lon="6.25399">
        <ele>553</ele>
        <time>2019-04-10T11:09:30.000Z</time>
      </trkpt>
      <trkpt lat="43.26783" lon="6.25408">
        <ele>552</ele>
        <time>2019-04-10T11:09:32.000Z</time>
      </trkpt>
      <trkpt lat="43.26795" lon="6.25415">
        <ele>551</ele>
        <time>2019-04-10T11:09:34.000Z</time>
      </trkpt>
      <trkpt lat="43.26805" lon="6.25423">
        <ele>552</ele>
        <time>2019-04-10T11:09:36.000Z</time>
      </trkpt>
      <trkpt lat="43.26813" lon="6.2543">
        <ele>550</ele>
        <time>2019-04-10T11:09:38.000Z</time>
      </trkpt>
      <trkpt lat="43.2683" lon="6.25444">
        <ele>549</ele>
        <time>2019-04-10T11:09:40.000Z</time>
      </trkpt>
      <trkpt lat="43.2683" lon="6.25444">
        <ele>549</ele>
        <time>2019-04-10T11:09:42.000Z</time>
      </trkpt>
      <trkpt lat="43.26854" lon="6.2547">
        <ele>548</ele>
        <time>2019-04-10T11:09:46.000Z</time>
      </trkpt>
      <trkpt lat="43.26863" lon="6.25479">
        <ele>549</ele>
        <time>2019-04-10T11:09:48.000Z</time>
      </trkpt>
      <trkpt lat="43.26873" lon="6.25488">
        <ele>549</ele>
        <time>2019-04-10T11:09:50.000Z</time>
      </trkpt>
      <trkpt lat="43.26884" lon="6.25497">
        <ele>549</ele>
        <time>2019-04-10T11:09:52.000Z</time>
      </trkpt>
      <trkpt lat="43.26897" lon="6.25507">
        <ele>547</ele>
        <time>2019-04-10T11:09:54.000Z</time>
      </trkpt>
      <trkpt lat="43.2691" lon="6.25513">
        <ele>546</ele>
        <time>2019-04-10T11:09:56.000Z</time>
      </trkpt>
      <trkpt lat="43.2692" lon="6.25509">
        <ele>546</ele>
        <time>2019-04-10T11:09:58.000Z</time>
      </trkpt>
      <trkpt lat="43.2692" lon="6.25509">
        <ele>546</ele>
        <time>2019-04-10T11:10:00.000Z</time>
      </trkpt>
      <trkpt lat="43.2692" lon="6.25509">
        <ele>546</ele>
        <time>2019-04-10T11:10:02.000Z</time>
      </trkpt>
      <trkpt lat="43.2692" lon="6.25509">
        <ele>546</ele>
        <time>2019-04-10T11:10:04.000Z</time>
      </trkpt>
      <trkpt lat="43.26942" lon="6.25532">
        <ele>540</ele>
        <time>2019-04-10T11:10:06.000Z</time>
      </trkpt>
      <trkpt lat="43.26951" lon="6.25551">
        <ele>538</ele>
        <time>2019-04-10T11:10:08.000Z</time>
      </trkpt>
      <trkpt lat="43.26961" lon="6.25569">
        <ele>535</ele>
        <time>2019-04-10T11:10:10.000Z</time>
      </trkpt>
      <trkpt lat="43.26968" lon="6.25592">
        <ele>534</ele>
        <time>2019-04-10T11:10:12.000Z</time>
      </trkpt>
      <trkpt lat="43.26981" lon="6.25616">
        <ele>532</ele>
        <time>2019-04-10T11:10:14.000Z</time>
      </trkpt>
      <trkpt lat="43.26992" lon="6.25636">
        <ele>530</ele>
        <time>2019-04-10T11:10:16.000Z</time>
      </trkpt>
      <trkpt lat="43.27006" lon="6.25653">
        <ele>530</ele>
        <time>2019-04-10T11:10:18.000Z</time>
      </trkpt>
      <trkpt lat="43.27019" lon="6.25671">
        <ele>529</ele>
        <time>2019-04-10T11:10:20.000Z</time>
      </trkpt>
      <trkpt lat="43.27031" lon="6.25686">
        <ele>530</ele>
        <time>2019-04-10T11:10:22.000Z</time>
      </trkpt>
      <trkpt lat="43.27045" lon="6.25699">
        <ele>528</ele>
        <time>2019-04-10T11:10:24.000Z</time>
      </trkpt>
      <trkpt lat="43.27061" lon="6.25716">
        <ele>526</ele>
        <time>2019-04-10T11:10:27.000Z</time>
      </trkpt>
      <trkpt lat="43.27066" lon="6.25727">
        <ele>525</ele>
        <time>2019-04-10T11:10:28.000Z</time>
      </trkpt>
      <trkpt lat="43.27077" lon="6.25747">
        <ele>523</ele>
        <time>2019-04-10T11:10:30.000Z</time>
      </trkpt>
      <trkpt lat="43.27094" lon="6.25763">
        <ele>524</ele>
        <time>2019-04-10T11:10:32.000Z</time>
      </trkpt>
      <trkpt lat="43.2711" lon="6.25771">
        <ele>523</ele>
        <time>2019-04-10T11:10:34.000Z</time>
      </trkpt>
      <trkpt lat="43.27127" lon="6.25778">
        <ele>522</ele>
        <time>2019-04-10T11:10:36.000Z</time>
      </trkpt>
      <trkpt lat="43.27145" lon="6.25783">
        <ele>520</ele>
        <time>2019-04-10T11:10:38.000Z</time>
      </trkpt>
      <trkpt lat="43.27164" lon="6.2579">
        <ele>517</ele>
        <time>2019-04-10T11:10:40.000Z</time>
      </trkpt>
      <trkpt lat="43.27185" lon="6.25797">
        <ele>515</ele>
        <time>2019-04-10T11:10:42.000Z</time>
      </trkpt>
      <trkpt lat="43.27202" lon="6.25806">
        <ele>513</ele>
        <time>2019-04-10T11:10:44.000Z</time>
      </trkpt>
      <trkpt lat="43.27221" lon="6.25813">
        <ele>512</ele>
        <time>2019-04-10T11:10:46.000Z</time>
      </trkpt>
      <trkpt lat="43.27238" lon="6.25817">
        <ele>511</ele>
        <time>2019-04-10T11:10:48.000Z</time>
      </trkpt>
      <trkpt lat="43.27258" lon="6.25818">
        <ele>509</ele>
        <time>2019-04-10T11:10:50.000Z</time>
      </trkpt>
      <trkpt lat="43.27275" lon="6.25823">
        <ele>510</ele>
        <time>2019-04-10T11:10:52.000Z</time>
      </trkpt>
      <trkpt lat="43.27291" lon="6.25824">
        <ele>509</ele>
        <time>2019-04-10T11:10:54.000Z</time>
      </trkpt>
      <trkpt lat="43.2731" lon="6.25819">
        <ele>505</ele>
        <time>2019-04-10T11:10:56.000Z</time>
      </trkpt>
      <trkpt lat="43.27327" lon="6.25815">
        <ele>502</ele>
        <time>2019-04-10T11:10:58.000Z</time>
      </trkpt>
      <trkpt lat="43.27343" lon="6.25814">
        <ele>500</ele>
        <time>2019-04-10T11:11:00.000Z</time>
      </trkpt>
      <trkpt lat="43.27361" lon="6.25809">
        <ele>498</ele>
        <time>2019-04-10T11:11:02.000Z</time>
      </trkpt>
      <trkpt lat="43.27377" lon="6.25798">
        <ele>495</ele>
        <time>2019-04-10T11:11:04.000Z</time>
      </trkpt>
      <trkpt lat="43.27393" lon="6.25783">
        <ele>493</ele>
        <time>2019-04-10T11:11:06.000Z</time>
      </trkpt>
      <trkpt lat="43.27407" lon="6.25774">
        <ele>491</ele>
        <time>2019-04-10T11:11:08.000Z</time>
      </trkpt>
      <trkpt lat="43.27423" lon="6.25773">
        <ele>489</ele>
        <time>2019-04-10T11:11:10.000Z</time>
      </trkpt>
      <trkpt lat="43.2744" lon="6.25777">
        <ele>487</ele>
        <time>2019-04-10T11:11:12.000Z</time>
      </trkpt>
      <trkpt lat="43.27459" lon="6.25783">
        <ele>486</ele>
        <time>2019-04-10T11:11:14.000Z</time>
      </trkpt>
      <trkpt lat="43.27479" lon="6.25788">
        <ele>483</ele>
        <time>2019-04-10T11:11:16.000Z</time>
      </trkpt>
      <trkpt lat="43.27498" lon="6.25792">
        <ele>480</ele>
        <time>2019-04-10T11:11:18.000Z</time>
      </trkpt>
      <trkpt lat="43.27515" lon="6.258">
        <ele>478</ele>
        <time>2019-04-10T11:11:20.000Z</time>
      </trkpt>
      <trkpt lat="43.27531" lon="6.25812">
        <ele>475</ele>
        <time>2019-04-10T11:11:22.000Z</time>
      </trkpt>
      <trkpt lat="43.27546" lon="6.25822">
        <ele>472</ele>
        <time>2019-04-10T11:11:24.000Z</time>
      </trkpt>
      <trkpt lat="43.27562" lon="6.25832">
        <ele>471</ele>
        <time>2019-04-10T11:11:26.000Z</time>
      </trkpt>
      <trkpt lat="43.27579" lon="6.25836">
        <ele>469</ele>
        <time>2019-04-10T11:11:28.000Z</time>
      </trkpt>
      <trkpt lat="43.27597" lon="6.25836">
        <ele>469</ele>
        <time>2019-04-10T11:11:30.000Z</time>
      </trkpt>
      <trkpt lat="43.27614" lon="6.25832">
        <ele>468</ele>
        <time>2019-04-10T11:11:32.000Z</time>
      </trkpt>
      <trkpt lat="43.27632" lon="6.25826">
        <ele>467</ele>
        <time>2019-04-10T11:11:34.000Z</time>
      </trkpt>
      <trkpt lat="43.27649" lon="6.25822">
        <ele>466</ele>
        <time>2019-04-10T11:11:36.000Z</time>
      </trkpt>
      <trkpt lat="43.27668" lon="6.25823">
        <ele>464</ele>
        <time>2019-04-10T11:11:38.000Z</time>
      </trkpt>
      <trkpt lat="43.27686" lon="6.25828">
        <ele>462</ele>
        <time>2019-04-10T11:11:40.000Z</time>
      </trkpt>
      <trkpt lat="43.27703" lon="6.25835">
        <ele>461</ele>
        <time>2019-04-10T11:11:42.000Z</time>
      </trkpt>
      <trkpt lat="43.27719" lon="6.25843">
        <ele>461</ele>
        <time>2019-04-10T11:11:44.000Z</time>
      </trkpt>
      <trkpt lat="43.27732" lon="6.25849">
        <ele>459</ele>
        <time>2019-04-10T11:11:46.000Z</time>
      </trkpt>
      <trkpt lat="43.27741" lon="6.25856">
        <ele>458</ele>
        <time>2019-04-10T11:11:48.000Z</time>
      </trkpt>
      <trkpt lat="43.27754" lon="6.25854">
        <ele>457</ele>
        <time>2019-04-10T11:11:50.000Z</time>
      </trkpt>
      <trkpt lat="43.27766" lon="6.25846">
        <ele>456</ele>
        <time>2019-04-10T11:11:52.000Z</time>
      </trkpt>
      <trkpt lat="43.27777" lon="6.25836">
        <ele>455</ele>
        <time>2019-04-10T11:11:54.000Z</time>
      </trkpt>
      <trkpt lat="43.27789" lon="6.25821">
        <ele>453</ele>
        <time>2019-04-10T11:11:56.000Z</time>
      </trkpt>
      <trkpt lat="43.278" lon="6.25807">
        <ele>451</ele>
        <time>2019-04-10T11:11:58.000Z</time>
      </trkpt>
      <trkpt lat="43.27813" lon="6.25794">
        <ele>452</ele>
        <time>2019-04-10T11:12:00.000Z</time>
      </trkpt>
      <trkpt lat="43.27827" lon="6.25786">
        <ele>449</ele>
        <time>2019-04-10T11:12:02.000Z</time>
      </trkpt>
      <trkpt lat="43.27843" lon="6.25775">
        <ele>447</ele>
        <time>2019-04-10T11:12:04.000Z</time>
      </trkpt>
      <trkpt lat="43.27858" lon="6.25765">
        <ele>446</ele>
        <time>2019-04-10T11:12:06.000Z</time>
      </trkpt>
      <trkpt lat="43.27873" lon="6.25752">
        <ele>445</ele>
        <time>2019-04-10T11:12:08.000Z</time>
      </trkpt>
      <trkpt lat="43.27885" lon="6.25735">
        <ele>444</ele>
        <time>2019-04-10T11:12:10.000Z</time>
      </trkpt>
      <trkpt lat="43.27887" lon="6.25713">
        <ele>442</ele>
        <time>2019-04-10T11:12:12.000Z</time>
      </trkpt>
      <trkpt lat="43.27879" lon="6.25693">
        <ele>443</ele>
        <time>2019-04-10T11:12:14.000Z</time>
      </trkpt>
      <trkpt lat="43.27868" lon="6.25682">
        <ele>442</ele>
        <time>2019-04-10T11:12:16.000Z</time>
      </trkpt>
      <trkpt lat="43.27868" lon="6.25682">
        <ele>442</ele>
        <time>2019-04-10T11:12:19.000Z</time>
      </trkpt>
      <trkpt lat="43.27868" lon="6.25682">
        <ele>442</ele>
        <time>2019-04-10T11:12:21.000Z</time>
      </trkpt>
      <trkpt lat="43.27868" lon="6.25682">
        <ele>442</ele>
        <time>2019-04-10T11:12:23.000Z</time>
      </trkpt>
      <trkpt lat="43.27882" lon="6.25679">
        <ele>440</ele>
        <time>2019-04-10T11:12:25.000Z</time>
      </trkpt>
      <trkpt lat="43.27892" lon="6.25684">
        <ele>440</ele>
        <time>2019-04-10T11:12:27.000Z</time>
      </trkpt>
      <trkpt lat="43.27911" lon="6.25698">
        <ele>439</ele>
        <time>2019-04-10T11:12:30.000Z</time>
      </trkpt>
      <trkpt lat="43.27921" lon="6.25702">
        <ele>438</ele>
        <time>2019-04-10T11:12:32.000Z</time>
      </trkpt>
      <trkpt lat="43.27921" lon="6.25702">
        <ele>438</ele>
        <time>2019-04-10T11:12:35.000Z</time>
      </trkpt>
      <trkpt lat="43.27921" lon="6.25702">
        <ele>438</ele>
        <time>2019-04-10T11:12:37.000Z</time>
      </trkpt>
      <trkpt lat="43.2793" lon="6.25739">
        <ele>438</ele>
        <time>2019-04-10T11:12:39.000Z</time>
      </trkpt>
      <trkpt lat="43.27923" lon="6.25759">
        <ele>438</ele>
        <time>2019-04-10T11:12:41.000Z</time>
      </trkpt>
      <trkpt lat="43.27914" lon="6.25774">
        <ele>436</ele>
        <time>2019-04-10T11:12:43.000Z</time>
      </trkpt>
      <trkpt lat="43.27918" lon="6.25785">
        <ele>432</ele>
        <time>2019-04-10T11:12:47.000Z</time>
      </trkpt>
      <trkpt lat="43.27938" lon="6.25765">
        <ele>431</ele>
        <time>2019-04-10T11:12:51.000Z</time>
      </trkpt>
      <trkpt lat="43.27949" lon="6.25752">
        <ele>431</ele>
        <time>2019-04-10T11:12:53.000Z</time>
      </trkpt>
      <trkpt lat="43.27961" lon="6.25739">
        <ele>431</ele>
        <time>2019-04-10T11:12:55.000Z</time>
      </trkpt>
      <trkpt lat="43.27974" lon="6.25722">
        <ele>430</ele>
        <time>2019-04-10T11:12:58.000Z</time>
      </trkpt>
      <trkpt lat="43.27986" lon="6.25706">
        <ele>432</ele>
        <time>2019-04-10T11:12:59.000Z</time>
      </trkpt>
      <trkpt lat="43.27999" lon="6.25691">
        <ele>431</ele>
        <time>2019-04-10T11:13:01.000Z</time>
      </trkpt>
      <trkpt lat="43.28014" lon="6.25674">
        <ele>427</ele>
        <time>2019-04-10T11:13:03.000Z</time>
      </trkpt>
      <trkpt lat="43.28024" lon="6.25661">
        <ele>425</ele>
        <time>2019-04-10T11:13:05.000Z</time>
      </trkpt>
      <trkpt lat="43.2802" lon="6.25644">
        <ele>423</ele>
        <time>2019-04-10T11:13:08.000Z</time>
      </trkpt>
      <trkpt lat="43.28009" lon="6.25641">
        <ele>421</ele>
        <time>2019-04-10T11:13:10.000Z</time>
      </trkpt>
      <trkpt lat="43.27996" lon="6.2564">
        <ele>419</ele>
        <time>2019-04-10T11:13:12.000Z</time>
      </trkpt>
      <trkpt lat="43.27982" lon="6.25636">
        <ele>419</ele>
        <time>2019-04-10T11:13:14.000Z</time>
      </trkpt>
      <trkpt lat="43.27969" lon="6.25626">
        <ele>420</ele>
        <time>2019-04-10T11:13:16.000Z</time>
      </trkpt>
      <trkpt lat="43.27956" lon="6.25614">
        <ele>420</ele>
        <time>2019-04-10T11:13:18.000Z</time>
      </trkpt>
      <trkpt lat="43.27944" lon="6.25605">
        <ele>418</ele>
        <time>2019-04-10T11:13:20.000Z</time>
      </trkpt>
      <trkpt lat="43.27936" lon="6.25599">
        <ele>416</ele>
        <time>2019-04-10T11:13:22.000Z</time>
      </trkpt>
      <trkpt lat="43.27936" lon="6.25599">
        <ele>416</ele>
        <time>2019-04-10T11:13:25.000Z</time>
      </trkpt>
      <trkpt lat="43.2796" lon="6.25602">
        <ele>412</ele>
        <time>2019-04-10T11:13:29.000Z</time>
      </trkpt>
      <trkpt lat="43.27975" lon="6.25604">
        <ele>411</ele>
        <time>2019-04-10T11:13:31.000Z</time>
      </trkpt>
      <trkpt lat="43.27994" lon="6.25604">
        <ele>410</ele>
        <time>2019-04-10T11:13:33.000Z</time>
      </trkpt>
      <trkpt lat="43.2801" lon="6.25596">
        <ele>409</ele>
        <time>2019-04-10T11:13:35.000Z</time>
      </trkpt>
      <trkpt lat="43.28025" lon="6.25586">
        <ele>407</ele>
        <time>2019-04-10T11:13:37.000Z</time>
      </trkpt>
      <trkpt lat="43.28038" lon="6.25566">
        <ele>406</ele>
        <time>2019-04-10T11:13:39.000Z</time>
      </trkpt>
      <trkpt lat="43.28046" lon="6.25543">
        <ele>404</ele>
        <time>2019-04-10T11:13:41.000Z</time>
      </trkpt>
      <trkpt lat="43.28054" lon="6.25522">
        <ele>403</ele>
        <time>2019-04-10T11:13:43.000Z</time>
      </trkpt>
      <trkpt lat="43.28067" lon="6.25504">
        <ele>401</ele>
        <time>2019-04-10T11:13:45.000Z</time>
      </trkpt>
      <trkpt lat="43.28083" lon="6.25491">
        <ele>400</ele>
        <time>2019-04-10T11:13:47.000Z</time>
      </trkpt>
      <trkpt lat="43.28098" lon="6.25484">
        <ele>399</ele>
        <time>2019-04-10T11:13:49.000Z</time>
      </trkpt>
      <trkpt lat="43.28114" lon="6.25484">
        <ele>398</ele>
        <time>2019-04-10T11:13:51.000Z</time>
      </trkpt>
      <trkpt lat="43.28127" lon="6.25489">
        <ele>398</ele>
        <time>2019-04-10T11:13:54.000Z</time>
      </trkpt>
      <trkpt lat="43.28127" lon="6.25489">
        <ele>398</ele>
        <time>2019-04-10T11:13:56.000Z</time>
      </trkpt>
      <trkpt lat="43.28154" lon="6.25532">
        <ele>395</ele>
        <time>2019-04-10T11:14:02.000Z</time>
      </trkpt>
      <trkpt lat="43.2815" lon="6.25544">
        <ele>396</ele>
        <time>2019-04-10T11:14:04.000Z</time>
      </trkpt>
      <trkpt lat="43.28147" lon="6.25556">
        <ele>394</ele>
        <time>2019-04-10T11:14:06.000Z</time>
      </trkpt>
      <trkpt lat="43.28147" lon="6.25556">
        <ele>394</ele>
        <time>2019-04-10T11:14:09.000Z</time>
      </trkpt>
      <trkpt lat="43.28171" lon="6.25539">
        <ele>388</ele>
        <time>2019-04-10T11:14:13.000Z</time>
      </trkpt>
      <trkpt lat="43.28183" lon="6.25534">
        <ele>386</ele>
        <time>2019-04-10T11:14:15.000Z</time>
      </trkpt>
      <trkpt lat="43.28183" lon="6.25534">
        <ele>386</ele>
        <time>2019-04-10T11:14:17.000Z</time>
      </trkpt>
      <trkpt lat="43.28183" lon="6.25534">
        <ele>386</ele>
        <time>2019-04-10T11:14:19.000Z</time>
      </trkpt>
      <trkpt lat="43.28225" lon="6.25542">
        <ele>382</ele>
        <time>2019-04-10T11:14:25.000Z</time>
      </trkpt>
      <trkpt lat="43.28235" lon="6.25546">
        <ele>382</ele>
        <time>2019-04-10T11:14:27.000Z</time>
      </trkpt>
      <trkpt lat="43.28245" lon="6.2555">
        <ele>381</ele>
        <time>2019-04-10T11:14:28.000Z</time>
      </trkpt>
      <trkpt lat="43.28265" lon="6.25562">
        <ele>379</ele>
        <time>2019-04-10T11:14:31.000Z</time>
      </trkpt>
      <trkpt lat="43.28278" lon="6.2557">
        <ele>379</ele>
        <time>2019-04-10T11:14:33.000Z</time>
      </trkpt>
      <trkpt lat="43.28291" lon="6.25579">
        <ele>376</ele>
        <time>2019-04-10T11:14:35.000Z</time>
      </trkpt>
      <trkpt lat="43.28305" lon="6.25586">
        <ele>375</ele>
        <time>2019-04-10T11:14:38.000Z</time>
      </trkpt>
      <trkpt lat="43.28323" lon="6.25583">
        <ele>372</ele>
        <time>2019-04-10T11:14:39.000Z</time>
      </trkpt>
      <trkpt lat="43.28337" lon="6.2557">
        <ele>370</ele>
        <time>2019-04-10T11:14:41.000Z</time>
      </trkpt>
      <trkpt lat="43.28347" lon="6.25553">
        <ele>369</ele>
        <time>2019-04-10T11:14:43.000Z</time>
      </trkpt>
      <trkpt lat="43.28359" lon="6.25533">
        <ele>368</ele>
        <time>2019-04-10T11:14:45.000Z</time>
      </trkpt>
      <trkpt lat="43.28368" lon="6.25517">
        <ele>365</ele>
        <time>2019-04-10T11:14:47.000Z</time>
      </trkpt>
      <trkpt lat="43.28378" lon="6.255">
        <ele>363</ele>
        <time>2019-04-10T11:14:49.000Z</time>
      </trkpt>
      <trkpt lat="43.28391" lon="6.25493">
        <ele>363</ele>
        <time>2019-04-10T11:14:51.000Z</time>
      </trkpt>
      <trkpt lat="43.28408" lon="6.25488">
        <ele>363</ele>
        <time>2019-04-10T11:14:53.000Z</time>
      </trkpt>
      <trkpt lat="43.28424" lon="6.25488">
        <ele>362</ele>
        <time>2019-04-10T11:14:55.000Z</time>
      </trkpt>
      <trkpt lat="43.28441" lon="6.25485">
        <ele>360</ele>
        <time>2019-04-10T11:14:57.000Z</time>
      </trkpt>
      <trkpt lat="43.28458" lon="6.25482">
        <ele>358</ele>
        <time>2019-04-10T11:14:59.000Z</time>
      </trkpt>
      <trkpt lat="43.28476" lon="6.25484">
        <ele>357</ele>
        <time>2019-04-10T11:15:01.000Z</time>
      </trkpt>
      <trkpt lat="43.28494" lon="6.25487">
        <ele>357</ele>
        <time>2019-04-10T11:15:03.000Z</time>
      </trkpt>
      <trkpt lat="43.28511" lon="6.25484">
        <ele>356</ele>
        <time>2019-04-10T11:15:05.000Z</time>
      </trkpt>
      <trkpt lat="43.28527" lon="6.25478">
        <ele>355</ele>
        <time>2019-04-10T11:15:07.000Z</time>
      </trkpt>
      <trkpt lat="43.28544" lon="6.25465">
        <ele>353</ele>
        <time>2019-04-10T11:15:09.000Z</time>
      </trkpt>
      <trkpt lat="43.28558" lon="6.25451">
        <ele>351</ele>
        <time>2019-04-10T11:15:11.000Z</time>
      </trkpt>
      <trkpt lat="43.28572" lon="6.25434">
        <ele>350</ele>
        <time>2019-04-10T11:15:13.000Z</time>
      </trkpt>
      <trkpt lat="43.28587" lon="6.25419">
        <ele>349</ele>
        <time>2019-04-10T11:15:15.000Z</time>
      </trkpt>
      <trkpt lat="43.28603" lon="6.25396">
        <ele>346</ele>
        <time>2019-04-10T11:15:18.000Z</time>
      </trkpt>
      <trkpt lat="43.28612" lon="6.25383">
        <ele>345</ele>
        <time>2019-04-10T11:15:19.000Z</time>
      </trkpt>
      <trkpt lat="43.28623" lon="6.25362">
        <ele>344</ele>
        <time>2019-04-10T11:15:21.000Z</time>
      </trkpt>
      <trkpt lat="43.28633" lon="6.2534">
        <ele>343</ele>
        <time>2019-04-10T11:15:23.000Z</time>
      </trkpt>
      <trkpt lat="43.2863" lon="6.25317">
        <ele>341</ele>
        <time>2019-04-10T11:15:25.000Z</time>
      </trkpt>
      <trkpt lat="43.28619" lon="6.25301">
        <ele>340</ele>
        <time>2019-04-10T11:15:27.000Z</time>
      </trkpt>
      <trkpt lat="43.28607" lon="6.25294">
        <ele>340</ele>
        <time>2019-04-10T11:15:29.000Z</time>
      </trkpt>
      <trkpt lat="43.28607" lon="6.25294">
        <ele>340</ele>
        <time>2019-04-10T11:15:32.000Z</time>
      </trkpt>
      <trkpt lat="43.28607" lon="6.25294">
        <ele>340</ele>
        <time>2019-04-10T11:15:34.000Z</time>
      </trkpt>
      <trkpt lat="43.28626" lon="6.25281">
        <ele>340</ele>
        <time>2019-04-10T11:15:38.000Z</time>
      </trkpt>
      <trkpt lat="43.2864" lon="6.25285">
        <ele>340</ele>
        <time>2019-04-10T11:15:40.000Z</time>
      </trkpt>
      <trkpt lat="43.28654" lon="6.2529">
        <ele>340</ele>
        <time>2019-04-10T11:15:42.000Z</time>
      </trkpt>
      <trkpt lat="43.28666" lon="6.25299">
        <ele>337</ele>
        <time>2019-04-10T11:15:44.000Z</time>
      </trkpt>
      <trkpt lat="43.28671" lon="6.25318">
        <ele>336</ele>
        <time>2019-04-10T11:15:46.000Z</time>
      </trkpt>
      <trkpt lat="43.28668" lon="6.25337">
        <ele>334</ele>
        <time>2019-04-10T11:15:48.000Z</time>
      </trkpt>
      <trkpt lat="43.28667" lon="6.2535">
        <ele>332</ele>
        <time>2019-04-10T11:15:50.000Z</time>
      </trkpt>
      <trkpt lat="43.28667" lon="6.2535">
        <ele>332</ele>
        <time>2019-04-10T11:15:52.000Z</time>
      </trkpt>
      <trkpt lat="43.28687" lon="6.25323">
        <ele>328</ele>
        <time>2019-04-10T11:15:57.000Z</time>
      </trkpt>
      <trkpt lat="43.28698" lon="6.25303">
        <ele>326</ele>
        <time>2019-04-10T11:15:59.000Z</time>
      </trkpt>
      <trkpt lat="43.28711" lon="6.25285">
        <ele>325</ele>
        <time>2019-04-10T11:16:01.000Z</time>
      </trkpt>
      <trkpt lat="43.28722" lon="6.25264">
        <ele>323</ele>
        <time>2019-04-10T11:16:03.000Z</time>
      </trkpt>
      <trkpt lat="43.28734" lon="6.25246">
        <ele>321</ele>
        <time>2019-04-10T11:16:05.000Z</time>
      </trkpt>
      <trkpt lat="43.2875" lon="6.2523">
        <ele>320</ele>
        <time>2019-04-10T11:16:07.000Z</time>
      </trkpt>
      <trkpt lat="43.28766" lon="6.25217">
        <ele>318</ele>
        <time>2019-04-10T11:16:09.000Z</time>
      </trkpt>
      <trkpt lat="43.28782" lon="6.25201">
        <ele>316</ele>
        <time>2019-04-10T11:16:11.000Z</time>
      </trkpt>
      <trkpt lat="43.28791" lon="6.25179">
        <ele>315</ele>
        <time>2019-04-10T11:16:13.000Z</time>
      </trkpt>
      <trkpt lat="43.28798" lon="6.25153">
        <ele>313</ele>
        <time>2019-04-10T11:16:15.000Z</time>
      </trkpt>
      <trkpt lat="43.28804" lon="6.25128">
        <ele>313</ele>
        <time>2019-04-10T11:16:17.000Z</time>
      </trkpt>
      <trkpt lat="43.2881" lon="6.25102">
        <ele>311</ele>
        <time>2019-04-10T11:16:19.000Z</time>
      </trkpt>
      <trkpt lat="43.28814" lon="6.25075">
        <ele>310</ele>
        <time>2019-04-10T11:16:21.000Z</time>
      </trkpt>
      <trkpt lat="43.28814" lon="6.25047">
        <ele>308</ele>
        <time>2019-04-10T11:16:23.000Z</time>
      </trkpt>
      <trkpt lat="43.28809" lon="6.25019">
        <ele>306</ele>
        <time>2019-04-10T11:16:25.000Z</time>
      </trkpt>
      <trkpt lat="43.28798" lon="6.24997">
        <ele>304</ele>
        <time>2019-04-10T11:16:27.000Z</time>
      </trkpt>
      <trkpt lat="43.28785" lon="6.24988">
        <ele>303</ele>
        <time>2019-04-10T11:16:29.000Z</time>
      </trkpt>
      <trkpt lat="43.28774" lon="6.24987">
        <ele>302</ele>
        <time>2019-04-10T11:16:31.000Z</time>
      </trkpt>
      <trkpt lat="43.28774" lon="6.24987">
        <ele>302</ele>
        <time>2019-04-10T11:16:33.000Z</time>
      </trkpt>
      <trkpt lat="43.28784" lon="6.24966">
        <ele>300</ele>
        <time>2019-04-10T11:16:35.000Z</time>
      </trkpt>
      <trkpt lat="43.28798" lon="6.24964">
        <ele>299</ele>
        <time>2019-04-10T11:16:37.000Z</time>
      </trkpt>
      <trkpt lat="43.28813" lon="6.24969">
        <ele>298</ele>
        <time>2019-04-10T11:16:39.000Z</time>
      </trkpt>
      <trkpt lat="43.28827" lon="6.2498">
        <ele>295</ele>
        <time>2019-04-10T11:16:41.000Z</time>
      </trkpt>
      <trkpt lat="43.28839" lon="6.24995">
        <ele>295</ele>
        <time>2019-04-10T11:16:43.000Z</time>
      </trkpt>
      <trkpt lat="43.28848" lon="6.25011">
        <ele>292</ele>
        <time>2019-04-10T11:16:45.000Z</time>
      </trkpt>
      <trkpt lat="43.28857" lon="6.25032">
        <ele>292</ele>
        <time>2019-04-10T11:16:47.000Z</time>
      </trkpt>
      <trkpt lat="43.28864" lon="6.25053">
        <ele>289</ele>
        <time>2019-04-10T11:16:49.000Z</time>
      </trkpt>
      <trkpt lat="43.2887" lon="6.25076">
        <ele>288</ele>
        <time>2019-04-10T11:16:51.000Z</time>
      </trkpt>
      <trkpt lat="43.28875" lon="6.25099">
        <ele>289</ele>
        <time>2019-04-10T11:16:53.000Z</time>
      </trkpt>
      <trkpt lat="43.28875" lon="6.25121">
        <ele>286</ele>
        <time>2019-04-10T11:16:55.000Z</time>
      </trkpt>
      <trkpt lat="43.28881" lon="6.25137">
        <ele>286</ele>
        <time>2019-04-10T11:16:57.000Z</time>
      </trkpt>
      <trkpt lat="43.28893" lon="6.25143">
        <ele>287</ele>
        <time>2019-04-10T11:16:59.000Z</time>
      </trkpt>
      <trkpt lat="43.28902" lon="6.25156">
        <ele>284</ele>
        <time>2019-04-10T11:17:01.000Z</time>
      </trkpt>
      <trkpt lat="43.28907" lon="6.25173">
        <ele>282</ele>
        <time>2019-04-10T11:17:03.000Z</time>
      </trkpt>
      <trkpt lat="43.28907" lon="6.25173">
        <ele>282</ele>
        <time>2019-04-10T11:17:06.000Z</time>
      </trkpt>
      <trkpt lat="43.28907" lon="6.25173">
        <ele>282</ele>
        <time>2019-04-10T11:17:08.000Z</time>
      </trkpt>
      <trkpt lat="43.28917" lon="6.25146">
        <ele>281</ele>
        <time>2019-04-10T11:17:10.000Z</time>
      </trkpt>
      <trkpt lat="43.28909" lon="6.25133">
        <ele>279</ele>
        <time>2019-04-10T11:17:12.000Z</time>
      </trkpt>
      <trkpt lat="43.28902" lon="6.25119">
        <ele>277</ele>
        <time>2019-04-10T11:17:14.000Z</time>
      </trkpt>
      <trkpt lat="43.28904" lon="6.25106">
        <ele>277</ele>
        <time>2019-04-10T11:17:16.000Z</time>
      </trkpt>
      <trkpt lat="43.28904" lon="6.25106">
        <ele>277</ele>
        <time>2019-04-10T11:17:18.000Z</time>
      </trkpt>
      <trkpt lat="43.28909" lon="6.25073">
        <ele>273</ele>
        <time>2019-04-10T11:17:20.000Z</time>
      </trkpt>
      <trkpt lat="43.2891" lon="6.25052">
        <ele>272</ele>
        <time>2019-04-10T11:17:22.000Z</time>
      </trkpt>
      <trkpt lat="43.28911" lon="6.2503">
        <ele>269</ele>
        <time>2019-04-10T11:17:24.000Z</time>
      </trkpt>
      <trkpt lat="43.28908" lon="6.25009">
        <ele>267</ele>
        <time>2019-04-10T11:17:26.000Z</time>
      </trkpt>
      <trkpt lat="43.28906" lon="6.24994">
        <ele>266</ele>
        <time>2019-04-10T11:17:28.000Z</time>
      </trkpt>
      <trkpt lat="43.28906" lon="6.24994">
        <ele>266</ele>
        <time>2019-04-10T11:17:31.000Z</time>
      </trkpt>
      <trkpt lat="43.28906" lon="6.24994">
        <ele>266</ele>
        <time>2019-04-10T11:17:33.000Z</time>
      </trkpt>
      <trkpt lat="43.28906" lon="6.24994">
        <ele>266</ele>
        <time>2019-04-10T11:17:35.000Z</time>
      </trkpt>
      <trkpt lat="43.28906" lon="6.24994">
        <ele>266</ele>
        <time>2019-04-10T11:17:37.000Z</time>
      </trkpt>
      <trkpt lat="43.28906" lon="6.24994">
        <ele>266</ele>
        <time>2019-04-10T11:17:39.000Z</time>
      </trkpt>
      <trkpt lat="43.28916" lon="6.24985">
        <ele>266</ele>
        <time>2019-04-10T11:17:45.000Z</time>
      </trkpt>
      <trkpt lat="43.28932" lon="6.24974">
        <ele>266</ele>
        <time>2019-04-10T11:17:49.000Z</time>
      </trkpt>
      <trkpt lat="43.28946" lon="6.24966">
        <ele>265</ele>
        <time>2019-04-10T11:17:51.000Z</time>
      </trkpt>
      <trkpt lat="43.28959" lon="6.24959">
        <ele>265</ele>
        <time>2019-04-10T11:17:53.000Z</time>
      </trkpt>
      <trkpt lat="43.28971" lon="6.24953">
        <ele>265</ele>
        <time>2019-04-10T11:17:55.000Z</time>
      </trkpt>
      <trkpt lat="43.28991" lon="6.24936">
        <ele>265</ele>
        <time>2019-04-10T11:17:57.000Z</time>
      </trkpt>
      <trkpt lat="43.28991" lon="6.24936">
        <ele>265</ele>
        <time>2019-04-10T11:17:59.000Z</time>
      </trkpt>
      <trkpt lat="43.28991" lon="6.24936">
        <ele>265</ele>
        <time>2019-04-10T11:18:01.000Z</time>
      </trkpt>
      <trkpt lat="43.28991" lon="6.24936">
        <ele>265</ele>
        <time>2019-04-10T11:18:03.000Z</time>
      </trkpt>
      <trkpt lat="43.28991" lon="6.24936">
        <ele>265</ele>
        <time>2019-04-10T11:18:05.000Z</time>
      </trkpt>
      <trkpt lat="43.28991" lon="6.24936">
        <ele>265</ele>
        <time>2019-04-10T11:18:07.000Z</time>
      </trkpt>
      <trkpt lat="43.28997" lon="6.249">
        <ele>266</ele>
        <time>2019-04-10T11:18:11.000Z</time>
      </trkpt>
      <trkpt lat="43.28991" lon="6.24879">
        <ele>264</ele>
        <time>2019-04-10T11:18:15.000Z</time>
      </trkpt>
      <trkpt lat="43.28988" lon="6.24864">
        <ele>264</ele>
        <time>2019-04-10T11:18:17.000Z</time>
      </trkpt>
      <trkpt lat="43.28984" lon="6.24848">
        <ele>264</ele>
        <time>2019-04-10T11:18:19.000Z</time>
      </trkpt>
      <trkpt lat="43.2898" lon="6.24829">
        <ele>263</ele>
        <time>2019-04-10T11:18:21.000Z</time>
      </trkpt>
      <trkpt lat="43.28978" lon="6.24815">
        <ele>265</ele>
        <time>2019-04-10T11:18:23.000Z</time>
      </trkpt>
      <trkpt lat="43.28978" lon="6.24815">
        <ele>265</ele>
        <time>2019-04-10T11:18:26.000Z</time>
      </trkpt>
      <trkpt lat="43.28978" lon="6.24815">
        <ele>265</ele>
        <time>2019-04-10T11:18:28.000Z</time>
      </trkpt>
      <trkpt lat="43.28978" lon="6.24815">
        <ele>265</ele>
        <time>2019-04-10T11:18:30.000Z</time>
      </trkpt>
      <trkpt lat="43.28969" lon="6.24778">
        <ele>264</ele>
        <time>2019-04-10T11:18:34.000Z</time>
      </trkpt>
      <trkpt lat="43.28966" lon="6.24765">
        <ele>264</ele>
        <time>2019-04-10T11:18:36.000Z</time>
      </trkpt>
      <trkpt lat="43.28963" lon="6.2475">
        <ele>262</ele>
        <time>2019-04-10T11:18:38.000Z</time>
      </trkpt>
      <trkpt lat="43.28959" lon="6.24733">
        <ele>261</ele>
        <time>2019-04-10T11:18:40.000Z</time>
      </trkpt>
      <trkpt lat="43.28955" lon="6.24715">
        <ele>261</ele>
        <time>2019-04-10T11:18:42.000Z</time>
      </trkpt>
      <trkpt lat="43.2895" lon="6.24699">
        <ele>259</ele>
        <time>2019-04-10T11:18:44.000Z</time>
      </trkpt>
      <trkpt lat="43.28946" lon="6.24684">
        <ele>257</ele>
        <time>2019-04-10T11:18:46.000Z</time>
      </trkpt>
      <trkpt lat="43.28944" lon="6.2467">
        <ele>256</ele>
        <time>2019-04-10T11:18:48.000Z</time>
      </trkpt>
      <trkpt lat="43.28944" lon="6.2467">
        <ele>256</ele>
        <time>2019-04-10T11:18:50.000Z</time>
      </trkpt>
      <trkpt lat="43.28944" lon="6.2467">
        <ele>256</ele>
        <time>2019-04-10T11:18:52.000Z</time>
      </trkpt>
      <trkpt lat="43.28944" lon="6.2467">
        <ele>256</ele>
        <time>2019-04-10T11:18:54.000Z</time>
      </trkpt>
      <trkpt lat="43.28944" lon="6.2467">
        <ele>256</ele>
        <time>2019-04-10T11:18:56.000Z</time>
      </trkpt>
      <trkpt lat="43.28944" lon="6.2467">
        <ele>256</ele>
        <time>2019-04-10T11:18:58.000Z</time>
      </trkpt>
      <trkpt lat="43.28944" lon="6.2467">
        <ele>256</ele>
        <time>2019-04-10T11:19:00.000Z</time>
      </trkpt>
      <trkpt lat="43.28944" lon="6.2467">
        <ele>256</ele>
        <time>2019-04-10T11:19:02.000Z</time>
      </trkpt>
      <trkpt lat="43.28944" lon="6.2467">
        <ele>256</ele>
        <time>2019-04-10T11:19:04.000Z</time>
      </trkpt>
      <trkpt lat="43.28914" lon="6.24579">
        <ele>242</ele>
        <time>2019-04-10T11:19:08.000Z</time>
      </trkpt>
      <trkpt lat="43.28911" lon="6.24566">
        <ele>241</ele>
        <time>2019-04-10T11:19:10.000Z</time>
      </trkpt>
      <trkpt lat="43.2891" lon="6.2455">
        <ele>241</ele>
        <time>2019-04-10T11:19:12.000Z</time>
      </trkpt>
      <trkpt lat="43.28908" lon="6.24533">
        <ele>240</ele>
        <time>2019-04-10T11:19:14.000Z</time>
      </trkpt>
      <trkpt lat="43.28906" lon="6.24517">
        <ele>239</ele>
        <time>2019-04-10T11:19:16.000Z</time>
      </trkpt>
      <trkpt lat="43.28905" lon="6.24503">
        <ele>239</ele>
        <time>2019-04-10T11:19:18.000Z</time>
      </trkpt>
      <trkpt lat="43.28905" lon="6.24503">
        <ele>239</ele>
        <time>2019-04-10T11:19:19.000Z</time>
      </trkpt>
      <trkpt lat="43.28905" lon="6.24503">
        <ele>239</ele>
        <time>2019-04-10T11:19:21.000Z</time>
      </trkpt>
      <trkpt lat="43.28899" lon="6.24446">
        <ele>239</ele>
        <time>2019-04-10T11:19:25.000Z</time>
      </trkpt>
      <trkpt lat="43.28897" lon="6.24431">
        <ele>238</ele>
        <time>2019-04-10T11:19:27.000Z</time>
      </trkpt>
      <trkpt lat="43.28896" lon="6.24415">
        <ele>238</ele>
        <time>2019-04-10T11:19:29.000Z</time>
      </trkpt>
      <trkpt lat="43.28895" lon="6.244">
        <ele>239</ele>
        <time>2019-04-10T11:19:31.000Z</time>
      </trkpt>
      <trkpt lat="43.28893" lon="6.24386">
        <ele>237</ele>
        <time>2019-04-10T11:19:33.000Z</time>
      </trkpt>
      <trkpt lat="43.28893" lon="6.2437">
        <ele>237</ele>
        <time>2019-04-10T11:19:35.000Z</time>
      </trkpt>
      <trkpt lat="43.28893" lon="6.2437">
        <ele>237</ele>
        <time>2019-04-10T11:19:37.000Z</time>
      </trkpt>
      <trkpt lat="43.28893" lon="6.2437">
        <ele>237</ele>
        <time>2019-04-10T11:19:39.000Z</time>
      </trkpt>
      <trkpt lat="43.28893" lon="6.2437">
        <ele>237</ele>
        <time>2019-04-10T11:19:41.000Z</time>
      </trkpt>
      <trkpt lat="43.28892" lon="6.24301">
        <ele>236</ele>
        <time>2019-04-10T11:19:45.000Z</time>
      </trkpt>
      <trkpt lat="43.28891" lon="6.24285">
        <ele>235</ele>
        <time>2019-04-10T11:19:47.000Z</time>
      </trkpt>
      <trkpt lat="43.2889" lon="6.24271">
        <ele>235</ele>
        <time>2019-04-10T11:19:49.000Z</time>
      </trkpt>
      <trkpt lat="43.2889" lon="6.24271">
        <ele>235</ele>
        <time>2019-04-10T11:19:51.000Z</time>
      </trkpt>
      <trkpt lat="43.2889" lon="6.24271">
        <ele>235</ele>
        <time>2019-04-10T11:19:53.000Z</time>
      </trkpt>
      <trkpt lat="43.2889" lon="6.24271">
        <ele>235</ele>
        <time>2019-04-10T11:19:55.000Z</time>
      </trkpt>
      <trkpt lat="43.2889" lon="6.24271">
        <ele>235</ele>
        <time>2019-04-10T11:19:57.000Z</time>
      </trkpt>
      <trkpt lat="43.2889" lon="6.24271">
        <ele>235</ele>
        <time>2019-04-10T11:19:59.000Z</time>
      </trkpt>
      <trkpt lat="43.2889" lon="6.24271">
        <ele>235</ele>
        <time>2019-04-10T11:20:01.000Z</time>
      </trkpt>
      <trkpt lat="43.2889" lon="6.24271">
        <ele>235</ele>
        <time>2019-04-10T11:20:03.000Z</time>
      </trkpt>
      <trkpt lat="43.2889" lon="6.24271">
        <ele>235</ele>
        <time>2019-04-10T11:20:05.000Z</time>
      </trkpt>
      <trkpt lat="43.2889" lon="6.24271">
        <ele>235</ele>
        <time>2019-04-10T11:20:07.000Z</time>
      </trkpt>
      <trkpt lat="43.2889" lon="6.24271">
        <ele>235</ele>
        <time>2019-04-10T11:20:09.000Z</time>
      </trkpt>
      <trkpt lat="43.2889" lon="6.24271">
        <ele>235</ele>
        <time>2019-04-10T11:20:17.000Z</time>
      </trkpt>
      <trkpt lat="43.2889" lon="6.24271">
        <ele>235</ele>
        <time>2019-04-10T11:20:19.000Z</time>
      </trkpt>
      <trkpt lat="43.28894" lon="6.24205">
        <ele>244</ele>
        <time>2019-04-10T11:20:21.000Z</time>
      </trkpt>
      <trkpt lat="43.28895" lon="6.24168">
        <ele>244</ele>
        <time>2019-04-10T11:20:23.000Z</time>
      </trkpt>
      <trkpt lat="43.28896" lon="6.24146">
        <ele>244</ele>
        <time>2019-04-10T11:20:25.000Z</time>
      </trkpt>
      <trkpt lat="43.28896" lon="6.24128">
        <ele>243</ele>
        <time>2019-04-10T11:20:27.000Z</time>
      </trkpt>
      <trkpt lat="43.28896" lon="6.24113">
        <ele>242</ele>
        <time>2019-04-10T11:20:29.000Z</time>
      </trkpt>
      <trkpt lat="43.28896" lon="6.24082">
        <ele>241</ele>
        <time>2019-04-10T11:20:31.000Z</time>
      </trkpt>
      <trkpt lat="43.28896" lon="6.24065">
        <ele>240</ele>
        <time>2019-04-10T11:20:33.000Z</time>
      </trkpt>
      <trkpt lat="43.28896" lon="6.2405">
        <ele>240</ele>
        <time>2019-04-10T11:20:35.000Z</time>
      </trkpt>
      <trkpt lat="43.28896" lon="6.24034">
        <ele>240</ele>
        <time>2019-04-10T11:20:37.000Z</time>
      </trkpt>
      <trkpt lat="43.28897" lon="6.2402">
        <ele>240</ele>
        <time>2019-04-10T11:20:39.000Z</time>
      </trkpt>
      <trkpt lat="43.289" lon="6.24008">
        <ele>241</ele>
        <time>2019-04-10T11:20:41.000Z</time>
      </trkpt>
      <trkpt lat="43.289" lon="6.24008">
        <ele>241</ele>
        <time>2019-04-10T11:20:43.000Z</time>
      </trkpt>
      <trkpt lat="43.289" lon="6.24008">
        <ele>241</ele>
        <time>2019-04-10T11:20:45.000Z</time>
      </trkpt>
      <trkpt lat="43.289" lon="6.24008">
        <ele>241</ele>
        <time>2019-04-10T11:20:47.000Z</time>
      </trkpt>
      <trkpt lat="43.28901" lon="6.23955">
        <ele>241</ele>
        <time>2019-04-10T11:20:51.000Z</time>
      </trkpt>
      <trkpt lat="43.28902" lon="6.23942">
        <ele>240</ele>
        <time>2019-04-10T11:20:53.000Z</time>
      </trkpt>
      <trkpt lat="43.28904" lon="6.2393">
        <ele>240</ele>
        <time>2019-04-10T11:20:55.000Z</time>
      </trkpt>
      <trkpt lat="43.28904" lon="6.2393">
        <ele>240</ele>
        <time>2019-04-10T11:20:57.000Z</time>
      </trkpt>
      <trkpt lat="43.28904" lon="6.2393">
        <ele>240</ele>
        <time>2019-04-10T11:20:59.000Z</time>
      </trkpt>
      <trkpt lat="43.28904" lon="6.2393">
        <ele>240</ele>
        <time>2019-04-10T11:21:01.000Z</time>
      </trkpt>
      <trkpt lat="43.28904" lon="6.2393">
        <ele>240</ele>
        <time>2019-04-10T11:21:03.000Z</time>
      </trkpt>
      <trkpt lat="43.2891" lon="6.23865">
        <ele>243</ele>
        <time>2019-04-10T11:21:09.000Z</time>
      </trkpt>
      <trkpt lat="43.2891" lon="6.23845">
        <ele>242</ele>
        <time>2019-04-10T11:21:13.000Z</time>
      </trkpt>
      <trkpt lat="43.2891" lon="6.23845">
        <ele>242</ele>
        <time>2019-04-10T11:21:15.000Z</time>
      </trkpt>
      <trkpt lat="43.2891" lon="6.2382">
        <ele>241</ele>
        <time>2019-04-10T11:21:18.000Z</time>
      </trkpt>
      <trkpt lat="43.28911" lon="6.23801">
        <ele>241</ele>
        <time>2019-04-10T11:21:21.000Z</time>
      </trkpt>
      <trkpt lat="43.28912" lon="6.23788">
        <ele>242</ele>
        <time>2019-04-10T11:21:23.000Z</time>
      </trkpt>
      <trkpt lat="43.28914" lon="6.23765">
        <ele>241</ele>
        <time>2019-04-10T11:21:27.000Z</time>
      </trkpt>
      <trkpt lat="43.28914" lon="6.23765">
        <ele>241</ele>
        <time>2019-04-10T11:21:29.000Z</time>
      </trkpt>
      <trkpt lat="43.28914" lon="6.23765">
        <ele>241</ele>
        <time>2019-04-10T11:21:31.000Z</time>
      </trkpt>
      <trkpt lat="43.28914" lon="6.23765">
        <ele>241</ele>
        <time>2019-04-10T11:21:33.000Z</time>
      </trkpt>
      <trkpt lat="43.28913" lon="6.23708">
        <ele>237</ele>
        <time>2019-04-10T11:21:37.000Z</time>
      </trkpt>
      <trkpt lat="43.28913" lon="6.23708">
        <ele>237</ele>
        <time>2019-04-10T11:21:39.000Z</time>
      </trkpt>
      <trkpt lat="43.28913" lon="6.23708">
        <ele>237</ele>
        <time>2019-04-10T11:21:41.000Z</time>
      </trkpt>
      <trkpt lat="43.28913" lon="6.23708">
        <ele>237</ele>
        <time>2019-04-10T11:21:43.000Z</time>
      </trkpt>
      <trkpt lat="43.28913" lon="6.23708">
        <ele>237</ele>
        <time>2019-04-10T11:21:45.000Z</time>
      </trkpt>
      <trkpt lat="43.28913" lon="6.23708">
        <ele>237</ele>
        <time>2019-04-10T11:21:47.000Z</time>
      </trkpt>
      <trkpt lat="43.28905" lon="6.23653">
        <ele>230</ele>
        <time>2019-04-10T11:21:49.000Z</time>
      </trkpt>
      <trkpt lat="43.28902" lon="6.23638">
        <ele>229</ele>
        <time>2019-04-10T11:21:51.000Z</time>
      </trkpt>
      <trkpt lat="43.289" lon="6.23622">
        <ele>228</ele>
        <time>2019-04-10T11:21:53.000Z</time>
      </trkpt>
      <trkpt lat="43.28898" lon="6.23609">
        <ele>227</ele>
        <time>2019-04-10T11:21:55.000Z</time>
      </trkpt>
      <trkpt lat="43.28898" lon="6.23609">
        <ele>227</ele>
        <time>2019-04-10T11:21:58.000Z</time>
      </trkpt>
      <trkpt lat="43.28898" lon="6.23609">
        <ele>227</ele>
        <time>2019-04-10T11:22:00.000Z</time>
      </trkpt>
      <trkpt lat="43.28898" lon="6.23609">
        <ele>227</ele>
        <time>2019-04-10T11:22:02.000Z</time>
      </trkpt>
      <trkpt lat="43.28901" lon="6.23566">
        <ele>220</ele>
        <time>2019-04-10T11:22:04.000Z</time>
      </trkpt>
      <trkpt lat="43.28906" lon="6.23555">
        <ele>220</ele>
        <time>2019-04-10T11:22:06.000Z</time>
      </trkpt>
      <trkpt lat="43.28906" lon="6.23555">
        <ele>220</ele>
        <time>2019-04-10T11:22:08.000Z</time>
      </trkpt>
      <trkpt lat="43.28914" lon="6.23535">
        <ele>219</ele>
        <time>2019-04-10T11:22:10.000Z</time>
      </trkpt>
      <trkpt lat="43.28914" lon="6.23535">
        <ele>219</ele>
        <time>2019-04-10T11:22:12.000Z</time>
      </trkpt>
      <trkpt lat="43.28914" lon="6.23535">
        <ele>219</ele>
        <time>2019-04-10T11:22:14.000Z</time>
      </trkpt>
      <trkpt lat="43.28914" lon="6.23535">
        <ele>219</ele>
        <time>2019-04-10T11:22:16.000Z</time>
      </trkpt>
      <trkpt lat="43.28926" lon="6.23508">
        <ele>217</ele>
        <time>2019-04-10T11:22:20.000Z</time>
      </trkpt>
      <trkpt lat="43.28937" lon="6.2349">
        <ele>217</ele>
        <time>2019-04-10T11:22:22.000Z</time>
      </trkpt>
      <trkpt lat="43.28947" lon="6.23477">
        <ele>216</ele>
        <time>2019-04-10T11:22:24.000Z</time>
      </trkpt>
      <trkpt lat="43.28947" lon="6.23477">
        <ele>216</ele>
        <time>2019-04-10T11:22:26.000Z</time>
      </trkpt>
      <trkpt lat="43.28947" lon="6.23477">
        <ele>216</ele>
        <time>2019-04-10T11:22:28.000Z</time>
      </trkpt>
      <trkpt lat="43.28969" lon="6.23449">
        <ele>213</ele>
        <time>2019-04-10T11:22:34.000Z</time>
      </trkpt>
      <trkpt lat="43.28969" lon="6.23449">
        <ele>213</ele>
        <time>2019-04-10T11:22:36.000Z</time>
      </trkpt>
      <trkpt lat="43.28969" lon="6.23449">
        <ele>213</ele>
        <time>2019-04-10T11:22:38.000Z</time>
      </trkpt>
      <trkpt lat="43.28993" lon="6.23415">
        <ele>212</ele>
        <time>2019-04-10T11:22:42.000Z</time>
      </trkpt>
      <trkpt lat="43.29006" lon="6.23392">
        <ele>211</ele>
        <time>2019-04-10T11:22:44.000Z</time>
      </trkpt>
      <trkpt lat="43.29015" lon="6.23373">
        <ele>208</ele>
        <time>2019-04-10T11:22:46.000Z</time>
      </trkpt>
      <trkpt lat="43.29021" lon="6.23357">
        <ele>209</ele>
        <time>2019-04-10T11:22:48.000Z</time>
      </trkpt>
      <trkpt lat="43.29026" lon="6.23341">
        <ele>209</ele>
        <time>2019-04-10T11:22:50.000Z</time>
      </trkpt>
      <trkpt lat="43.29034" lon="6.2331">
        <ele>208</ele>
        <time>2019-04-10T11:22:52.000Z</time>
      </trkpt>
      <trkpt lat="43.29034" lon="6.2331">
        <ele>208</ele>
        <time>2019-04-10T11:22:54.000Z</time>
      </trkpt>
      <trkpt lat="43.29034" lon="6.2331">
        <ele>208</ele>
        <time>2019-04-10T11:22:56.000Z</time>
      </trkpt>
      <trkpt lat="43.29034" lon="6.2331">
        <ele>208</ele>
        <time>2019-04-10T11:22:58.000Z</time>
      </trkpt>
      <trkpt lat="43.29055" lon="6.23256">
        <ele>205</ele>
        <time>2019-04-10T11:23:02.000Z</time>
      </trkpt>
      <trkpt lat="43.29062" lon="6.23241">
        <ele>204</ele>
        <time>2019-04-10T11:23:04.000Z</time>
      </trkpt>
      <trkpt lat="43.29069" lon="6.23226">
        <ele>204</ele>
        <time>2019-04-10T11:23:06.000Z</time>
      </trkpt>
      <trkpt lat="43.29075" lon="6.23211">
        <ele>202</ele>
        <time>2019-04-10T11:23:08.000Z</time>
      </trkpt>
      <trkpt lat="43.29085" lon="6.23202">
        <ele>202</ele>
        <time>2019-04-10T11:23:10.000Z</time>
      </trkpt>
      <trkpt lat="43.29096" lon="6.23203">
        <ele>200</ele>
        <time>2019-04-10T11:23:12.000Z</time>
      </trkpt>
      <trkpt lat="43.29107" lon="6.23208">
        <ele>199</ele>
        <time>2019-04-10T11:23:14.000Z</time>
      </trkpt>
      <trkpt lat="43.29119" lon="6.23206">
        <ele>199</ele>
        <time>2019-04-10T11:23:16.000Z</time>
      </trkpt>
      <trkpt lat="43.29129" lon="6.23198">
        <ele>198</ele>
        <time>2019-04-10T11:23:18.000Z</time>
      </trkpt>
      <trkpt lat="43.29148" lon="6.23188">
        <ele>199</ele>
        <time>2019-04-10T11:23:21.000Z</time>
      </trkpt>
      <trkpt lat="43.29163" lon="6.23191">
        <ele>200</ele>
        <time>2019-04-10T11:23:23.000Z</time>
      </trkpt>
      <trkpt lat="43.29175" lon="6.23194">
        <ele>201</ele>
        <time>2019-04-10T11:23:25.000Z</time>
      </trkpt>
      <trkpt lat="43.29189" lon="6.23194">
        <ele>201</ele>
        <time>2019-04-10T11:23:27.000Z</time>
      </trkpt>
      <trkpt lat="43.29198" lon="6.23182">
        <ele>202</ele>
        <time>2019-04-10T11:23:29.000Z</time>
      </trkpt>
      <trkpt lat="43.29202" lon="6.23171">
        <ele>201</ele>
        <time>2019-04-10T11:23:31.000Z</time>
      </trkpt>
      <trkpt lat="43.29202" lon="6.23171">
        <ele>201</ele>
        <time>2019-04-10T11:23:33.000Z</time>
      </trkpt>
      <trkpt lat="43.29236" lon="6.23155">
        <ele>204</ele>
        <time>2019-04-10T11:23:37.000Z</time>
      </trkpt>
      <trkpt lat="43.29245" lon="6.23145">
        <ele>204</ele>
        <time>2019-04-10T11:23:39.000Z</time>
      </trkpt>
      <trkpt lat="43.29255" lon="6.23137">
        <ele>204</ele>
        <time>2019-04-10T11:23:41.000Z</time>
      </trkpt>
      <trkpt lat="43.29255" lon="6.23137">
        <ele>204</ele>
        <time>2019-04-10T11:23:43.000Z</time>
      </trkpt>
      <trkpt lat="43.29255" lon="6.23137">
        <ele>204</ele>
        <time>2019-04-10T11:23:45.000Z</time>
      </trkpt>
      <trkpt lat="43.29255" lon="6.23137">
        <ele>204</ele>
        <time>2019-04-10T11:23:47.000Z</time>
      </trkpt>
      <trkpt lat="43.29255" lon="6.23137">
        <ele>204</ele>
        <time>2019-04-10T11:23:57.000Z</time>
      </trkpt>
      <trkpt lat="43.29255" lon="6.23137">
        <ele>204</ele>
        <time>2019-04-10T11:23:59.000Z</time>
      </trkpt>
      <trkpt lat="43.29255" lon="6.23137">
        <ele>204</ele>
        <time>2019-04-10T11:24:01.000Z</time>
      </trkpt>
      <trkpt lat="43.29255" lon="6.23137">
        <ele>204</ele>
        <time>2019-04-10T11:24:03.000Z</time>
      </trkpt>
      <trkpt lat="43.29255" lon="6.23137">
        <ele>204</ele>
        <time>2019-04-10T11:24:05.000Z</time>
      </trkpt>
      <trkpt lat="43.29255" lon="6.23137">
        <ele>204</ele>
        <time>2019-04-10T11:24:09.000Z</time>
      </trkpt>
    </trkseg>
  </trk>
</gpx>